Darstellungsparameter: Aktuell verwendete Einstellungen:
Skalierung der Graphiken ... ?
xyx+y,   Skalierungsfaktor:      Skalierung: Modus: x, Faktor: 1
Darstellungszeitraum ... ?
Vom - - bis: - -   Zeitraum: 06.02.2020 - 05.08.2020
Min/Max/Avg-Anzeige ... ?
Zeige MMA aktuell
Zeige MMA Monat
Zeige MMA alles
Zeige --A aktuell
Zeige --A Monat
Zeige --A alles
Keine MMA-Anzeige
MMA:
Keine MMA-Graphiken
MMA-Basis: 06.02.2020 - 05.08.2020
Quicknavigation für Darstellung... ?
Tage:      1T, 2T, 3T, 5T -1T -2T -3T -5T +1T +2T +3T +5T
Wochen: 1W, 2W, 3W -1W -2W -3W +1W +2W +3W
Monate: 1M, 3M, 6M -1M -3M -6M +1M +3M +6M
Jahre:    1J, 3J, 5J, 10J -1J -3J -5J -10J +1J +3J +5J +10J
Nutze für die Darstellung ... ?
Originaldaten oder Mittelwerte auf ...
Stundenbasis Tagesbasis Wochenbasis
Monatsbasis Jahresbasis      Datenbasis: Original-Daten
Darstellen als:
Statistik (Auto) Statistik J:M      Darstellung:
Zur Graphik,    zurück zur Übersicht aller Sensoren.
 
Tabellarische Datenbersicht: ?
 
Sensor: Nr:Datum:Temp:Feuchte:Taupunkt:
Aussen-T/F 1 06-02-2020 00:00:00 -0.4 C 95 % -1.1 C
2 06-02-2020 00:05:00 -0.4 C 95 % -1.1 C
3 06-02-2020 00:10:00 -0.4 C 95 % -1.1 C
4 06-02-2020 00:15:00 -0.4 C 95 % -1.1 C
5 06-02-2020 00:20:00 -0.4 C 95 % -1.1 C
6 06-02-2020 00:25:00 -0.3 C 95 % -1 C
7 06-02-2020 00:30:00 -0.3 C 95 % -1 C
8 06-02-2020 00:35:00 -0.3 C 95 % -1 C
9 06-02-2020 00:40:00 -0.4 C 95 % -1.1 C
10 06-02-2020 00:45:00 -0.3 C 95 % -1 C
11 06-02-2020 00:50:00 -0.3 C 95 % -1 C
12 06-02-2020 00:55:00 -0.3 C 95 % -1 C
13 06-02-2020 01:00:00 -0.3 C 95 % -1 C
14 06-02-2020 01:05:00 -0.3 C 95 % -1 C
15 06-02-2020 01:10:00 -0.2 C 96 % -0.76 C
16 06-02-2020 01:15:00 -0.1 C 96 % -0.66 C
17 06-02-2020 01:20:00 0 C 96 % -0.56 C
18 06-02-2020 01:25:00 0 C 96 % -0.56 C
19 06-02-2020 01:30:00 0 C 96 % -0.56 C
20 06-02-2020 01:35:00 0 C 96 % -0.56 C
21 06-02-2020 01:40:00 -0.1 C 96 % -0.66 C
22 06-02-2020 01:45:00 -0.1 C 95 % -0.8 C
23 06-02-2020 01:50:00 -0.2 C 95 % -0.9 C
24 06-02-2020 01:55:00 -0.2 C 95 % -0.9 C
25 06-02-2020 02:00:00 -0.2 C 95 % -0.9 C
Sensor: Nr:Datum:Temp:Feuchte:Taupunkt:
Aussen-T/F 26 06-02-2020 02:05:00 -0.2 C 95 % -0.9 C
27 06-02-2020 02:10:00 -0.2 C 95 % -0.9 C
28 06-02-2020 02:15:00 -0.1 C 95 % -0.8 C
29 06-02-2020 02:20:00 -0.1 C 95 % -0.8 C
30 06-02-2020 02:25:00 -0.2 C 95 % -0.9 C
31 06-02-2020 02:30:00 -0.1 C 95 % -0.8 C
32 06-02-2020 02:35:00 -0.2 C 95 % -0.9 C
33 06-02-2020 02:40:00 -0.2 C 95 % -0.9 C
34 06-02-2020 02:45:00 -0.1 C 96 % -0.66 C
35 06-02-2020 02:50:00 -0.1 C 96 % -0.66 C
36 06-02-2020 02:55:00 -0.2 C 95 % -0.9 C
37 06-02-2020 03:00:00 -0.3 C 95 % -1 C
38 06-02-2020 03:05:00 -0.4 C 95 % -1.1 C
39 06-02-2020 03:10:00 -0.5 C 95 % -1.2 C
40 06-02-2020 03:15:00 -0.6 C 95 % -1.3 C
41 06-02-2020 03:20:00 -0.7 C 95 % -1.4 C
42 06-02-2020 03:25:00 -0.7 C 95 % -1.4 C
43 06-02-2020 03:30:00 -0.7 C 95 % -1.4 C
44 06-02-2020 03:35:00 -0.7 C 95 % -1.4 C
45 06-02-2020 03:40:00 -0.7 C 95 % -1.4 C
46 06-02-2020 03:45:00 -0.8 C 95 % -1.5 C
47 06-02-2020 03:50:00 -0.8 C 95 % -1.5 C
48 06-02-2020 03:55:00 -0.8 C 95 % -1.5 C
49 06-02-2020 04:00:00 -0.8 C 95 % -1.5 C
50 06-02-2020 04:05:00 -0.8 C 95 % -1.5 C
Sensor: Nr:Datum:Temp:Feuchte:Taupunkt:
Aussen-T/F 51 06-02-2020 04:10:00 -0.8 C 95 % -1.5 C
52 06-02-2020 04:15:00 -0.8 C 96 % -1.36 C
53 06-02-2020 04:20:00 -0.8 C 96 % -1.36 C
54 06-02-2020 04:25:00 -0.8 C 96 % -1.36 C
55 06-02-2020 04:30:00 -0.7 C 96 % -1.26 C
56 06-02-2020 04:35:00 -0.7 C 96 % -1.26 C
57 06-02-2020 04:40:00 -0.6 C 96 % -1.16 C
58 06-02-2020 04:45:00 -0.6 C 96 % -1.16 C
59 06-02-2020 04:50:00 -0.7 C 96 % -1.26 C
60 06-02-2020 04:55:00 -0.7 C 96 % -1.26 C
61 06-02-2020 05:00:00 -0.7 C 96 % -1.26 C
62 06-02-2020 05:05:00 -0.7 C 96 % -1.26 C
63 06-02-2020 05:10:00 -0.7 C 96 % -1.26 C
64 06-02-2020 05:15:00 -0.7 C 96 % -1.26 C
65 06-02-2020 05:20:00 -0.8 C 96 % -1.36 C
66 06-02-2020 05:25:00 -0.8 C 96 % -1.36 C
67 06-02-2020 05:30:00 -0.8 C 96 % -1.36 C
68 06-02-2020 05:35:00 -0.9 C 96 % -1.46 C
69 06-02-2020 05:40:00 -0.9 C 96 % -1.46 C
70 06-02-2020 05:45:00 -1 C 96 % -1.56 C
71 06-02-2020 05:50:00 -1.1 C 96 % -1.66 C
72 06-02-2020 05:55:00 -1.1 C 96 % -1.66 C
73 06-02-2020 06:00:00 -1.1 C 96 % -1.66 C
74 06-02-2020 06:05:00 -1.1 C 96 % -1.66 C
75 06-02-2020 06:10:00 -0.9 C 96 % -1.46 C
Sensor: Nr:Datum:Temp:Feuchte:Taupunkt:
Aussen-T/F 76 06-02-2020 06:15:00 -0.9 C 96 % -1.46 C
77 06-02-2020 06:20:00 -0.8 C 96 % -1.36 C
78 06-02-2020 06:25:00 -0.9 C 96 % -1.46 C
79 06-02-2020 06:30:00 -0.9 C 96 % -1.46 C
80 06-02-2020 06:35:00 -1.1 C 96 % -1.66 C
81 06-02-2020 06:40:00 -1.1 C 96 % -1.66 C
82 06-02-2020 06:45:00 -1.2 C 96 % -1.75 C
83 06-02-2020 06:50:00 -1.2 C 96 % -1.75 C
84 06-02-2020 06:55:00 -1.3 C 96 % -1.85 C
85 06-02-2020 07:00:00 -1.3 C 96 % -1.85 C
86 06-02-2020 07:05:00 -1.4 C 96 % -1.95 C
87 06-02-2020 07:10:00 -1.3 C 96 % -1.85 C
88 06-02-2020 07:15:00 -1.3 C 96 % -1.85 C
89 06-02-2020 07:20:00 -1.4 C 96 % -1.95 C
90 06-02-2020 07:25:00 -1.3 C 96 % -1.85 C
91 06-02-2020 07:30:00 -1.3 C 96 % -1.85 C
92 06-02-2020 07:35:00 -1.3 C 96 % -1.85 C
93 06-02-2020 07:40:00 -1.2 C 96 % -1.75 C
94 06-02-2020 07:45:00 -1.2 C 96 % -1.75 C
95 06-02-2020 07:50:00 -1.2 C 96 % -1.75 C
96 06-02-2020 07:55:00 -1.1 C 96 % -1.66 C
97 06-02-2020 08:00:00 -1.1 C 96 % -1.66 C
98 06-02-2020 08:05:00 -1.1 C 96 % -1.66 C
99 06-02-2020 08:10:00 -1.1 C 96 % -1.66 C
100 06-02-2020 08:15:00 -1 C 96 % -1.56 C
Sensor: Nr:Datum:Temp:Feuchte:Taupunkt:
Aussen-T/F 101 06-02-2020 08:20:00 -0.9 C 96 % -1.46 C
102 06-02-2020 08:25:00 -0.9 C 96 % -1.46 C
103 06-02-2020 08:30:00 -0.9 C 96 % -1.46 C
104 06-02-2020 08:35:00 -0.9 C 96 % -1.46 C
105 06-02-2020 08:40:00 -0.9 C 96 % -1.46 C
106 06-02-2020 08:45:00 -0.9 C 96 % -1.46 C
107 06-02-2020 08:50:00 -0.8 C 96 % -1.36 C
108 06-02-2020 08:55:00 -0.7 C 96 % -1.26 C
109 06-02-2020 09:00:00 -0.7 C 96 % -1.26 C
110 06-02-2020 09:05:00 -0.6 C 96 % -1.16 C
111 06-02-2020 09:10:00 -0.6 C 96 % -1.16 C
112 06-02-2020 09:15:00 -0.6 C 96 % -1.16 C
113 06-02-2020 09:20:00 -0.6 C 96 % -1.16 C
114 06-02-2020 09:25:00 -0.5 C 96 % -1.06 C
115 06-02-2020 09:30:00 -0.5 C 96 % -1.06 C
116 06-02-2020 09:35:00 -0.5 C 96 % -1.06 C
117 06-02-2020 09:40:00 -0.4 C 96 % -0.96 C
118 06-02-2020 09:45:00 -0.4 C 96 % -0.96 C
119 06-02-2020 09:50:00 -0.3 C 97 % -0.72 C
120 06-02-2020 09:55:00 -0.3 C 97 % -0.72 C
121 06-02-2020 10:00:00 -0.3 C 97 % -0.72 C
122 06-02-2020 10:05:00 -0.3 C 97 % -0.72 C
123 06-02-2020 10:10:00 -0.3 C 97 % -0.72 C
124 06-02-2020 10:15:00 -0.2 C 97 % -0.62 C
125 06-02-2020 10:20:00 -0.2 C 96 % -0.76 C
Sensor: Nr:Datum:Temp:Feuchte:Taupunkt:
Aussen-T/F 126 06-02-2020 10:25:00 -0.2 C 96 % -0.76 C
127 06-02-2020 10:30:00 -0.1 C 96 % -0.66 C
128 06-02-2020 10:35:00 -0.1 C 96 % -0.66 C
129 06-02-2020 10:40:00 0 C 97 % -0.42 C
130 06-02-2020 10:45:00 0.1 C 97 % -0.32 C
131 06-02-2020 10:50:00 0.1 C 97 % -0.32 C
132 06-02-2020 10:55:00 0.2 C 97 % -0.22 C
133 06-02-2020 11:00:00 0.2 C 97 % -0.22 C
134 06-02-2020 11:05:00 0.2 C 97 % -0.22 C
135 06-02-2020 11:10:00 0.2 C 97 % -0.22 C
136 06-02-2020 11:15:00 0.3 C 97 % -0.12 C
137 06-02-2020 11:20:00 0.3 C 97 % -0.12 C
138 06-02-2020 11:25:00 0.4 C 97 % -0.02 C
139 06-02-2020 11:30:00 0.4 C 97 % -0.02 C
140 06-02-2020 11:35:00 0.4 C 97 % -0.02 C
141 06-02-2020 11:40:00 0.6 C 97 % 0.18 C
142 06-02-2020 11:45:00 0.6 C 97 % 0.18 C
143 06-02-2020 11:50:00 0.7 C 97 % 0.28 C
144 06-02-2020 11:55:00 0.8 C 97 % 0.38 C
145 06-02-2020 12:00:00 0.9 C 97 % 0.48 C
146 06-02-2020 12:05:00 1.1 C 97 % 0.68 C
147 06-02-2020 12:10:00 1.2 C 97 % 0.78 C
148 06-02-2020 12:15:00 1.3 C 97 % 0.88 C
149 06-02-2020 12:20:00 1.5 C 97 % 1.08 C
150 06-02-2020 12:25:00 1.7 C 97 % 1.28 C
Sensor: Nr:Datum:Temp:Feuchte:Taupunkt:
Aussen-T/F 151 06-02-2020 12:30:00 1.8 C 97 % 1.38 C
152 06-02-2020 12:35:00 1.8 C 97 % 1.38 C
153 06-02-2020 12:40:00 1.9 C 97 % 1.48 C
154 06-02-2020 12:45:00 2.1 C 97 % 1.67 C
155 06-02-2020 12:50:00 2.1 C 97 % 1.67 C
156 06-02-2020 12:55:00 2.2 C 97 % 1.77 C
157 06-02-2020 13:00:00 2.3 C 97 % 1.87 C
158 06-02-2020 13:05:00 2.4 C 96 % 1.83 C
159 06-02-2020 13:10:00 2.6 C 96 % 2.03 C
160 06-02-2020 13:15:00 2.8 C 96 % 2.23 C
161 06-02-2020 13:20:00 2.8 C 95 % 2.08 C
162 06-02-2020 13:25:00 2.9 C 95 % 2.18 C
163 06-02-2020 13:30:00 2.9 C 94 % 2.03 C
164 06-02-2020 13:35:00 3.1 C 94 % 2.23 C
165 06-02-2020 13:40:00 3.3 C 94 % 2.43 C
166 06-02-2020 13:45:00 3.4 C 94 % 2.53 C
167 06-02-2020 13:50:00 3.6 C 93 % 2.58 C
168 06-02-2020 13:55:00 3.7 C 93 % 2.68 C
169 06-02-2020 14:00:00 3.8 C 93 % 2.77 C
170 06-02-2020 14:05:00 3.9 C 92 % 2.72 C
171 06-02-2020 14:10:00 4.2 C 92 % 3.02 C
172 06-02-2020 14:15:00 4.3 C 92 % 3.12 C
173 06-02-2020 14:20:00 4.4 C 91 % 3.06 C
174 06-02-2020 14:25:00 4.6 C 91 % 3.26 C
175 06-02-2020 14:30:00 4.7 C 90 % 3.2 C
Sensor: Nr:Datum:Temp:Feuchte:Taupunkt:
Aussen-T/F 176 06-02-2020 14:35:00 4.7 C 89 % 3.05 C
177 06-02-2020 14:40:00 4.8 C 89 % 3.14 C
178 06-02-2020 14:45:00 4.8 C 89 % 3.14 C
179 06-02-2020 14:50:00 4.9 C 88 % 3.08 C
180 06-02-2020 14:55:00 5 C 88 % 3.18 C
181 06-02-2020 15:00:00 5.1 C 88 % 3.28 C
182 06-02-2020 15:05:00 5.2 C 88 % 3.38 C
183 06-02-2020 15:10:00 5.2 C 87 % 3.22 C
184 06-02-2020 15:15:00 5.2 C 85 % 2.89 C
185 06-02-2020 15:20:00 5.3 C 86 % 3.15 C
186 06-02-2020 15:25:00 5.3 C 86 % 3.15 C
187 06-02-2020 15:30:00 5.4 C 86 % 3.25 C
188 06-02-2020 15:35:00 5.4 C 85 % 3.09 C
189 06-02-2020 15:40:00 5.4 C 85 % 3.09 C
190 06-02-2020 15:45:00 5.6 C 86 % 3.45 C
191 06-02-2020 15:50:00 5.6 C 86 % 3.45 C
192 06-02-2020 15:55:00 5.6 C 83 % 2.95 C
193 06-02-2020 16:00:00 5.7 C 82 % 2.87 C
194 06-02-2020 16:05:00 5.7 C 80 % 2.53 C
195 06-02-2020 16:10:00 5.7 C 79 % 2.35 C
196 06-02-2020 16:15:00 5.7 C 80 % 2.53 C
197 06-02-2020 16:20:00 5.8 C 81 % 2.8 C
198 06-02-2020 16:25:00 5.8 C 80 % 2.62 C
199 06-02-2020 16:30:00 5.8 C 80 % 2.62 C
200 06-02-2020 16:35:00 5.8 C 78 % 2.27 C
Sensor: Nr:Datum:Temp:Feuchte:Taupunkt:
Aussen-T/F 201 06-02-2020 16:40:00 5.9 C 80 % 2.72 C
202 06-02-2020 16:45:00 5.8 C 80 % 2.62 C
203 06-02-2020 16:50:00 5.8 C 80 % 2.62 C
204 06-02-2020 16:55:00 5.6 C 81 % 2.6 C
205 06-02-2020 17:00:00 5.4 C 82 % 2.58 C
206 06-02-2020 17:05:00 5.2 C 83 % 2.56 C
207 06-02-2020 17:10:00 4.9 C 83 % 2.26 C
208 06-02-2020 17:15:00 4.7 C 84 % 2.23 C
209 06-02-2020 17:20:00 4.4 C 84 % 1.94 C
210 06-02-2020 17:25:00 4.2 C 85 % 1.91 C
211 06-02-2020 17:30:00 3.9 C 85 % 1.61 C
212 06-02-2020 17:35:00 3.8 C 86 % 1.68 C
213 06-02-2020 17:40:00 3.6 C 86 % 1.48 C
214 06-02-2020 17:45:00 3.3 C 87 % 1.35 C
215 06-02-2020 17:50:00 3.2 C 87 % 1.25 C
216 06-02-2020 17:55:00 2.9 C 87 % 0.96 C
217 06-02-2020 18:00:00 2.8 C 88 % 1.02 C
218 06-02-2020 18:05:00 2.6 C 88 % 0.82 C
219 06-02-2020 18:10:00 2.5 C 89 % 0.88 C
220 06-02-2020 18:15:00 2.4 C 89 % 0.78 C
221 06-02-2020 18:20:00 2.3 C 89 % 0.68 C
222 06-02-2020 18:25:00 2.2 C 89 % 0.58 C
223 06-02-2020 18:30:00 2 C 90 % 0.54 C
224 06-02-2020 18:35:00 1.9 C 90 % 0.44 C
225 06-02-2020 18:40:00 1.8 C 90 % 0.34 C
Sensor: Nr:Datum:Temp:Feuchte:Taupunkt:
Aussen-T/F 226 06-02-2020 18:45:00 1.8 C 91 % 0.49 C
227 06-02-2020 18:50:00 1.7 C 91 % 0.39 C
228 06-02-2020 18:55:00 1.7 C 91 % 0.39 C
229 06-02-2020 19:00:00 1.6 C 91 % 0.29 C
230 06-02-2020 19:05:00 1.4 C 91 % 0.1 C
231 06-02-2020 19:10:00 1.3 C 91 % 0 C
232 06-02-2020 19:15:00 1.2 C 91 % -0.1 C
233 06-02-2020 19:20:00 1.1 C 91 % -0.2 C
234 06-02-2020 19:25:00 1 C 92 % -0.15 C
235 06-02-2020 19:30:00 0.9 C 92 % -0.25 C
236 06-02-2020 19:35:00 0.9 C 92 % -0.25 C
237 06-02-2020 19:40:00 0.8 C 92 % -0.35 C
238 06-02-2020 19:45:00 0.7 C 92 % -0.45 C
239 06-02-2020 19:50:00 0.7 C 93 % -0.3 C
240 06-02-2020 19:55:00 0.6 C 93 % -0.4 C
241 06-02-2020 20:00:00 0.4 C 93 % -0.6 C
242 06-02-2020 20:05:00 0.3 C 93 % -0.7 C
243 06-02-2020 20:10:00 0.3 C 93 % -0.7 C
244 06-02-2020 20:15:00 0.2 C 93 % -0.79 C
245 06-02-2020 20:20:00 0.1 C 93 % -0.89 C
246 06-02-2020 20:25:00 0.1 C 93 % -0.89 C
247 06-02-2020 20:30:00 0.1 C 94 % -0.75 C
248 06-02-2020 20:35:00 0.1 C 94 % -0.75 C
249 06-02-2020 20:40:00 0 C 94 % -0.85 C
250 06-02-2020 20:45:00 -0.1 C 94 % -0.95 C
Sensor: Nr:Datum:Temp:Feuchte:Taupunkt:
Aussen-T/F 251 06-02-2020 20:50:00 -0.2 C 94 % -1.05 C
252 06-02-2020 20:55:00 -0.2 C 94 % -1.05 C
253 06-02-2020 21:00:00 -0.3 C 94 % -1.15 C
254 06-02-2020 21:05:00 -0.3 C 94 % -1.15 C
255 06-02-2020 21:10:00 -0.4 C 94 % -1.25 C
256 06-02-2020 21:15:00 -0.4 C 94 % -1.25 C
257 06-02-2020 21:20:00 -0.4 C 94 % -1.25 C
258 06-02-2020 21:25:00 -0.4 C 94 % -1.25 C
259 06-02-2020 21:30:00 -0.5 C 94 % -1.34 C
260 06-02-2020 21:35:00 -0.5 C 94 % -1.34 C
261 06-02-2020 21:40:00 -0.5 C 94 % -1.34 C
262 06-02-2020 21:45:00 -0.6 C 95 % -1.3 C
263 06-02-2020 21:50:00 -0.6 C 95 % -1.3 C
264 06-02-2020 21:55:00 -0.6 C 95 % -1.3 C
265 06-02-2020 22:00:00 -0.7 C 95 % -1.4 C
266 06-02-2020 22:05:00 -0.7 C 95 % -1.4 C
267 06-02-2020 22:10:00 -0.7 C 95 % -1.4 C
268 06-02-2020 22:15:00 -0.7 C 95 % -1.4 C
269 06-02-2020 22:20:00 -0.8 C 95 % -1.5 C
270 06-02-2020 22:25:00 -0.8 C 95 % -1.5 C
271 06-02-2020 22:30:00 -0.8 C 95 % -1.5 C
272 06-02-2020 22:35:00 -0.9 C 95 % -1.6 C
273 06-02-2020 22:40:00 -0.9 C 95 % -1.6 C
274 06-02-2020 22:45:00 -1 C 95 % -1.7 C
275 06-02-2020 22:50:00 -1 C 95 % -1.7 C
Sensor: Nr:Datum:Temp:Feuchte:Taupunkt:
Aussen-T/F 276 06-02-2020 22:55:00 -1.1 C 95 % -1.8 C
277 06-02-2020 23:00:00 -1.1 C 95 % -1.8 C
278 06-02-2020 23:05:00 -1.2 C 95 % -1.9 C
279 06-02-2020 23:10:00 -1.2 C 95 % -1.9 C
280 06-02-2020 23:15:00 -1.2 C 95 % -1.9 C
281 06-02-2020 23:20:00 -1.2 C 95 % -1.9 C
282 06-02-2020 23:25:00 -1.2 C 95 % -1.9 C
283 06-02-2020 23:30:00 -1.2 C 95 % -1.9 C
284 06-02-2020 23:35:00 -1.2 C 95 % -1.9 C
285 06-02-2020 23:40:00 -1.2 C 95 % -1.9 C
286 06-02-2020 23:45:00 -1.3 C 95 % -2 C
287 06-02-2020 23:50:00 -1.2 C 95 % -1.9 C
288 06-02-2020 23:55:00 -1.2 C 95 % -1.9 C
289 07-02-2020 00:00:00 -1.3 C 95 % -2 C
290 07-02-2020 00:05:00 -1.3 C 95 % -2 C
291 07-02-2020 00:10:00 -1.4 C 95 % -2.1 C
292 07-02-2020 00:15:00 -1.5 C 95 % -2.19 C
293 07-02-2020 00:20:00 -1.5 C 95 % -2.19 C
294 07-02-2020 00:25:00 -1.6 C 95 % -2.29 C
295 07-02-2020 00:30:00 -1.6 C 95 % -2.29 C
296 07-02-2020 00:35:00 -1.6 C 95 % -2.29 C
297 07-02-2020 00:40:00 -1.6 C 95 % -2.29 C
298 07-02-2020 00:45:00 -1.6 C 95 % -2.29 C
299 07-02-2020 00:50:00 -1.6 C 96 % -2.15 C
300 07-02-2020 00:55:00 -1.6 C 96 % -2.15 C
Sensor: Nr:Datum:Temp:Feuchte:Taupunkt:
Aussen-T/F 301 07-02-2020 01:00:00 -1.6 C 95 % -2.29 C
302 07-02-2020 01:05:00 -1.6 C 95 % -2.29 C
303 07-02-2020 01:10:00 -1.7 C 95 % -2.39 C
304 07-02-2020 01:15:00 -1.7 C 95 % -2.39 C
305 07-02-2020 01:20:00 -1.7 C 95 % -2.39 C
306 07-02-2020 01:25:00 -1.7 C 95 % -2.39 C
307 07-02-2020 01:30:00 -1.7 C 95 % -2.39 C
308 07-02-2020 01:35:00 -1.7 C 95 % -2.39 C
309 07-02-2020 01:40:00 -1.7 C 95 % -2.39 C
310 07-02-2020 01:45:00 -1.8 C 95 % -2.49 C
311 07-02-2020 01:50:00 -1.7 C 96 % -2.25 C
312 07-02-2020 01:55:00 -1.7 C 96 % -2.25 C
313 07-02-2020 02:00:00 -1.7 C 96 % -2.25 C
314 07-02-2020 02:05:00 -1.8 C 96 % -2.35 C
315 07-02-2020 02:10:00 -1.7 C 96 % -2.25 C
316 07-02-2020 02:15:00 -1.7 C 96 % -2.25 C
317 07-02-2020 02:20:00 -1.6 C 96 % -2.15 C
318 07-02-2020 02:25:00 -1.5 C 96 % -2.05 C
319 07-02-2020 02:30:00 -1.4 C 96 % -1.95 C
320 07-02-2020 02:35:00 -1.3 C 96 % -1.85 C
321 07-02-2020 02:40:00 -1.3 C 96 % -1.85 C
322 07-02-2020 02:45:00 -1.3 C 96 % -1.85 C
323 07-02-2020 02:50:00 -1.3 C 96 % -1.85 C
324 07-02-2020 02:55:00 -1.3 C 96 % -1.85 C
325 07-02-2020 03:00:00 -1.2 C 96 % -1.75 C
Sensor: Nr:Datum:Temp:Feuchte:Taupunkt:
Aussen-T/F 326 07-02-2020 03:05:00 -1.2 C 96 % -1.75 C
327 07-02-2020 03:10:00 -1.2 C 96 % -1.75 C
328 07-02-2020 03:15:00 -1.2 C 96 % -1.75 C
329 07-02-2020 03:20:00 -1.2 C 96 % -1.75 C
330 07-02-2020 03:25:00 -1.2 C 96 % -1.75 C
331 07-02-2020 03:30:00 -1.2 C 96 % -1.75 C
332 07-02-2020 03:35:00 -1.2 C 96 % -1.75 C
333 07-02-2020 03:40:00 -1.2 C 96 % -1.75 C
334 07-02-2020 03:45:00 -1.2 C 96 % -1.75 C
335 07-02-2020 03:50:00 -1.2 C 96 % -1.75 C
336 07-02-2020 03:55:00 -1.2 C 96 % -1.75 C
337 07-02-2020 04:00:00 -1.1 C 96 % -1.66 C
338 07-02-2020 04:05:00 -1.1 C 96 % -1.66 C
339 07-02-2020 04:10:00 -1.1 C 96 % -1.66 C
340 07-02-2020 04:15:00 -1.2 C 96 % -1.75 C
341 07-02-2020 04:20:00 -1.2 C 96 % -1.75 C
342 07-02-2020 04:25:00 -1.2 C 96 % -1.75 C
343 07-02-2020 04:30:00 -1.2 C 96 % -1.75 C
344 07-02-2020 04:35:00 -1.2 C 96 % -1.75 C
345 07-02-2020 04:40:00 -1.2 C 96 % -1.75 C
346 07-02-2020 04:45:00 -1.2 C 96 % -1.75 C
347 07-02-2020 04:50:00 -1.3 C 96 % -1.85 C
348 07-02-2020 04:55:00 -1.3 C 96 % -1.85 C
349 07-02-2020 05:00:00 -1.3 C 96 % -1.85 C
350 07-02-2020 05:05:00 -1.3 C 96 % -1.85 C
Sensor: Nr:Datum:Temp:Feuchte:Taupunkt:
Aussen-T/F 351 07-02-2020 05:10:00 -1.3 C 96 % -1.85 C
352 07-02-2020 05:15:00 -1.3 C 96 % -1.85 C
353 07-02-2020 05:20:00 -1.4 C 96 % -1.95 C
354 07-02-2020 05:25:00 -1.4 C 96 % -1.95 C
355 07-02-2020 05:30:00 -1.3 C 96 % -1.85 C
356 07-02-2020 05:35:00 -1.3 C 96 % -1.85 C
357 07-02-2020 05:40:00 -1.4 C 96 % -1.95 C
358 07-02-2020 05:45:00 -1.4 C 96 % -1.95 C
359 07-02-2020 05:50:00 -1.4 C 96 % -1.95 C
360 07-02-2020 05:55:00 -1.4 C 96 % -1.95 C
361 07-02-2020 06:00:00 -1.4 C 96 % -1.95 C
362 07-02-2020 06:05:00 -1.4 C 96 % -1.95 C
363 07-02-2020 06:10:00 -1.4 C 96 % -1.95 C
364 07-02-2020 06:15:00 -1.4 C 96 % -1.95 C
365 07-02-2020 06:20:00 -1.4 C 96 % -1.95 C
366 07-02-2020 06:25:00 -1.5 C 96 % -2.05 C
367 07-02-2020 06:30:00 -1.6 C 97 % -2.01 C
368 07-02-2020 06:35:00 -1.6 C 97 % -2.01 C
369 07-02-2020 06:40:00 -1.6 C 97 % -2.01 C
370 07-02-2020 06:45:00 -1.6 C 97 % -2.01 C
371 07-02-2020 06:50:00 -1.6 C 97 % -2.01 C
372 07-02-2020 06:55:00 -1.6 C 97 % -2.01 C
373 07-02-2020 07:00:00 -1.6 C 96 % -2.15 C
374 07-02-2020 07:05:00 -1.6 C 96 % -2.15 C
375 07-02-2020 07:10:00 -1.6 C 96 % -2.15 C
Sensor: Nr:Datum:Temp:Feuchte:Taupunkt:
Aussen-T/F 376 07-02-2020 07:15:00 -1.7 C 96 % -2.25 C
377 07-02-2020 07:20:00 -1.7 C 96 % -2.25 C
378 07-02-2020 07:25:00 -1.7 C 96 % -2.25 C
379 07-02-2020 07:30:00 -1.6 C 96 % -2.15 C
380 07-02-2020 07:35:00 -1.6 C 97 % -2.01 C
381 07-02-2020 07:40:00 -1.6 C 97 % -2.01 C
382 07-02-2020 07:45:00 -1.6 C 97 % -2.01 C
383 07-02-2020 07:50:00 -1.6 C 97 % -2.01 C
384 07-02-2020 07:55:00 -1.6 C 97 % -2.01 C
385 07-02-2020 08:00:00 -1.6 C 97 % -2.01 C
386 07-02-2020 08:05:00 -1.5 C 97 % -1.91 C
387 07-02-2020 08:10:00 -1.5 C 97 % -1.91 C
388 07-02-2020 08:15:00 -1.6 C 97 % -2.01 C
389 07-02-2020 08:20:00 -1.6 C 97 % -2.01 C
390 07-02-2020 08:25:00 -1.7 C 96 % -2.25 C
391 07-02-2020 08:30:00 -1.7 C 97 % -2.11 C
392 07-02-2020 08:35:00 -1.7 C 97 % -2.11 C
393 07-02-2020 08:40:00 -1.7 C 97 % -2.11 C
394 07-02-2020 08:45:00 -1.7 C 97 % -2.11 C
395 07-02-2020 08:50:00 -1.7 C 97 % -2.11 C
396 07-02-2020 08:55:00 -1.6 C 97 % -2.01 C
397 07-02-2020 09:00:00 -1.6 C 97 % -2.01 C
398 07-02-2020 09:05:00 -1.5 C 97 % -1.91 C
399 07-02-2020 09:10:00 -1.4 C 97 % -1.81 C
400 07-02-2020 09:15:00 -1.4 C 97 % -1.81 C
Sensor: Nr:Datum:Temp:Feuchte:Taupunkt:
Aussen-T/F 401 07-02-2020 09:20:00 -1.4 C 97 % -1.81 C
402 07-02-2020 09:25:00 -1.4 C 97 % -1.81 C
403 07-02-2020 09:30:00 -1.4 C 97 % -1.81 C
404 07-02-2020 09:35:00 -1.4 C 97 % -1.81 C
405 07-02-2020 09:40:00 -1.3 C 97 % -1.71 C
406 07-02-2020 09:45:00 -1.4 C 97 % -1.81 C
407 07-02-2020 09:50:00 -1.4 C 97 % -1.81 C
408 07-02-2020 09:55:00 -1.4 C 97 % -1.81 C
409 07-02-2020 10:00:00 -1.4 C 97 % -1.81 C
410 07-02-2020 10:05:00 -1.4 C 97 % -1.81 C
411 07-02-2020 10:10:00 -1.3 C 97 % -1.71 C
412 07-02-2020 10:15:00 -1.3 C 97 % -1.71 C
413 07-02-2020 10:20:00 -1.2 C 97 % -1.61 C
414 07-02-2020 10:25:00 -1.1 C 97 % -1.51 C
415 07-02-2020 10:30:00 -1 C 97 % -1.41 C
416 07-02-2020 10:35:00 -0.9 C 97 % -1.32 C
417 07-02-2020 10:40:00 -0.9 C 97 % -1.32 C
418 07-02-2020 10:45:00 -0.9 C 97 % -1.32 C
419 07-02-2020 10:50:00 -0.8 C 97 % -1.22 C
420 07-02-2020 10:55:00 -0.8 C 97 % -1.22 C
421 07-02-2020 11:00:00 -0.8 C 97 % -1.22 C
422 07-02-2020 11:05:00 -0.7 C 97 % -1.12 C
423 07-02-2020 11:10:00 -0.7 C 97 % -1.12 C
424 07-02-2020 11:15:00 -0.7 C 97 % -1.12 C
425 07-02-2020 11:20:00 -0.7 C 97 % -1.12 C
Sensor: Nr:Datum:Temp:Feuchte:Taupunkt:
Aussen-T/F 426 07-02-2020 11:25:00 -0.6 C 97 % -1.02 C
427 07-02-2020 11:30:00 -0.6 C 97 % -1.02 C
428 07-02-2020 11:35:00 -0.4 C 97 % -0.82 C
429 07-02-2020 11:40:00 -0.3 C 97 % -0.72 C
430 07-02-2020 11:45:00 -0.3 C 97 % -0.72 C
431 07-02-2020 11:50:00 -0.2 C 97 % -0.62 C
432 07-02-2020 11:55:00 0 C 97 % -0.42 C
433 07-02-2020 12:00:00 0.1 C 97 % -0.32 C
434 07-02-2020 12:05:00 0.3 C 97 % -0.12 C
435 07-02-2020 12:10:00 0.3 C 97 % -0.12 C
436 07-02-2020 12:15:00 0.5 C 97 % 0.08 C
437 07-02-2020 12:20:00 0.6 C 97 % 0.18 C
438 07-02-2020 12:25:00 0.7 C 97 % 0.28 C
439 07-02-2020 12:30:00 0.8 C 97 % 0.38 C
440 07-02-2020 12:35:00 0.9 C 97 % 0.48 C
441 07-02-2020 12:40:00 1 C 97 % 0.58 C
442 07-02-2020 12:45:00 1.1 C 97 % 0.68 C
443 07-02-2020 12:50:00 1.2 C 97 % 0.78 C
444 07-02-2020 12:55:00 1.2 C 97 % 0.78 C
445 07-02-2020 13:00:00 1.3 C 97 % 0.88 C
446 07-02-2020 13:05:00 1.4 C 97 % 0.98 C
447 07-02-2020 13:10:00 1.5 C 97 % 1.08 C
448 07-02-2020 13:15:00 1.6 C 98 % 1.32 C
449 07-02-2020 13:20:00 1.7 C 97 % 1.28 C
450 07-02-2020 13:25:00 1.8 C 98 % 1.52 C
Sensor: Nr:Datum:Temp:Feuchte:Taupunkt:
Aussen-T/F 451 07-02-2020 13:30:00 1.8 C 98 % 1.52 C
452 07-02-2020 13:35:00 1.9 C 98 % 1.62 C
453 07-02-2020 13:40:00 2.1 C 97 % 1.67 C
454 07-02-2020 13:45:00 2.2 C 98 % 1.92 C
455 07-02-2020 13:50:00 2.3 C 98 % 2.02 C
456 07-02-2020 13:55:00 2.4 C 97 % 1.97 C
457 07-02-2020 14:00:00 2.6 C 98 % 2.32 C
458 07-02-2020 14:05:00 2.8 C 98 % 2.52 C
459 07-02-2020 14:10:00 2.9 C 98 % 2.62 C
460 07-02-2020 14:15:00 3 C 98 % 2.72 C
461 07-02-2020 14:20:00 3 C 98 % 2.72 C
462 07-02-2020 14:25:00 3.1 C 98 % 2.82 C
463 07-02-2020 14:30:00 3.1 C 98 % 2.82 C
464 07-02-2020 14:35:00 3.1 C 98 % 2.82 C
465 07-02-2020 14:40:00 3.1 C 97 % 2.67 C
466 07-02-2020 14:45:00 3.3 C 97 % 2.87 C
467 07-02-2020 14:50:00 3.3 C 97 % 2.87 C
468 07-02-2020 14:55:00 3.3 C 97 % 2.87 C
469 07-02-2020 15:00:00 3.6 C 97 % 3.17 C
470 07-02-2020 15:05:00 3.7 C 97 % 3.27 C
471 07-02-2020 15:10:00 3.8 C 97 % 3.37 C
472 07-02-2020 15:15:00 3.8 C 97 % 3.37 C
473 07-02-2020 15:20:00 3.8 C 96 % 3.22 C
474 07-02-2020 15:25:00 3.8 C 96 % 3.22 C
475 07-02-2020 15:30:00 3.8 C 95 % 3.07 C
Sensor: Nr:Datum:Temp:Feuchte:Taupunkt:
Aussen-T/F 476 07-02-2020 15:35:00 3.8 C 95 % 3.07 C
477 07-02-2020 15:40:00 3.8 C 94 % 2.93 C
478 07-02-2020 15:45:00 3.9 C 94 % 3.02 C
479 07-02-2020 15:50:00 4.1 C 93 % 3.07 C
480 07-02-2020 15:55:00 4.1 C 92 % 2.92 C
481 07-02-2020 16:00:00 4.2 C 91 % 2.87 C
482 07-02-2020 16:05:00 4.2 C 91 % 2.87 C
483 07-02-2020 16:10:00 4.2 C 91 % 2.87 C
484 07-02-2020 16:15:00 4.2 C 90 % 2.71 C
485 07-02-2020 16:20:00 4.1 C 90 % 2.61 C
486 07-02-2020 16:25:00 4.1 C 90 % 2.61 C
487 07-02-2020 16:30:00 3.9 C 90 % 2.41 C
488 07-02-2020 16:35:00 3.9 C 90 % 2.41 C
489 07-02-2020 16:40:00 3.8 C 90 % 2.31 C
490 07-02-2020 16:45:00 3.7 C 90 % 2.22 C
491 07-02-2020 16:50:00 3.7 C 90 % 2.22 C
492 07-02-2020 16:55:00 3.6 C 90 % 2.12 C
493 07-02-2020 17:00:00 3.5 C 90 % 2.02 C
494 07-02-2020 17:05:00 3.4 C 90 % 1.92 C
495 07-02-2020 17:10:00 3.3 C 90 % 1.82 C
496 07-02-2020 17:15:00 3.2 C 90 % 1.72 C
497 07-02-2020 17:20:00 3.1 C 91 % 1.78 C
498 07-02-2020 17:25:00 3.1 C 91 % 1.78 C
499 07-02-2020 17:30:00 3 C 91 % 1.68 C
500 07-02-2020 17:35:00 2.9 C 91 % 1.58 C
Sensor: Nr:Datum:Temp:Feuchte:Taupunkt:
Aussen-T/F 501 07-02-2020 17:40:00 2.8 C 91 % 1.48 C
502 07-02-2020 17:45:00 2.7 C 91 % 1.38 C
503 07-02-2020 17:50:00 2.6 C 91 % 1.28 C
504 07-02-2020 17:55:00 2.4 C 91 % 1.08 C
505 07-02-2020 18:00:00 2.4 C 91 % 1.08 C
506 07-02-2020 18:05:00 2.3 C 91 % 0.99 C
507 07-02-2020 18:10:00 2.2 C 91 % 0.89 C
508 07-02-2020 18:15:00 2.2 C 91 % 0.89 C
509 07-02-2020 18:20:00 2.1 C 91 % 0.79 C
510 07-02-2020 18:25:00 2 C 91 % 0.69 C
511 07-02-2020 18:30:00 1.9 C 91 % 0.59 C
512 07-02-2020 18:35:00 1.9 C 91 % 0.59 C
513 07-02-2020 18:40:00 1.8 C 91 % 0.49 C
514 07-02-2020 18:45:00 1.8 C 92 % 0.64 C
515 07-02-2020 18:50:00 1.7 C 92 % 0.54 C
516 07-02-2020 18:55:00 1.7 C 92 % 0.54 C
517 07-02-2020 19:00:00 1.7 C 92 % 0.54 C
518 07-02-2020 19:05:00 1.6 C 92 % 0.44 C
519 07-02-2020 19:10:00 1.6 C 92 % 0.44 C
520 07-02-2020 19:15:00 1.5 C 92 % 0.35 C
521 07-02-2020 19:20:00 1.4 C 92 % 0.25 C
522 07-02-2020 19:25:00 1.4 C 92 % 0.25 C
523 07-02-2020 19:30:00 1.4 C 92 % 0.25 C
524 07-02-2020 19:35:00 1.3 C 92 % 0.15 C
525 07-02-2020 19:40:00 1.3 C 93 % 0.3 C
Sensor: Nr:Datum:Temp:Feuchte:Taupunkt:
Aussen-T/F 526 07-02-2020 19:45:00 1.3 C 92 % 0.15 C
527 07-02-2020 19:50:00 1.2 C 93 % 0.2 C
528 07-02-2020 19:55:00 1.3 C 93 % 0.3 C
529 07-02-2020 20:00:00 1.2 C 93 % 0.2 C
530 07-02-2020 20:05:00 1.2 C 93 % 0.2 C
531 07-02-2020 20:10:00 1.2 C 93 % 0.2 C
532 07-02-2020 20:15:00 1.2 C 93 % 0.2 C
533 07-02-2020 20:20:00 1.1 C 93 % 0.1 C
534 07-02-2020 20:25:00 1.1 C 93 % 0.1 C
535 07-02-2020 20:30:00 1.1 C 93 % 0.1 C
536 07-02-2020 20:35:00 1.1 C 93 % 0.1 C
537 07-02-2020 20:40:00 1.1 C 93 % 0.1 C
538 07-02-2020 20:45:00 0.9 C 93 % -0.1 C
539 07-02-2020 20:50:00 0.9 C 93 % -0.1 C
540 07-02-2020 20:55:00 0.9 C 93 % -0.1 C
541 07-02-2020 21:00:00 0.9 C 93 % -0.1 C
542 07-02-2020 21:05:00 0.9 C 93 % -0.1 C
543 07-02-2020 21:10:00 0.9 C 93 % -0.1 C
544 07-02-2020 21:15:00 0.8 C 93 % -0.2 C
545 07-02-2020 21:20:00 0.8 C 93 % -0.2 C
546 07-02-2020 21:25:00 0.9 C 94 % 0.05 C
547 07-02-2020 21:30:00 0.9 C 94 % 0.05 C
548 07-02-2020 21:35:00 0.9 C 94 % 0.05 C
549 07-02-2020 21:40:00 0.9 C 94 % 0.05 C
550 07-02-2020 21:45:00 0.8 C 93 % -0.2 C
Sensor: Nr:Datum:Temp:Feuchte:Taupunkt:
Aussen-T/F 551 07-02-2020 21:50:00 0.8 C 93 % -0.2 C
552 07-02-2020 21:55:00 0.8 C 93 % -0.2 C
553 07-02-2020 22:00:00 0.7 C 93 % -0.3 C
554 07-02-2020 22:05:00 0.7 C 94 % -0.15 C
555 07-02-2020 22:10:00 0.6 C 94 % -0.25 C
556 07-02-2020 22:15:00 0.6 C 93 % -0.4 C
557 07-02-2020 22:20:00 0.6 C 93 % -0.4 C
558 07-02-2020 22:25:00 0.5 C 94 % -0.35 C
559 07-02-2020 22:30:00 0.4 C 94 % -0.45 C
560 07-02-2020 22:35:00 0.4 C 94 % -0.45 C
561 07-02-2020 22:40:00 0.4 C 94 % -0.45 C
562 07-02-2020 22:45:00 0.4 C 94 % -0.45 C
563 07-02-2020 22:50:00 0.4 C 94 % -0.45 C
564 07-02-2020 22:55:00 0.3 C 94 % -0.55 C
565 07-02-2020 23:00:00 0.3 C 94 % -0.55 C
566 07-02-2020 23:05:00 0.3 C 94 % -0.55 C
567 07-02-2020 23:10:00 0.2 C 94 % -0.65 C
568 07-02-2020 23:15:00 0.1 C 94 % -0.75 C
569 07-02-2020 23:20:00 0.1 C 94 % -0.75 C
570 07-02-2020 23:25:00 0 C 94 % -0.85 C
571 07-02-2020 23:30:00 0 C 94 % -0.85 C
572 07-02-2020 23:35:00 0 C 94 % -0.85 C
573 07-02-2020 23:40:00 0 C 94 % -0.85 C
574 07-02-2020 23:45:00 0.1 C 95 % -0.6 C
575 07-02-2020 23:50:00 0 C 95 % -0.7 C
Sensor: Nr:Datum:Temp:Feuchte:Taupunkt:
Aussen-T/F 576 07-02-2020 23:55:00 -0.1 C 94 % -0.95 C
577 08-02-2020 00:00:00 -0.1 C 94 % -0.95 C
578 08-02-2020 00:05:00 -0.1 C 95 % -0.8 C
579 08-02-2020 00:10:00 -0.2 C 94 % -1.05 C
580 08-02-2020 00:15:00 -0.2 C 94 % -1.05 C
581 08-02-2020 00:20:00 -0.2 C 95 % -0.9 C
582 08-02-2020 00:25:00 -0.2 C 94 % -1.05 C
583 08-02-2020 00:30:00 -0.3 C 95 % -1 C
584 08-02-2020 00:35:00 -0.3 C 95 % -1 C
585 08-02-2020 00:40:00 -0.3 C 95 % -1 C
586 08-02-2020 00:45:00 -0.4 C 95 % -1.1 C
587 08-02-2020 00:50:00 -0.5 C 94 % -1.34 C
588 08-02-2020 00:55:00 -0.6 C 94 % -1.44 C
589 08-02-2020 01:00:00 -0.6 C 95 % -1.3 C
590 08-02-2020 01:05:00 -0.7 C 95 % -1.4 C
591 08-02-2020 01:10:00 -0.7 C 95 % -1.4 C
592 08-02-2020 01:15:00 -0.7 C 95 % -1.4 C
593 08-02-2020 01:20:00 -0.7 C 95 % -1.4 C
594 08-02-2020 01:25:00 -0.8 C 95 % -1.5 C
595 08-02-2020 01:30:00 -0.8 C 95 % -1.5 C
596 08-02-2020 01:35:00 -0.8 C 95 % -1.5 C
597 08-02-2020 01:40:00 -0.8 C 95 % -1.5 C
598 08-02-2020 01:45:00 -0.8 C 95 % -1.5 C
599 08-02-2020 01:50:00 -0.9 C 95 % -1.6 C
600 08-02-2020 01:55:00 -0.9 C 95 % -1.6 C
Sensor: Nr:Datum:Temp:Feuchte:Taupunkt:
Aussen-T/F 601 08-02-2020 02:00:00 -0.9 C 95 % -1.6 C
602 08-02-2020 02:05:00 -0.9 C 95 % -1.6 C
603 08-02-2020 02:10:00 -0.9 C 95 % -1.6 C
604 08-02-2020 02:15:00 -1 C 95 % -1.7 C
605 08-02-2020 02:20:00 -1.1 C 95 % -1.8 C
606 08-02-2020 02:25:00 -1.1 C 95 % -1.8 C
607 08-02-2020 02:30:00 -1.1 C 95 % -1.8 C
608 08-02-2020 02:35:00 -1.2 C 95 % -1.9 C
609 08-02-2020 02:40:00 -1.2 C 95 % -1.9 C
610 08-02-2020 02:45:00 -1.2 C 95 % -1.9 C
611 08-02-2020 02:50:00 -1.2 C 95 % -1.9 C
612 08-02-2020 02:55:00 -1.2 C 95 % -1.9 C
613 08-02-2020 03:00:00 -1.3 C 95 % -2 C
614 08-02-2020 03:05:00 -1.3 C 95 % -2 C
615 08-02-2020 03:10:00 -1.3 C 95 % -2 C
616 08-02-2020 03:15:00 -1.2 C 95 % -1.9 C
617 08-02-2020 03:20:00 -1.2 C 96 % -1.75 C
618 08-02-2020 03:25:00 -1.3 C 95 % -2 C
619 08-02-2020 03:30:00 -1.3 C 95 % -2 C
620 08-02-2020 03:35:00 -1.3 C 95 % -2 C
621 08-02-2020 03:40:00 -1.3 C 95 % -2 C
622 08-02-2020 03:45:00 -1.4 C 95 % -2.1 C
623 08-02-2020 03:50:00 -1.4 C 95 % -2.1 C
624 08-02-2020 03:55:00 -1.4 C 95 % -2.1 C
625 08-02-2020 04:00:00 -1.2 C 96 % -1.75 C
Sensor: Nr:Datum:Temp:Feuchte:Taupunkt:
Aussen-T/F 626 08-02-2020 04:05:00 -1.2 C 96 % -1.75 C
627 08-02-2020 04:10:00 -1.2 C 96 % -1.75 C
628 08-02-2020 04:15:00 -1.3 C 96 % -1.85 C
629 08-02-2020 04:20:00 -1.3 C 95 % -2 C
630 08-02-2020 04:25:00 -1.4 C 95 % -2.1 C
631 08-02-2020 04:30:00 -1.4 C 96 % -1.95 C
632 08-02-2020 04:35:00 -1.3 C 96 % -1.85 C
633 08-02-2020 04:40:00 -1.3 C 96 % -1.85 C
634 08-02-2020 04:45:00 -1.3 C 96 % -1.85 C
635 08-02-2020 04:50:00 -1.3 C 96 % -1.85 C
636 08-02-2020 04:55:00 -1.3 C 96 % -1.85 C
637 08-02-2020 05:00:00 -1.3 C 96 % -1.85 C
638 08-02-2020 05:05:00 -1.4 C 96 % -1.95 C
639 08-02-2020 05:10:00 -1.4 C 96 % -1.95 C
640 08-02-2020 05:15:00 -1.4 C 96 % -1.95 C
641 08-02-2020 05:20:00 -1.4 C 96 % -1.95 C
642 08-02-2020 05:25:00 -1.4 C 96 % -1.95 C
643 08-02-2020 05:30:00 -1.4 C 96 % -1.95 C
644 08-02-2020 05:35:00 -1.4 C 96 % -1.95 C
645 08-02-2020 05:40:00 -1.4 C 96 % -1.95 C
646 08-02-2020 05:45:00 -1.5 C 96 % -2.05 C
647 08-02-2020 05:50:00 -1.4 C 96 % -1.95 C
648 08-02-2020 05:55:00 -1.4 C 96 % -1.95 C
649 08-02-2020 06:00:00 -1.4 C 96 % -1.95 C
650 08-02-2020 06:05:00 -1.4 C 96 % -1.95 C
Sensor: Nr:Datum:Temp:Feuchte:Taupunkt:
Aussen-T/F 651 08-02-2020 06:10:00 -1.4 C 96 % -1.95 C
652 08-02-2020 06:15:00 -1.4 C 96 % -1.95 C
653 08-02-2020 06:20:00 -1.3 C 96 % -1.85 C
654 08-02-2020 06:25:00 -1.3 C 96 % -1.85 C
655 08-02-2020 06:30:00 -1.3 C 96 % -1.85 C
656 08-02-2020 06:35:00 -1.3 C 96 % -1.85 C
657 08-02-2020 06:40:00 -1.4 C 96 % -1.95 C
658 08-02-2020 06:45:00 -1.3 C 96 % -1.85 C
659 08-02-2020 06:50:00 -1.3 C 96 % -1.85 C
660 08-02-2020 06:55:00 -1.3 C 96 % -1.85 C
661 08-02-2020 07:00:00 -1.2 C 96 % -1.75 C
662 08-02-2020 07:05:00 -1.1 C 96 % -1.66 C
663 08-02-2020 07:10:00 -1.1 C 96 % -1.66 C
664 08-02-2020 07:15:00 -1.2 C 96 % -1.75 C
665 08-02-2020 07:20:00 -1.2 C 96 % -1.75 C
666 08-02-2020 07:25:00 -1.2 C 96 % -1.75 C
667 08-02-2020 07:30:00 -1.2 C 96 % -1.75 C
668 08-02-2020 07:35:00 -1.2 C 96 % -1.75 C
669 08-02-2020 07:40:00 -1.2 C 96 % -1.75 C
670 08-02-2020 07:45:00 -1.1 C 96 % -1.66 C
671 08-02-2020 07:50:00 -1.1 C 96 % -1.66 C
672 08-02-2020 07:55:00 -1 C 96 % -1.56 C
673 08-02-2020 08:00:00 -1 C 96 % -1.56 C
674 08-02-2020 08:05:00 -0.9 C 96 % -1.46 C
675 08-02-2020 08:10:00 -0.9 C 96 % -1.46 C
Sensor: Nr:Datum:Temp:Feuchte:Taupunkt:
Aussen-T/F 676 08-02-2020 08:15:00 -0.8 C 96 % -1.36 C
677 08-02-2020 08:20:00 -0.8 C 96 % -1.36 C
678 08-02-2020 08:25:00 -0.8 C 96 % -1.36 C
679 08-02-2020 08:30:00 -0.8 C 96 % -1.36 C
680 08-02-2020 08:35:00 -0.8 C 96 % -1.36 C
681 08-02-2020 08:40:00 -0.7 C 96 % -1.26 C
682 08-02-2020 08:45:00 -0.7 C 96 % -1.26 C
683 08-02-2020 08:50:00 -0.6 C 96 % -1.16 C
684 08-02-2020 08:55:00 -0.5 C 96 % -1.06 C
685 08-02-2020 09:00:00 -0.4 C 96 % -0.96 C
686 08-02-2020 09:05:00 -0.3 C 97 % -0.72 C
687 08-02-2020 09:10:00 -0.2 C 97 % -0.62 C
688 08-02-2020 09:15:00 -0.2 C 97 % -0.62 C
689 08-02-2020 09:20:00 -0.1 C 97 % -0.52 C
690 08-02-2020 09:25:00 0.1 C 97 % -0.32 C
691 08-02-2020 09:30:00 0.2 C 97 % -0.22 C
692 08-02-2020 09:35:00 0.2 C 97 % -0.22 C
693 08-02-2020 09:40:00 0.3 C 97 % -0.12 C
694 08-02-2020 09:45:00 0.3 C 97 % -0.12 C
695 08-02-2020 09:50:00 0.4 C 97 % -0.02 C
696 08-02-2020 09:55:00 0.5 C 97 % 0.08 C
697 08-02-2020 10:00:00 0.6 C 97 % 0.18 C
698 08-02-2020 10:05:00 0.7 C 97 % 0.28 C
699 08-02-2020 10:10:00 0.8 C 97 % 0.38 C
700 08-02-2020 10:15:00 0.8 C 97 % 0.38 C
Sensor: Nr:Datum:Temp:Feuchte:Taupunkt:
Aussen-T/F 701 08-02-2020 10:20:00 0.9 C 97 % 0.48 C
702 08-02-2020 10:25:00 1 C 97 % 0.58 C
703 08-02-2020 10:30:00 1.1 C 96 % 0.54 C
704 08-02-2020 10:35:00 1.2 C 96 % 0.63 C
705 08-02-2020 10:40:00 1.3 C 97 % 0.88 C
706 08-02-2020 10:45:00 1.4 C 96 % 0.83 C
707 08-02-2020 10:50:00 1.4 C 96 % 0.83 C
708 08-02-2020 10:55:00 1.6 C 97 % 1.18 C
709 08-02-2020 11:00:00 1.7 C 96 % 1.13 C
710 08-02-2020 11:05:00 1.7 C 96 % 1.13 C
711 08-02-2020 11:10:00 1.8 C 96 % 1.23 C
712 08-02-2020 11:15:00 1.8 C 96 % 1.23 C
713 08-02-2020 11:20:00 1.8 C 96 % 1.23 C
714 08-02-2020 11:25:00 1.9 C 96 % 1.33 C
715 08-02-2020 11:30:00 1.9 C 96 % 1.33 C
716 08-02-2020 11:35:00 2.1 C 96 % 1.53 C
717 08-02-2020 11:40:00 2.1 C 96 % 1.53 C
718 08-02-2020 11:45:00 2.1 C 96 % 1.53 C
719 08-02-2020 11:50:00 2.2 C 96 % 1.63 C
720 08-02-2020 11:55:00 2.2 C 96 % 1.63 C
721 08-02-2020 12:00:00 2.3 C 96 % 1.73 C
722 08-02-2020 12:05:00 2.3 C 96 % 1.73 C
723 08-02-2020 12:10:00 2.4 C 96 % 1.83 C
724 08-02-2020 12:15:00 2.5 C 96 % 1.93 C
725 08-02-2020 12:20:00 2.6 C 96 % 2.03 C
Sensor: Nr:Datum:Temp:Feuchte:Taupunkt:
Aussen-T/F 726 08-02-2020 12:25:00 2.7 C 96 % 2.13 C
727 08-02-2020 12:30:00 2.7 C 95 % 1.98 C
728 08-02-2020 12:35:00 2.8 C 95 % 2.08 C
729 08-02-2020 12:40:00 2.8 C 95 % 2.08 C
730 08-02-2020 12:45:00 2.8 C 94 % 1.93 C
731 08-02-2020 12:50:00 2.9 C 95 % 2.18 C
732 08-02-2020 12:55:00 2.9 C 95 % 2.18 C
733 08-02-2020 13:00:00 3 C 94 % 2.13 C
734 08-02-2020 13:05:00 3.1 C 94 % 2.23 C
735 08-02-2020 13:10:00 3.1 C 94 % 2.23 C
736 08-02-2020 13:15:00 3.2 C 94 % 2.33 C
737 08-02-2020 13:20:00 3.2 C 94 % 2.33 C
738 08-02-2020 13:25:00 3.2 C 94 % 2.33 C
739 08-02-2020 13:30:00 3.3 C 94 % 2.43 C
740 08-02-2020 13:35:00 3.3 C 94 % 2.43 C
741 08-02-2020 13:40:00 3.4 C 93 % 2.38 C
742 08-02-2020 13:45:00 3.5 C 93 % 2.48 C
743 08-02-2020 13:50:00 3.6 C 93 % 2.58 C
744 08-02-2020 13:55:00 3.7 C 93 % 2.68 C
745 08-02-2020 14:00:00 3.8 C 93 % 2.77 C
746 08-02-2020 14:05:00 3.9 C 92 % 2.72 C
747 08-02-2020 14:10:00 4 C 92 % 2.82 C
748 08-02-2020 14:15:00 4.1 C 92 % 2.92 C
749 08-02-2020 14:20:00 4.2 C 92 % 3.02 C
750 08-02-2020 14:25:00 4.3 C 91 % 2.96 C
Sensor: Nr:Datum:Temp:Feuchte:Taupunkt:
Aussen-T/F 751 08-02-2020 14:30:00 4.3 C 91 % 2.96 C
752 08-02-2020 14:35:00 4.4 C 91 % 3.06 C
753 08-02-2020 14:40:00 4.5 C 91 % 3.16 C
754 08-02-2020 14:45:00 4.6 C 90 % 3.1 C
755 08-02-2020 14:50:00 4.7 C 90 % 3.2 C
756 08-02-2020 14:55:00 4.8 C 90 % 3.3 C
757 08-02-2020 15:00:00 4.8 C 90 % 3.3 C
758 08-02-2020 15:05:00 4.9 C 89 % 3.24 C
759 08-02-2020 15:10:00 5 C 89 % 3.34 C
760 08-02-2020 15:15:00 5.1 C 89 % 3.44 C
761 08-02-2020 15:20:00 5.1 C 89 % 3.44 C
762 08-02-2020 15:25:00 5.2 C 89 % 3.54 C
763 08-02-2020 15:30:00 5.3 C 90 % 3.8 C
764 08-02-2020 15:35:00 5.3 C 89 % 3.64 C
765 08-02-2020 15:40:00 5.4 C 89 % 3.74 C
766 08-02-2020 15:45:00 5.4 C 89 % 3.74 C
767 08-02-2020 15:50:00 5.4 C 89 % 3.74 C
768 08-02-2020 15:55:00 5.4 C 89 % 3.74 C
769 08-02-2020 16:00:00 5.4 C 89 % 3.74 C
770 08-02-2020 16:05:00 5.4 C 88 % 3.58 C
771 08-02-2020 16:10:00 5.4 C 88 % 3.58 C
772 08-02-2020 16:15:00 5.4 C 88 % 3.58 C
773 08-02-2020 16:20:00 5.4 C 89 % 3.74 C
774 08-02-2020 16:25:00 5.4 C 89 % 3.74 C
775 08-02-2020 16:30:00 5.4 C 89 % 3.74 C
Sensor: Nr:Datum:Temp:Feuchte:Taupunkt:
Aussen-T/F 776 08-02-2020 16:35:00 5.4 C 89 % 3.74 C
777 08-02-2020 16:40:00 5.4 C 90 % 3.89 C
778 08-02-2020 16:45:00 5.3 C 90 % 3.8 C
779 08-02-2020 16:50:00 5.3 C 90 % 3.8 C
780 08-02-2020 16:55:00 5.2 C 90 % 3.7 C
781 08-02-2020 17:00:00 5.2 C 90 % 3.7 C
782 08-02-2020 17:05:00 5.2 C 90 % 3.7 C
783 08-02-2020 17:10:00 5.1 C 90 % 3.6 C
784 08-02-2020 17:15:00 5 C 91 % 3.66 C
785 08-02-2020 17:20:00 4.9 C 91 % 3.56 C
786 08-02-2020 17:25:00 4.9 C 91 % 3.56 C
787 08-02-2020 17:30:00 4.9 C 91 % 3.56 C
788 08-02-2020 17:35:00 4.9 C 91 % 3.56 C
789 08-02-2020 17:40:00 4.8 C 91 % 3.46 C
790 08-02-2020 17:45:00 4.8 C 92 % 3.61 C
791 08-02-2020 17:50:00 4.8 C 92 % 3.61 C
792 08-02-2020 17:55:00 4.8 C 92 % 3.61 C
793 08-02-2020 18:00:00 4.8 C 92 % 3.61 C
794 08-02-2020 18:05:00 4.7 C 92 % 3.51 C
795 08-02-2020 18:10:00 4.7 C 92 % 3.51 C
796 08-02-2020 18:15:00 4.7 C 93 % 3.67 C
797 08-02-2020 18:20:00 4.7 C 93 % 3.67 C
798 08-02-2020 18:25:00 4.7 C 93 % 3.67 C
799 08-02-2020 18:30:00 4.6 C 93 % 3.57 C
800 08-02-2020 18:35:00 4.6 C 92 % 3.42 C
Sensor: Nr:Datum:Temp:Feuchte:Taupunkt:
Aussen-T/F 801 08-02-2020 18:40:00 4.6 C 93 % 3.57 C
802 08-02-2020 18:45:00 4.5 C 93 % 3.47 C
803 08-02-2020 18:50:00 4.5 C 93 % 3.47 C
804 08-02-2020 18:55:00 4.5 C 93 % 3.47 C
805 08-02-2020 19:00:00 4.4 C 93 % 3.37 C
806 08-02-2020 19:05:00 4.4 C 93 % 3.37 C
807 08-02-2020 19:10:00 4.4 C 93 % 3.37 C
808 08-02-2020 19:15:00 4.4 C 93 % 3.37 C
809 08-02-2020 19:20:00 4.3 C 93 % 3.27 C
810 08-02-2020 19:25:00 4.4 C 93 % 3.37 C
811 08-02-2020 19:30:00 4.4 C 93 % 3.37 C
812 08-02-2020 19:35:00 4.4 C 93 % 3.37 C
813 08-02-2020 19:40:00 4.4 C 94 % 3.52 C
814 08-02-2020 19:45:00 4.4 C 94 % 3.52 C
815 08-02-2020 19:50:00 4.5 C 94 % 3.62 C
816 08-02-2020 19:55:00 4.5 C 94 % 3.62 C
817 08-02-2020 20:00:00 4.5 C 94 % 3.62 C
818 08-02-2020 20:05:00 4.4 C 94 % 3.52 C
819 08-02-2020 20:10:00 4.4 C 94 % 3.52 C
820 08-02-2020 20:15:00 4.4 C 94 % 3.52 C
821 08-02-2020 20:20:00 4.3 C 94 % 3.42 C
822 08-02-2020 20:25:00 4.3 C 94 % 3.42 C
823 08-02-2020 20:30:00 4.2 C 94 % 3.32 C
824 08-02-2020 20:35:00 4.2 C 93 % 3.17 C
825 08-02-2020 20:40:00 4.2 C 94 % 3.32 C
Sensor: Nr:Datum:Temp:Feuchte:Taupunkt:
Aussen-T/F 826 08-02-2020 20:45:00 4.1 C 94 % 3.22 C
827 08-02-2020 20:50:00 4.1 C 94 % 3.22 C
828 08-02-2020 20:55:00 4 C 94 % 3.12 C
829 08-02-2020 21:00:00 4 C 94 % 3.12 C
830 08-02-2020 21:05:00 4 C 94 % 3.12 C
831 08-02-2020 21:10:00 3.9 C 94 % 3.02 C
832 08-02-2020 21:15:00 3.9 C 94 % 3.02 C
833 08-02-2020 21:20:00 3.8 C 94 % 2.93 C
834 08-02-2020 21:25:00 3.8 C 94 % 2.93 C
835 08-02-2020 21:30:00 3.8 C 94 % 2.93 C
836 08-02-2020 21:35:00 3.7 C 94 % 2.83 C
837 08-02-2020 21:40:00 3.6 C 94 % 2.73 C
838 08-02-2020 21:45:00 3.5 C 94 % 2.63 C
839 08-02-2020 21:50:00 3.4 C 94 % 2.53 C
840 08-02-2020 21:55:00 3.4 C 94 % 2.53 C
841 08-02-2020 22:00:00 3.3 C 94 % 2.43 C
842 08-02-2020 22:05:00 3.2 C 94 % 2.33 C
843 08-02-2020 22:10:00 3.1 C 94 % 2.23 C
844 08-02-2020 22:15:00 2.9 C 94 % 2.03 C
845 08-02-2020 22:20:00 2.9 C 94 % 2.03 C
846 08-02-2020 22:25:00 2.9 C 95 % 2.18 C
847 08-02-2020 22:30:00 2.9 C 95 % 2.18 C
848 08-02-2020 22:35:00 2.9 C 95 % 2.18 C
849 08-02-2020 22:40:00 2.9 C 95 % 2.18 C
850 08-02-2020 22:45:00 3 C 95 % 2.28 C
Sensor: Nr:Datum:Temp:Feuchte:Taupunkt:
Aussen-T/F 851 08-02-2020 22:50:00 3.1 C 95 % 2.38 C
852 08-02-2020 22:55:00 3.1 C 95 % 2.38 C
853 08-02-2020 23:00:00 3.2 C 95 % 2.48 C
854 08-02-2020 23:05:00 3.2 C 96 % 2.63 C
855 08-02-2020 23:10:00 3.3 C 95 % 2.58 C
856 08-02-2020 23:15:00 3.3 C 95 % 2.58 C
857 08-02-2020 23:20:00 3.3 C 95 % 2.58 C
858 08-02-2020 23:25:00 3.3 C 95 % 2.58 C
859 08-02-2020 23:30:00 3.3 C 95 % 2.58 C
860 08-02-2020 23:35:00 3.2 C 95 % 2.48 C
861 08-02-2020 23:40:00 3 C 95 % 2.28 C
862 08-02-2020 23:45:00 3 C 95 % 2.28 C
863 08-02-2020 23:50:00 3 C 95 % 2.28 C
864 08-02-2020 23:55:00 3.1 C 95 % 2.38 C
865 09-02-2020 00:00:00 3.1 C 95 % 2.38 C
866 09-02-2020 00:05:00 3.2 C 96 % 2.63 C
867 09-02-2020 00:10:00 3.2 C 96 % 2.63 C
868 09-02-2020 00:15:00 3.3 C 96 % 2.72 C
869 09-02-2020 00:20:00 3.3 C 96 % 2.72 C
870 09-02-2020 00:25:00 3.3 C 96 % 2.72 C
871 09-02-2020 00:30:00 3.4 C 96 % 2.82 C
872 09-02-2020 00:35:00 3.4 C 96 % 2.82 C
873 09-02-2020 00:40:00 3.5 C 96 % 2.92 C
874 09-02-2020 00:45:00 3.6 C 96 % 3.02 C
875 09-02-2020 00:50:00 3.6 C 96 % 3.02 C
Sensor: Nr:Datum:Temp:Feuchte:Taupunkt:
Aussen-T/F 876 09-02-2020 00:55:00 3.6 C 96 % 3.02 C
877 09-02-2020 01:00:00 3.6 C 96 % 3.02 C
878 09-02-2020 01:05:00 3.6 C 96 % 3.02 C
879 09-02-2020 01:10:00 3.6 C 96 % 3.02 C
880 09-02-2020 01:15:00 3.5 C 96 % 2.92 C
881 09-02-2020 01:20:00 3.4 C 95 % 2.68 C
882 09-02-2020 01:25:00 3.3 C 95 % 2.58 C
883 09-02-2020 01:30:00 3.2 C 96 % 2.63 C
884 09-02-2020 01:35:00 3.1 C 95 % 2.38 C
885 09-02-2020 01:40:00 2.9 C 95 % 2.18 C
886 09-02-2020 01:45:00 2.8 C 95 % 2.08 C
887 09-02-2020 01:50:00 2.7 C 95 % 1.98 C
888 09-02-2020 01:55:00 2.7 C 95 % 1.98 C
889 09-02-2020 02:00:00 2.7 C 95 % 1.98 C
890 09-02-2020 02:05:00 2.8 C 96 % 2.23 C
891 09-02-2020 02:10:00 2.7 C 95 % 1.98 C
892 09-02-2020 02:15:00 2.8 C 96 % 2.23 C
893 09-02-2020 02:20:00 2.9 C 96 % 2.33 C
894 09-02-2020 02:25:00 3.1 C 96 % 2.53 C
895 09-02-2020 02:30:00 3.1 C 96 % 2.53 C
896 09-02-2020 02:35:00 3.1 C 96 % 2.53 C
897 09-02-2020 02:40:00 3.1 C 96 % 2.53 C
898 09-02-2020 02:45:00 3.2 C 96 % 2.63 C
899 09-02-2020 02:50:00 3.1 C 96 % 2.53 C
900 09-02-2020 02:55:00 3.1 C 96 % 2.53 C
Sensor: Nr:Datum:Temp:Feuchte:Taupunkt:
Aussen-T/F 901 09-02-2020 03:00:00 3.1 C 96 % 2.53 C
902 09-02-2020 03:05:00 3.1 C 96 % 2.53 C
903 09-02-2020 03:10:00 2.9 C 96 % 2.33 C
904 09-02-2020 03:15:00 2.7 C 95 % 1.98 C
905 09-02-2020 03:20:00 2.6 C 95 % 1.88 C
906 09-02-2020 03:25:00 2.4 C 95 % 1.68 C
907 09-02-2020 03:30:00 2.3 C 95 % 1.58 C
908 09-02-2020 03:35:00 2.2 C 95 % 1.48 C
909 09-02-2020 03:40:00 2.2 C 96 % 1.63 C
910 09-02-2020 03:45:00 2.2 C 96 % 1.63 C
911 09-02-2020 03:50:00 2.1 C 96 % 1.53 C
912 09-02-2020 03:55:00 2 C 95 % 1.29 C
913 09-02-2020 04:00:00 2 C 96 % 1.43 C
914 09-02-2020 04:05:00 2 C 96 % 1.43 C
915 09-02-2020 04:10:00 2.1 C 96 % 1.53 C
916 09-02-2020 04:15:00 2.3 C 96 % 1.73 C
917 09-02-2020 04:20:00 2.4 C 96 % 1.83 C
918 09-02-2020 04:25:00 2.6 C 96 % 2.03 C
919 09-02-2020 04:30:00 2.7 C 96 % 2.13 C
920 09-02-2020 04:35:00 2.8 C 97 % 2.37 C
921 09-02-2020 04:40:00 2.8 C 97 % 2.37 C
922 09-02-2020 04:45:00 2.8 C 97 % 2.37 C
923 09-02-2020 04:50:00 2.9 C 97 % 2.47 C
924 09-02-2020 04:55:00 2.9 C 96 % 2.33 C
925 09-02-2020 05:00:00 3 C 96 % 2.43 C
Sensor: Nr:Datum:Temp:Feuchte:Taupunkt:
Aussen-T/F 926 09-02-2020 05:05:00 3.1 C 96 % 2.53 C
927 09-02-2020 05:10:00 3.1 C 96 % 2.53 C
928 09-02-2020 05:15:00 3.1 C 97 % 2.67 C
929 09-02-2020 05:20:00 3.2 C 97 % 2.77 C
930 09-02-2020 05:25:00 3.2 C 97 % 2.77 C
931 09-02-2020 05:30:00 3.3 C 97 % 2.87 C
932 09-02-2020 05:35:00 3.4 C 97 % 2.97 C
933 09-02-2020 05:40:00 3.5 C 97 % 3.07 C
934 09-02-2020 05:45:00 3.5 C 97 % 3.07 C
935 09-02-2020 05:50:00 3.5 C 97 % 3.07 C
936 09-02-2020 05:55:00 3.6 C 97 % 3.17 C
937 09-02-2020 06:00:00 3.5 C 97 % 3.07 C
938 09-02-2020 06:05:00 3.5 C 97 % 3.07 C
939 09-02-2020 06:10:00 3.5 C 97 % 3.07 C
940 09-02-2020 06:15:00 3.4 C 96 % 2.82 C
941 09-02-2020 06:20:00 3.2 C 96 % 2.63 C
942 09-02-2020 06:25:00 3.1 C 96 % 2.53 C
943 09-02-2020 06:30:00 2.9 C 96 % 2.33 C
944 09-02-2020 06:35:00 2.8 C 96 % 2.23 C
945 09-02-2020 06:40:00 2.7 C 96 % 2.13 C
946 09-02-2020 06:45:00 2.7 C 96 % 2.13 C
947 09-02-2020 06:50:00 2.8 C 96 % 2.23 C
948 09-02-2020 06:55:00 3 C 96 % 2.43 C
949 09-02-2020 07:00:00 3.1 C 97 % 2.67 C
950 09-02-2020 07:05:00 3.2 C 97 % 2.77 C
Sensor: Nr:Datum:Temp:Feuchte:Taupunkt:
Aussen-T/F 951 09-02-2020 07:10:00 3.3 C 97 % 2.87 C
952 09-02-2020 07:15:00 3.6 C 97 % 3.17 C
953 09-02-2020 07:20:00 3.6 C 97 % 3.17 C
954 09-02-2020 07:25:00 3.8 C 97 % 3.37 C
955 09-02-2020 07:30:00 4.3 C 97 % 3.87 C
956 09-02-2020 07:35:00 4.6 C 97 % 4.17 C
957 09-02-2020 07:40:00 4.9 C 97 % 4.46 C
958 09-02-2020 07:45:00 5.3 C 98 % 5.01 C
959 09-02-2020 07:50:00 5.8 C 98 % 5.51 C
960 09-02-2020 07:55:00 6.2 C 98 % 5.91 C
961 09-02-2020 08:00:00 6.4 C 98 % 6.11 C
962 09-02-2020 08:05:00 6.3 C 98 % 6.01 C
963 09-02-2020 08:10:00 6.2 C 97 % 5.76 C
964 09-02-2020 08:15:00 6.4 C 97 % 5.96 C
965 09-02-2020 08:20:00 6.8 C 97 % 6.36 C
966 09-02-2020 08:25:00 7.3 C 97 % 6.86 C
967 09-02-2020 08:30:00 7.9 C 96 % 7.3 C
968 09-02-2020 08:35:00 8.4 C 92 % 7.18 C
969 09-02-2020 08:40:00 8.8 C 90 % 7.25 C
970 09-02-2020 08:45:00 9.2 C 88 % 7.32 C
971 09-02-2020 08:50:00 9.3 C 86 % 7.08 C
972 09-02-2020 08:55:00 9.4 C 85 % 7.01 C
973 09-02-2020 09:00:00 9.6 C 85 % 7.21 C
974 09-02-2020 09:05:00 9.7 C 85 % 7.3 C
975 09-02-2020 09:10:00 9.9 C 83 % 7.15 C
Sensor: Nr:Datum:Temp:Feuchte:Taupunkt:
Aussen-T/F 976 09-02-2020 09:15:00 10.1 C 83 % 7.35 C
977 09-02-2020 09:20:00 10.2 C 82 % 7.27 C
978 09-02-2020 09:25:00 10.3 C 82 % 7.37 C
979 09-02-2020 09:30:00 10.4 C 82 % 7.46 C
980 09-02-2020 09:35:00 10.6 C 81 % 7.48 C
981 09-02-2020 09:40:00 10.6 C 80 % 7.3 C
982 09-02-2020 09:45:00 10.6 C 81 % 7.48 C
983 09-02-2020 09:50:00 10.4 C 81 % 7.28 C
984 09-02-2020 09:55:00 10.4 C 81 % 7.28 C
985 09-02-2020 10:00:00 10.4 C 81 % 7.28 C
986 09-02-2020 10:05:00 10.4 C 81 % 7.28 C
987 09-02-2020 10:10:00 10.5 C 80 % 7.2 C
988 09-02-2020 10:15:00 10.6 C 80 % 7.3 C
989 09-02-2020 10:20:00 10.6 C 80 % 7.3 C
990 09-02-2020 10:25:00 10.7 C 79 % 7.21 C
991 09-02-2020 10:30:00 10.8 C 79 % 7.31 C
992 09-02-2020 10:35:00 10.8 C 78 % 7.12 C
993 09-02-2020 10:40:00 10.8 C 77 % 6.94 C
994 09-02-2020 10:45:00 10.9 C 77 % 7.03 C
995 09-02-2020 10:50:00 11 C 77 % 7.13 C
996 09-02-2020 10:55:00 11.1 C 77 % 7.23 C
997 09-02-2020 11:00:00 11.1 C 76 % 7.04 C
998 09-02-2020 11:05:00 11.2 C 76 % 7.13 C
999 09-02-2020 11:10:00 11.3 C 75 % 7.04 C
1000 09-02-2020 11:15:00 11.4 C 74 % 6.94 C
Sensor: Nr:Datum:Temp:Feuchte:Taupunkt:
Aussen-T/F 1001 09-02-2020 11:20:00 11.5 C 74 % 7.03 C
1002 09-02-2020 11:25:00 11.7 C 73 % 7.03 C
1003 09-02-2020 11:30:00 11.8 C 73 % 7.12 C
1004 09-02-2020 11:35:00 11.8 C 72 % 6.92 C
1005 09-02-2020 11:40:00 11.9 C 72 % 7.02 C
1006 09-02-2020 11:45:00 11.9 C 72 % 7.02 C
1007 09-02-2020 11:50:00 11.9 C 73 % 7.22 C
1008 09-02-2020 11:55:00 11.8 C 71 % 6.72 C
1009 09-02-2020 12:00:00 11.8 C 72 % 6.92 C
1010 09-02-2020 12:05:00 11.8 C 72 % 6.92 C
1011 09-02-2020 12:10:00 11.7 C 72 % 6.83 C
1012 09-02-2020 12:15:00 11.7 C 72 % 6.83 C
1013 09-02-2020 12:20:00 11.7 C 72 % 6.83 C
1014 09-02-2020 12:25:00 11.7 C 72 % 6.83 C
1015 09-02-2020 12:30:00 11.7 C 71 % 6.62 C
1016 09-02-2020 12:35:00 11.6 C 71 % 6.53 C
1017 09-02-2020 12:40:00 11.6 C 70 % 6.32 C
1018 09-02-2020 12:45:00 11.6 C 70 % 6.32 C
1019 09-02-2020 12:50:00 11.5 C 71 % 6.43 C
1020 09-02-2020 12:55:00 11.4 C 71 % 6.34 C
1021 09-02-2020 13:00:00 11.4 C 70 % 6.13 C
1022 09-02-2020 13:05:00 11.3 C 70 % 6.03 C
1023 09-02-2020 13:10:00 11.3 C 70 % 6.03 C
1024 09-02-2020 13:15:00 11.3 C 70 % 6.03 C
1025 09-02-2020 13:20:00 11.3 C 70 % 6.03 C
Sensor: Nr:Datum:Temp:Feuchte:Taupunkt:
Aussen-T/F 1026 09-02-2020 13:25:00 11.3 C 70 % 6.03 C
1027 09-02-2020 13:30:00 11.3 C 70 % 6.03 C
1028 09-02-2020 13:35:00 11.2 C 71 % 6.14 C
1029 09-02-2020 13:40:00 11.2 C 71 % 6.14 C
1030 09-02-2020 13:45:00 11.2 C 72 % 6.35 C
1031 09-02-2020 13:50:00 11.3 C 71 % 6.24 C
1032 09-02-2020 13:55:00 11.4 C 70 % 6.13 C
1033 09-02-2020 14:00:00 11.5 C 71 % 6.43 C
1034 09-02-2020 14:05:00 11.6 C 70 % 6.32 C
1035 09-02-2020 14:10:00 11.7 C 69 % 6.21 C
1036 09-02-2020 14:15:00 11.8 C 69 % 6.31 C
1037 09-02-2020 14:20:00 11.9 C 70 % 6.61 C
1038 09-02-2020 14:25:00 12 C 69 % 6.5 C
1039 09-02-2020 14:30:00 12.1 C 68 % 6.38 C
1040 09-02-2020 14:35:00 12.1 C 68 % 6.38 C
1041 09-02-2020 14:40:00 12.1 C 69 % 6.59 C
1042 09-02-2020 14:45:00 12.2 C 68 % 6.48 C
1043 09-02-2020 14:50:00 12.2 C 67 % 6.26 C
1044 09-02-2020 14:55:00 12.2 C 67 % 6.26 C
1045 09-02-2020 15:00:00 12.2 C 68 % 6.48 C
1046 09-02-2020 15:05:00 12.2 C 68 % 6.48 C
1047 09-02-2020 15:10:00 12.2 C 68 % 6.48 C
1048 09-02-2020 15:15:00 12.2 C 68 % 6.48 C
1049 09-02-2020 15:20:00 12.2 C 67 % 6.26 C
1050 09-02-2020 15:25:00 12.3 C 67 % 6.36 C
Sensor: Nr:Datum:Temp:Feuchte:Taupunkt:
Aussen-T/F 1051 09-02-2020 15:30:00 12.4 C 67 % 6.45 C
1052 09-02-2020 15:35:00 12.4 C 66 % 6.23 C
1053 09-02-2020 15:40:00 12.5 C 66 % 6.33 C
1054 09-02-2020 15:45:00 12.6 C 66 % 6.42 C
1055 09-02-2020 15:50:00 12.6 C 66 % 6.42 C
1056 09-02-2020 15:55:00 12.6 C 67 % 6.64 C
1057 09-02-2020 16:00:00 12.5 C 67 % 6.55 C
1058 09-02-2020 16:05:00 12.4 C 68 % 6.67 C
1059 09-02-2020 16:10:00 12.4 C 68 % 6.67 C
1060 09-02-2020 16:15:00 12.4 C 69 % 6.88 C
1061 09-02-2020 16:20:00 12.4 C 68 % 6.67 C
1062 09-02-2020 16:25:00 12.4 C 69 % 6.88 C
1063 09-02-2020 16:30:00 12.4 C 69 % 6.88 C
1064 09-02-2020 16:35:00 12.4 C 69 % 6.88 C
1065 09-02-2020 16:40:00 12.5 C 69 % 6.97 C
1066 09-02-2020 16:45:00 12.6 C 69 % 7.07 C
1067 09-02-2020 16:50:00 12.6 C 68 % 6.86 C
1068 09-02-2020 16:55:00 12.7 C 68 % 6.95 C
1069 09-02-2020 17:00:00 12.8 C 68 % 7.05 C
1070 09-02-2020 17:05:00 12.9 C 67 % 6.93 C
1071 09-02-2020 17:10:00 12.8 C 68 % 7.05 C
1072 09-02-2020 17:15:00 12.8 C 68 % 7.05 C
1073 09-02-2020 17:20:00 12.8 C 68 % 7.05 C
1074 09-02-2020 17:25:00 12.9 C 68 % 7.14 C
1075 09-02-2020 17:30:00 12.9 C 68 % 7.14 C
Sensor: Nr:Datum:Temp:Feuchte:Taupunkt:
Aussen-T/F 1076 09-02-2020 17:35:00 12.9 C 68 % 7.14 C
1077 09-02-2020 17:40:00 13 C 68 % 7.24 C
1078 09-02-2020 17:45:00 13 C 68 % 7.24 C
1079 09-02-2020 17:50:00 13 C 68 % 7.24 C
1080 09-02-2020 17:55:00 13 C 68 % 7.24 C
1081 09-02-2020 18:00:00 13 C 68 % 7.24 C
1082 09-02-2020 18:05:00 12.9 C 68 % 7.14 C
1083 09-02-2020 18:10:00 12.9 C 68 % 7.14 C
1084 09-02-2020 18:15:00 12.8 C 69 % 7.26 C
1085 09-02-2020 18:20:00 12.8 C 70 % 7.47 C
1086 09-02-2020 18:25:00 12.8 C 70 % 7.47 C
1087 09-02-2020 18:30:00 12.7 C 70 % 7.38 C
1088 09-02-2020 18:35:00 12.7 C 71 % 7.58 C
1089 09-02-2020 18:40:00 12.7 C 72 % 7.79 C
1090 09-02-2020 18:45:00 12.6 C 72 % 7.69 C
1091 09-02-2020 18:50:00 12.6 C 72 % 7.69 C
1092 09-02-2020 18:55:00 12.5 C 73 % 7.8 C
1093 09-02-2020 19:00:00 12.5 C 74 % 8 C
1094 09-02-2020 19:05:00 12.6 C 74 % 8.09 C
1095 09-02-2020 19:10:00 12.5 C 74 % 8 C
1096 09-02-2020 19:15:00 12.5 C 74 % 8 C
1097 09-02-2020 19:20:00 12.5 C 74 % 8 C
1098 09-02-2020 19:25:00 12.4 C 74 % 7.9 C
1099 09-02-2020 19:30:00 12.4 C 74 % 7.9 C
1100 09-02-2020 19:35:00 12.4 C 74 % 7.9 C
Sensor: Nr:Datum:Temp:Feuchte:Taupunkt:
Aussen-T/F 1101 09-02-2020 19:40:00 12.5 C 74 % 8 C
1102 09-02-2020 19:45:00 12.6 C 73 % 7.89 C
1103 09-02-2020 19:50:00 12.6 C 73 % 7.89 C
1104 09-02-2020 19:55:00 12.7 C 73 % 7.99 C
1105 09-02-2020 20:00:00 12.7 C 73 % 7.99 C
1106 09-02-2020 20:05:00 12.7 C 73 % 7.99 C
1107 09-02-2020 20:10:00 12.7 C 73 % 7.99 C
1108 09-02-2020 20:15:00 12.7 C 73 % 7.99 C
1109 09-02-2020 20:20:00 12.7 C 73 % 7.99 C
1110 09-02-2020 20:25:00 12.8 C 73 % 8.09 C
1111 09-02-2020 20:30:00 12.8 C 73 % 8.09 C
1112 09-02-2020 20:35:00 12.8 C 73 % 8.09 C
1113 09-02-2020 20:40:00 12.8 C 74 % 8.29 C
1114 09-02-2020 20:45:00 12.9 C 74 % 8.38 C
1115 09-02-2020 20:50:00 12.9 C 74 % 8.38 C
1116 09-02-2020 20:55:00 12.8 C 75 % 8.48 C
1117 09-02-2020 21:00:00 12.8 C 75 % 8.48 C
1118 09-02-2020 21:05:00 12.8 C 76 % 8.68 C
1119 09-02-2020 21:10:00 12.6 C 79 % 9.06 C
1120 09-02-2020 21:15:00 12.3 C 80 % 8.95 C
1121 09-02-2020 21:20:00 12.1 C 81 % 8.94 C
1122 09-02-2020 21:25:00 12 C 82 % 9.03 C
1123 09-02-2020 21:30:00 12.1 C 82 % 9.12 C
1124 09-02-2020 21:35:00 12.1 C 82 % 9.12 C
1125 09-02-2020 21:40:00 12.1 C 82 % 9.12 C
Sensor: Nr:Datum:Temp:Feuchte:Taupunkt:
Aussen-T/F 1126 09-02-2020 21:45:00 12.1 C 82 % 9.12 C
1127 09-02-2020 21:50:00 12.1 C 82 % 9.12 C
1128 09-02-2020 21:55:00 12.1 C 83 % 9.3 C
1129 09-02-2020 22:00:00 11.9 C 84 % 9.29 C
1130 09-02-2020 22:05:00 11.8 C 85 % 9.36 C
1131 09-02-2020 22:10:00 11.7 C 86 % 9.44 C
1132 09-02-2020 22:15:00 11.7 C 86 % 9.44 C
1133 09-02-2020 22:20:00 11.7 C 86 % 9.44 C
1134 09-02-2020 22:25:00 11.7 C 86 % 9.44 C
1135 09-02-2020 22:30:00 11.7 C 85 % 9.27 C
1136 09-02-2020 22:35:00 11.8 C 85 % 9.36 C
1137 09-02-2020 22:40:00 12 C 84 % 9.38 C
1138 09-02-2020 22:45:00 12.1 C 85 % 9.66 C
1139 09-02-2020 22:50:00 11.9 C 86 % 9.64 C
1140 09-02-2020 22:55:00 11.7 C 87 % 9.61 C
1141 09-02-2020 23:00:00 11.6 C 88 % 9.68 C
1142 09-02-2020 23:05:00 11.6 C 88 % 9.68 C
1143 09-02-2020 23:10:00 11.6 C 88 % 9.68 C
1144 09-02-2020 23:15:00 11.6 C 88 % 9.68 C
1145 09-02-2020 23:20:00 11.6 C 88 % 9.68 C
1146 09-02-2020 23:25:00 11.6 C 88 % 9.68 C
1147 09-02-2020 23:30:00 11.6 C 88 % 9.68 C
1148 09-02-2020 23:35:00 11.6 C 88 % 9.68 C
1149 09-02-2020 23:40:00 11.6 C 89 % 9.85 C
1150 09-02-2020 23:45:00 11.5 C 89 % 9.75 C
Sensor: Nr:Datum:Temp:Feuchte:Taupunkt:
Aussen-T/F 1151 09-02-2020 23:50:00 11.6 C 89 % 9.85 C
1152 09-02-2020 23:55:00 11.6 C 89 % 9.85 C
1153 10-02-2020 00:00:00 11.6 C 88 % 9.68 C
1154 10-02-2020 00:05:00 11.7 C 88 % 9.78 C
1155 10-02-2020 00:10:00 11.7 C 88 % 9.78 C
1156 10-02-2020 00:15:00 11.8 C 88 % 9.88 C
1157 10-02-2020 00:20:00 11.8 C 88 % 9.88 C
1158 10-02-2020 00:25:00 11.9 C 88 % 9.98 C
1159 10-02-2020 00:30:00 11.8 C 89 % 10.05 C
1160 10-02-2020 00:35:00 11.7 C 89 % 9.95 C
1161 10-02-2020 00:40:00 11.7 C 89 % 9.95 C
1162 10-02-2020 00:45:00 11.7 C 89 % 9.95 C
1163 10-02-2020 00:50:00 11.8 C 89 % 10.05 C
1164 10-02-2020 00:55:00 11.8 C 89 % 10.05 C
1165 10-02-2020 01:00:00 11.7 C 90 % 10.12 C
1166 10-02-2020 01:05:00 11.6 C 91 % 10.18 C
1167 10-02-2020 01:10:00 11.5 C 91 % 10.08 C
1168 10-02-2020 01:15:00 11.5 C 92 % 10.25 C
1169 10-02-2020 01:20:00 11.6 C 92 % 10.35 C
1170 10-02-2020 01:25:00 11.5 C 92 % 10.25 C
1171 10-02-2020 01:30:00 11.5 C 92 % 10.25 C
1172 10-02-2020 01:35:00 11.4 C 93 % 10.31 C
1173 10-02-2020 01:40:00 11.4 C 93 % 10.31 C
1174 10-02-2020 01:45:00 11.4 C 93 % 10.31 C
1175 10-02-2020 01:50:00 11.3 C 93 % 10.21 C
Sensor: Nr:Datum:Temp:Feuchte:Taupunkt:
Aussen-T/F 1176 10-02-2020 01:55:00 10.8 C 92 % 9.55 C
1177 10-02-2020 02:00:00 10.2 C 92 % 8.96 C
1178 10-02-2020 02:05:00 9.9 C 92 % 8.66 C
1179 10-02-2020 02:10:00 9.7 C 93 % 8.62 C
1180 10-02-2020 02:15:00 9.5 C 93 % 8.43 C
1181 10-02-2020 02:20:00 9.3 C 93 % 8.23 C
1182 10-02-2020 02:25:00 9.2 C 93 % 8.13 C
1183 10-02-2020 02:30:00 9 C 92 % 7.77 C
1184 10-02-2020 02:35:00 8.9 C 92 % 7.67 C
1185 10-02-2020 02:40:00 8.8 C 92 % 7.57 C
1186 10-02-2020 02:45:00 8.8 C 92 % 7.57 C
1187 10-02-2020 02:50:00 8.8 C 92 % 7.57 C
1188 10-02-2020 02:55:00 8.8 C 91 % 7.41 C
1189 10-02-2020 03:00:00 8.8 C 91 % 7.41 C
1190 10-02-2020 03:05:00 8.8 C 91 % 7.41 C
1191 10-02-2020 03:10:00 8.7 C 92 % 7.47 C
1192 10-02-2020 03:15:00 8.6 C 91 % 7.22 C
1193 10-02-2020 03:20:00 8.6 C 92 % 7.38 C
1194 10-02-2020 03:25:00 8.6 C 91 % 7.22 C
1195 10-02-2020 03:30:00 8.7 C 91 % 7.32 C
1196 10-02-2020 03:35:00 8.7 C 91 % 7.32 C
1197 10-02-2020 03:40:00 8.9 C 90 % 7.35 C
1198 10-02-2020 03:45:00 9.1 C 89 % 7.39 C
1199 10-02-2020 03:50:00 9.3 C 89 % 7.58 C
1200 10-02-2020 03:55:00 9.4 C 88 % 7.52 C
Sensor: Nr:Datum:Temp:Feuchte:Taupunkt:
Aussen-T/F 1201 10-02-2020 04:00:00 9.6 C 88 % 7.71 C
1202 10-02-2020 04:05:00 9.6 C 87 % 7.55 C
1203 10-02-2020 04:10:00 9.7 C 87 % 7.64 C
1204 10-02-2020 04:15:00 9.8 C 86 % 7.57 C
1205 10-02-2020 04:20:00 9.7 C 85 % 7.3 C
1206 10-02-2020 04:25:00 9.8 C 85 % 7.4 C
1207 10-02-2020 04:30:00 9.7 C 85 % 7.3 C
1208 10-02-2020 04:35:00 9.7 C 84 % 7.13 C
1209 10-02-2020 04:40:00 9.9 C 83 % 7.15 C
1210 10-02-2020 04:45:00 10 C 83 % 7.25 C
1211 10-02-2020 04:50:00 10 C 82 % 7.07 C
1212 10-02-2020 04:55:00 10 C 82 % 7.07 C
1213 10-02-2020 05:00:00 10.1 C 82 % 7.17 C
1214 10-02-2020 05:05:00 10.1 C 83 % 7.35 C
1215 10-02-2020 05:10:00 10 C 82 % 7.07 C
1216 10-02-2020 05:15:00 10.1 C 82 % 7.17 C
1217 10-02-2020 05:20:00 10 C 82 % 7.07 C
1218 10-02-2020 05:25:00 10.1 C 81 % 6.99 C
1219 10-02-2020 05:30:00 10 C 80 % 6.71 C
1220 10-02-2020 05:35:00 9.9 C 81 % 6.8 C
1221 10-02-2020 05:40:00 9.9 C 81 % 6.8 C
1222 10-02-2020 05:45:00 9.9 C 82 % 6.98 C
1223 10-02-2020 05:50:00 9.8 C 82 % 6.88 C
1224 10-02-2020 05:55:00 9.8 C 83 % 7.05 C
1225 10-02-2020 06:00:00 9.7 C 83 % 6.96 C
Sensor: Nr:Datum:Temp:Feuchte:Taupunkt:
Aussen-T/F 1226 10-02-2020 06:05:00 9.7 C 83 % 6.96 C
1227 10-02-2020 06:10:00 9.6 C 84 % 7.03 C
1228 10-02-2020 06:15:00 9.5 C 85 % 7.11 C
1229 10-02-2020 06:20:00 9.4 C 86 % 7.18 C
1230 10-02-2020 06:25:00 9.2 C 87 % 7.15 C
1231 10-02-2020 06:30:00 9 C 87 % 6.96 C
1232 10-02-2020 06:35:00 8.8 C 87 % 6.76 C
1233 10-02-2020 06:40:00 8.8 C 86 % 6.59 C
1234 10-02-2020 06:45:00 8.8 C 83 % 6.08 C
1235 10-02-2020 06:50:00 9.1 C 80 % 5.84 C
1236 10-02-2020 06:55:00 9.2 C 79 % 5.75 C
1237 10-02-2020 07:00:00 9.3 C 79 % 5.85 C
1238 10-02-2020 07:05:00 9.3 C 79 % 5.85 C
1239 10-02-2020 07:10:00 9.2 C 79 % 5.75 C
1240 10-02-2020 07:15:00 9.1 C 80 % 5.84 C
1241 10-02-2020 07:20:00 9.1 C 79 % 5.66 C
1242 10-02-2020 07:25:00 9.2 C 76 % 5.2 C
1243 10-02-2020 07:30:00 9.3 C 76 % 5.29 C
1244 10-02-2020 07:35:00 9.3 C 77 % 5.48 C
1245 10-02-2020 07:40:00 9.1 C 78 % 5.47 C
1246 10-02-2020 07:45:00 8.9 C 78 % 5.28 C
1247 10-02-2020 07:50:00 8.9 C 78 % 5.28 C
1248 10-02-2020 07:55:00 8.8 C 78 % 5.18 C
1249 10-02-2020 08:00:00 8.8 C 78 % 5.18 C
1250 10-02-2020 08:05:00 8.8 C 78 % 5.18 C
Sensor: Nr:Datum:Temp:Feuchte:Taupunkt:
Aussen-T/F 1251 10-02-2020 08:10:00 8.8 C 77 % 5 C
1252 10-02-2020 08:15:00 8.9 C 77 % 5.09 C
1253 10-02-2020 08:20:00 8.9 C 77 % 5.09 C
1254 10-02-2020 08:25:00 8.9 C 80 % 5.64 C
1255 10-02-2020 08:30:00 8.7 C 80 % 5.45 C
1256 10-02-2020 08:35:00 8.4 C 82 % 5.51 C
1257 10-02-2020 08:40:00 8.1 C 84 % 5.56 C
1258 10-02-2020 08:45:00 7.9 C 84 % 5.37 C
1259 10-02-2020 08:50:00 7.9 C 84 % 5.37 C
1260 10-02-2020 08:55:00 7.8 C 82 % 4.92 C
1261 10-02-2020 09:00:00 7.7 C 80 % 4.47 C
1262 10-02-2020 09:05:00 7.8 C 77 % 4.03 C
1263 10-02-2020 09:10:00 7.8 C 76 % 3.84 C
1264 10-02-2020 09:15:00 7.8 C 76 % 3.84 C
1265 10-02-2020 09:20:00 7.7 C 74 % 3.37 C
1266 10-02-2020 09:25:00 7.8 C 74 % 3.46 C
1267 10-02-2020 09:30:00 7.8 C 74 % 3.46 C
1268 10-02-2020 09:35:00 7.8 C 74 % 3.46 C
1269 10-02-2020 09:40:00 7.8 C 75 % 3.65 C
1270 10-02-2020 09:45:00 7.8 C 75 % 3.65 C
1271 10-02-2020 09:50:00 7.7 C 76 % 3.75 C
1272 10-02-2020 09:55:00 7.7 C 76 % 3.75 C
1273 10-02-2020 10:00:00 7.7 C 75 % 3.56 C
1274 10-02-2020 10:05:00 7.7 C 75 % 3.56 C
1275 10-02-2020 10:10:00 7.8 C 74 % 3.46 C
Sensor: Nr:Datum:Temp:Feuchte:Taupunkt:
Aussen-T/F 1276 10-02-2020 10:15:00 7.9 C 73 % 3.37 C
1277 10-02-2020 10:20:00 8.1 C 73 % 3.56 C
1278 10-02-2020 10:25:00 8.2 C 73 % 3.66 C
1279 10-02-2020 10:30:00 8.3 C 71 % 3.36 C
1280 10-02-2020 10:35:00 8.4 C 71 % 3.46 C
1281 10-02-2020 10:40:00 8.3 C 73 % 3.75 C
1282 10-02-2020 10:45:00 8.1 C 75 % 3.94 C
1283 10-02-2020 10:50:00 8 C 76 % 4.04 C
1284 10-02-2020 10:55:00 8.1 C 77 % 4.32 C
1285 10-02-2020 11:00:00 8.3 C 73 % 3.75 C
1286 10-02-2020 11:05:00 8.7 C 71 % 3.74 C
1287 10-02-2020 11:10:00 8.9 C 69 % 3.53 C
1288 10-02-2020 11:15:00 9.1 C 69 % 3.72 C
1289 10-02-2020 11:20:00 9.2 C 67 % 3.4 C
1290 10-02-2020 11:25:00 9.3 C 66 % 3.28 C
1291 10-02-2020 11:30:00 9.4 C 65 % 3.16 C
1292 10-02-2020 11:35:00 9.4 C 63 % 2.72 C
1293 10-02-2020 11:40:00 9.3 C 64 % 2.85 C
1294 10-02-2020 11:45:00 9.3 C 64 % 2.85 C
1295 10-02-2020 11:50:00 9.3 C 64 % 2.85 C
1296 10-02-2020 11:55:00 9.3 C 65 % 3.07 C
1297 10-02-2020 12:00:00 9.3 C 64 % 2.85 C
1298 10-02-2020 12:05:00 9.1 C 64 % 2.66 C
1299 10-02-2020 12:10:00 8.4 C 69 % 3.05 C
1300 10-02-2020 12:15:00 7.6 C 79 % 4.2 C
Sensor: Nr:Datum:Temp:Feuchte:Taupunkt:
Aussen-T/F 1301 10-02-2020 12:20:00 6.7 C 83 % 4.02 C
1302 10-02-2020 12:25:00 6.2 C 86 % 4.04 C
1303 10-02-2020 12:30:00 5.9 C 88 % 4.07 C
1304 10-02-2020 12:35:00 6 C 90 % 4.49 C
1305 10-02-2020 12:40:00 6.2 C 90 % 4.69 C
1306 10-02-2020 12:45:00 6.3 C 89 % 4.62 C
1307 10-02-2020 12:50:00 6.8 C 85 % 4.46 C
1308 10-02-2020 12:55:00 7.5 C 80 % 4.28 C
1309 10-02-2020 13:00:00 7.9 C 78 % 4.31 C
1310 10-02-2020 13:05:00 8.2 C 76 % 4.23 C
1311 10-02-2020 13:10:00 8.4 C 73 % 3.85 C
1312 10-02-2020 13:15:00 8.7 C 71 % 3.74 C
1313 10-02-2020 13:20:00 8.8 C 70 % 3.64 C
1314 10-02-2020 13:25:00 8.8 C 70 % 3.64 C
1315 10-02-2020 13:30:00 8.7 C 71 % 3.74 C
1316 10-02-2020 13:35:00 8.6 C 71 % 3.65 C
1317 10-02-2020 13:40:00 8.7 C 70 % 3.54 C
1318 10-02-2020 13:45:00 8.8 C 69 % 3.44 C
1319 10-02-2020 13:50:00 9.1 C 68 % 3.52 C
1320 10-02-2020 13:55:00 9.3 C 66 % 3.28 C
1321 10-02-2020 14:00:00 9.2 C 67 % 3.4 C
1322 10-02-2020 14:05:00 9.1 C 67 % 3.31 C
1323 10-02-2020 14:10:00 9 C 68 % 3.42 C
1324 10-02-2020 14:15:00 8.8 C 75 % 4.62 C
1325 10-02-2020 14:20:00 8.2 C 78 % 4.6 C
Sensor: Nr:Datum:Temp:Feuchte:Taupunkt:
Aussen-T/F 1326 10-02-2020 14:25:00 7.9 C 79 % 4.49 C
1327 10-02-2020 14:30:00 7.9 C 78 % 4.31 C
1328 10-02-2020 14:35:00 7.9 C 78 % 4.31 C
1329 10-02-2020 14:40:00 7.9 C 78 % 4.31 C
1330 10-02-2020 14:45:00 8.1 C 77 % 4.32 C
1331 10-02-2020 14:50:00 8.2 C 77 % 4.42 C
1332 10-02-2020 14:55:00 8.3 C 77 % 4.51 C
1333 10-02-2020 15:00:00 8.3 C 76 % 4.33 C
1334 10-02-2020 15:05:00 8.4 C 76 % 4.42 C
1335 10-02-2020 15:10:00 8.4 C 76 % 4.42 C
1336 10-02-2020 15:15:00 8.6 C 74 % 4.24 C
1337 10-02-2020 15:20:00 8.8 C 72 % 4.04 C
1338 10-02-2020 15:25:00 8.9 C 71 % 3.94 C
1339 10-02-2020 15:30:00 8.9 C 70 % 3.74 C
1340 10-02-2020 15:35:00 8.7 C 72 % 3.94 C
1341 10-02-2020 15:40:00 8.4 C 73 % 3.85 C
1342 10-02-2020 15:45:00 8.2 C 75 % 4.04 C
1343 10-02-2020 15:50:00 8.2 C 75 % 4.04 C
1344 10-02-2020 15:55:00 8.1 C 75 % 3.94 C
1345 10-02-2020 16:00:00 8.1 C 75 % 3.94 C
1346 10-02-2020 16:05:00 8.1 C 75 % 3.94 C
1347 10-02-2020 16:10:00 8.1 C 75 % 3.94 C
1348 10-02-2020 16:15:00 8.1 C 76 % 4.13 C
1349 10-02-2020 16:20:00 8.1 C 76 % 4.13 C
1350 10-02-2020 16:25:00 8.1 C 77 % 4.32 C
Sensor: Nr:Datum:Temp:Feuchte:Taupunkt:
Aussen-T/F 1351 10-02-2020 16:30:00 8.1 C 77 % 4.32 C
1352 10-02-2020 16:35:00 8 C 77 % 4.22 C
1353 10-02-2020 16:40:00 7.9 C 78 % 4.31 C
1354 10-02-2020 16:45:00 7.8 C 78 % 4.21 C
1355 10-02-2020 16:50:00 7.8 C 79 % 4.39 C
1356 10-02-2020 16:55:00 7.7 C 80 % 4.47 C
1357 10-02-2020 17:00:00 7.6 C 80 % 4.38 C
1358 10-02-2020 17:05:00 7.4 C 80 % 4.18 C
1359 10-02-2020 17:10:00 7.4 C 81 % 4.36 C
1360 10-02-2020 17:15:00 7.3 C 80 % 4.09 C
1361 10-02-2020 17:20:00 7.3 C 81 % 4.26 C
1362 10-02-2020 17:25:00 7.2 C 81 % 4.16 C
1363 10-02-2020 17:30:00 7.2 C 81 % 4.16 C
1364 10-02-2020 17:35:00 7.2 C 82 % 4.34 C
1365 10-02-2020 17:40:00 7.2 C 83 % 4.51 C
1366 10-02-2020 17:45:00 7.1 C 84 % 4.58 C
1367 10-02-2020 17:50:00 7 C 85 % 4.66 C
1368 10-02-2020 17:55:00 6.8 C 87 % 4.79 C
1369 10-02-2020 18:00:00 6.7 C 88 % 4.86 C
1370 10-02-2020 18:05:00 6.5 C 88 % 4.66 C
1371 10-02-2020 18:10:00 6.4 C 89 % 4.72 C
1372 10-02-2020 18:15:00 6.3 C 89 % 4.62 C
1373 10-02-2020 18:20:00 6.2 C 89 % 4.53 C
1374 10-02-2020 18:25:00 6.1 C 90 % 4.59 C
1375 10-02-2020 18:30:00 6 C 90 % 4.49 C
Sensor: Nr:Datum:Temp:Feuchte:Taupunkt:
Aussen-T/F 1376 10-02-2020 18:35:00 6 C 91 % 4.65 C
1377 10-02-2020 18:40:00 6 C 91 % 4.65 C
1378 10-02-2020 18:45:00 6.1 C 91 % 4.74 C
1379 10-02-2020 18:50:00 6.1 C 91 % 4.74 C
1380 10-02-2020 18:55:00 6.2 C 91 % 4.84 C
1381 10-02-2020 19:00:00 6.3 C 91 % 4.94 C
1382 10-02-2020 19:05:00 6.3 C 91 % 4.94 C
1383 10-02-2020 19:10:00 6.3 C 91 % 4.94 C
1384 10-02-2020 19:15:00 6.3 C 91 % 4.94 C
1385 10-02-2020 19:20:00 6.2 C 91 % 4.84 C
1386 10-02-2020 19:25:00 6.2 C 91 % 4.84 C
1387 10-02-2020 19:30:00 6.2 C 91 % 4.84 C
1388 10-02-2020 19:35:00 6.2 C 92 % 5 C
1389 10-02-2020 19:40:00 6.1 C 92 % 4.9 C
1390 10-02-2020 19:45:00 6 C 92 % 4.8 C
1391 10-02-2020 19:50:00 5.9 C 92 % 4.7 C
1392 10-02-2020 19:55:00 5.9 C 92 % 4.7 C
1393 10-02-2020 20:00:00 5.8 C 92 % 4.6 C
1394 10-02-2020 20:05:00 5.8 C 93 % 4.76 C
1395 10-02-2020 20:10:00 5.7 C 93 % 4.66 C
1396 10-02-2020 20:15:00 5.6 C 93 % 4.56 C
1397 10-02-2020 20:20:00 5.6 C 93 % 4.56 C
1398 10-02-2020 20:25:00 5.5 C 93 % 4.46 C
1399 10-02-2020 20:30:00 5.5 C 93 % 4.46 C
1400 10-02-2020 20:35:00 5.4 C 93 % 4.36 C
Sensor: Nr:Datum:Temp:Feuchte:Taupunkt:
Aussen-T/F 1401 10-02-2020 20:40:00 5.4 C 94 % 4.51 C
1402 10-02-2020 20:45:00 5.3 C 94 % 4.41 C
1403 10-02-2020 20:50:00 5.3 C 94 % 4.41 C
1404 10-02-2020 20:55:00 5.3 C 94 % 4.41 C
1405 10-02-2020 21:00:00 5.2 C 94 % 4.32 C
1406 10-02-2020 21:05:00 5.2 C 94 % 4.32 C
1407 10-02-2020 21:10:00 5.1 C 94 % 4.22 C
1408 10-02-2020 21:15:00 5 C 94 % 4.12 C
1409 10-02-2020 21:20:00 4.9 C 94 % 4.02 C
1410 10-02-2020 21:25:00 4.9 C 94 % 4.02 C
1411 10-02-2020 21:30:00 4.9 C 94 % 4.02 C
1412 10-02-2020 21:35:00 5.2 C 95 % 4.47 C
1413 10-02-2020 21:40:00 5.6 C 96 % 5.01 C
1414 10-02-2020 21:45:00 5.9 C 96 % 5.31 C
1415 10-02-2020 21:50:00 6.2 C 95 % 5.46 C
1416 10-02-2020 21:55:00 6.4 C 94 % 5.51 C
1417 10-02-2020 22:00:00 6.8 C 91 % 5.44 C
1418 10-02-2020 22:05:00 7.1 C 90 % 5.57 C
1419 10-02-2020 22:10:00 7.2 C 88 % 5.35 C
1420 10-02-2020 22:15:00 7.3 C 88 % 5.45 C
1421 10-02-2020 22:20:00 7.3 C 87 % 5.28 C
1422 10-02-2020 22:25:00 7.3 C 87 % 5.28 C
1423 10-02-2020 22:30:00 7.3 C 86 % 5.12 C
1424 10-02-2020 22:35:00 7.3 C 86 % 5.12 C
1425 10-02-2020 22:40:00 7.3 C 86 % 5.12 C
Sensor: Nr:Datum:Temp:Feuchte:Taupunkt:
Aussen-T/F 1426 10-02-2020 22:45:00 7.3 C 85 % 4.95 C
1427 10-02-2020 22:50:00 7.4 C 84 % 4.88 C
1428 10-02-2020 22:55:00 7.6 C 83 % 4.9 C
1429 10-02-2020 23:00:00 7.6 C 82 % 4.73 C
1430 10-02-2020 23:05:00 7.7 C 80 % 4.47 C
1431 10-02-2020 23:10:00 7.8 C 79 % 4.39 C
1432 10-02-2020 23:15:00 7.9 C 78 % 4.31 C
1433 10-02-2020 23:20:00 7.9 C 76 % 3.94 C
1434 10-02-2020 23:25:00 7.9 C 76 % 3.94 C
1435 10-02-2020 23:30:00 7.8 C 76 % 3.84 C
1436 10-02-2020 23:35:00 7.8 C 76 % 3.84 C
1437 10-02-2020 23:40:00 7.8 C 75 % 3.65 C
1438 10-02-2020 23:45:00 7.8 C 76 % 3.84 C
1439 10-02-2020 23:50:00 7.7 C 74 % 3.37 C
1440 10-02-2020 23:55:00 7.7 C 74 % 3.37 C
1441 11-02-2020 00:00:00 7.8 C 73 % 3.27 C
1442 11-02-2020 00:05:00 7.8 C 72 % 3.08 C
1443 11-02-2020 00:10:00 7.8 C 72 % 3.08 C
1444 11-02-2020 00:15:00 7.8 C 72 % 3.08 C
1445 11-02-2020 00:20:00 7.8 C 71 % 2.88 C
1446 11-02-2020 00:25:00 7.9 C 71 % 2.98 C
1447 11-02-2020 00:30:00 7.9 C 76 % 3.94 C
1448 11-02-2020 00:35:00 6.7 C 82 % 3.85 C
1449 11-02-2020 00:40:00 5.7 C 85 % 3.38 C
1450 11-02-2020 00:45:00 5.2 C 87 % 3.22 C
Sensor: Nr:Datum:Temp:Feuchte:Taupunkt:
Aussen-T/F 1451 11-02-2020 00:50:00 5 C 88 % 3.18 C
1452 11-02-2020 00:55:00 4.9 C 88 % 3.08 C
1453 11-02-2020 01:00:00 4.8 C 88 % 2.99 C
1454 11-02-2020 01:05:00 4.8 C 87 % 2.82 C
1455 11-02-2020 01:10:00 4.9 C 86 % 2.76 C
1456 11-02-2020 01:15:00 5 C 85 % 2.69 C
1457 11-02-2020 01:20:00 5.1 C 83 % 2.46 C
1458 11-02-2020 01:25:00 5.2 C 83 % 2.56 C
1459 11-02-2020 01:30:00 5.2 C 82 % 2.39 C
1460 11-02-2020 01:35:00 5.2 C 81 % 2.21 C
1461 11-02-2020 01:40:00 5.2 C 80 % 2.04 C
1462 11-02-2020 01:45:00 5.2 C 79 % 1.86 C
1463 11-02-2020 01:50:00 5.2 C 79 % 1.86 C
1464 11-02-2020 01:55:00 5.2 C 79 % 1.86 C
1465 11-02-2020 02:00:00 5.2 C 77 % 1.51 C
1466 11-02-2020 02:05:00 5.3 C 75 % 1.24 C
1467 11-02-2020 02:10:00 5.5 C 73 % 1.06 C
1468 11-02-2020 02:15:00 5.8 C 73 % 1.34 C
1469 11-02-2020 02:20:00 5.9 C 72 % 1.25 C
1470 11-02-2020 02:25:00 5.9 C 72 % 1.25 C
1471 11-02-2020 02:30:00 5.8 C 73 % 1.34 C
1472 11-02-2020 02:35:00 5.7 C 73 % 1.25 C
1473 11-02-2020 02:40:00 5.7 C 73 % 1.25 C
1474 11-02-2020 02:45:00 5.7 C 76 % 1.81 C
1475 11-02-2020 02:50:00 5.5 C 78 % 1.98 C
Sensor: Nr:Datum:Temp:Feuchte:Taupunkt:
Aussen-T/F 1476 11-02-2020 02:55:00 5.3 C 78 % 1.78 C
1477 11-02-2020 03:00:00 5.3 C 78 % 1.78 C
1478 11-02-2020 03:05:00 5.5 C 76 % 1.62 C
1479 11-02-2020 03:10:00 5.6 C 75 % 1.53 C
1480 11-02-2020 03:15:00 5.6 C 73 % 1.15 C
1481 11-02-2020 03:20:00 5.7 C 72 % 1.06 C
1482 11-02-2020 03:25:00 5.8 C 71 % 0.96 C
1483 11-02-2020 03:30:00 5.8 C 72 % 1.15 C
1484 11-02-2020 03:35:00 5.7 C 72 % 1.06 C
1485 11-02-2020 03:40:00 5.8 C 71 % 0.96 C
1486 11-02-2020 03:45:00 5.8 C 71 % 0.96 C
1487 11-02-2020 03:50:00 5.9 C 69 % 0.66 C
1488 11-02-2020 03:55:00 6.1 C 68 % 0.65 C
1489 11-02-2020 04:00:00 6.1 C 67 % 0.44 C
1490 11-02-2020 04:05:00 6.1 C 68 % 0.65 C
1491 11-02-2020 04:10:00 6.1 C 67 % 0.44 C
1492 11-02-2020 04:15:00 6.1 C 66 % 0.24 C
1493 11-02-2020 04:20:00 6.1 C 67 % 0.44 C
1494 11-02-2020 04:25:00 6.1 C 67 % 0.44 C
1495 11-02-2020 04:30:00 6.1 C 68 % 0.65 C
1496 11-02-2020 04:35:00 6 C 68 % 0.55 C
1497 11-02-2020 04:40:00 5.9 C 68 % 0.46 C
1498 11-02-2020 04:45:00 5.9 C 69 % 0.66 C
1499 11-02-2020 04:50:00 5.9 C 68 % 0.46 C
1500 11-02-2020 04:55:00 6 C 67 % 0.35 C
Sensor: Nr:Datum:Temp:Feuchte:Taupunkt:
Aussen-T/F 1501 11-02-2020 05:00:00 6.1 C 67 % 0.44 C
1502 11-02-2020 05:05:00 6.1 C 68 % 0.65 C
1503 11-02-2020 05:10:00 6.1 C 68 % 0.65 C
1504 11-02-2020 05:15:00 6.2 C 69 % 0.95 C
1505 11-02-2020 05:20:00 5.9 C 77 % 2.19 C
1506 11-02-2020 05:25:00 5.4 C 79 % 2.06 C
1507 11-02-2020 05:30:00 5.2 C 81 % 2.21 C
1508 11-02-2020 05:35:00 5 C 82 % 2.19 C
1509 11-02-2020 05:40:00 5 C 82 % 2.19 C
1510 11-02-2020 05:45:00 4.9 C 83 % 2.26 C
1511 11-02-2020 05:50:00 4.9 C 82 % 2.09 C
1512 11-02-2020 05:55:00 4.9 C 82 % 2.09 C
1513 11-02-2020 06:00:00 4.8 C 82 % 1.99 C
1514 11-02-2020 06:05:00 4.7 C 83 % 2.07 C
1515 11-02-2020 06:10:00 4.6 C 83 % 1.97 C
1516 11-02-2020 06:15:00 4.7 C 81 % 1.73 C
1517 11-02-2020 06:20:00 4.8 C 78 % 1.3 C
1518 11-02-2020 06:25:00 5.1 C 73 % 0.67 C
1519 11-02-2020 06:30:00 5.4 C 71 % 0.58 C
1520 11-02-2020 06:35:00 5.5 C 70 % 0.48 C
1521 11-02-2020 06:40:00 5.6 C 70 % 0.57 C
1522 11-02-2020 06:45:00 5.6 C 70 % 0.57 C
1523 11-02-2020 06:50:00 5.5 C 71 % 0.67 C
1524 11-02-2020 06:55:00 5.4 C 75 % 1.33 C
1525 11-02-2020 07:00:00 5.2 C 78 % 1.69 C
Sensor: Nr:Datum:Temp:Feuchte:Taupunkt:
Aussen-T/F 1526 11-02-2020 07:05:00 5 C 79 % 1.67 C
1527 11-02-2020 07:10:00 4.9 C 80 % 1.75 C
1528 11-02-2020 07:15:00 4.7 C 81 % 1.73 C
1529 11-02-2020 07:20:00 4.6 C 80 % 1.46 C
1530 11-02-2020 07:25:00 4.6 C 80 % 1.46 C
1531 11-02-2020 07:30:00 4.7 C 80 % 1.55 C
1532 11-02-2020 07:35:00 4.7 C 79 % 1.38 C
1533 11-02-2020 07:40:00 4.7 C 79 % 1.38 C
1534 11-02-2020 07:45:00 4.6 C 79 % 1.28 C
1535 11-02-2020 07:50:00 4.7 C 79 % 1.38 C
1536 11-02-2020 07:55:00 4.8 C 77 % 1.12 C
1537 11-02-2020 08:00:00 5.1 C 76 % 1.23 C
1538 11-02-2020 08:05:00 5.2 C 75 % 1.14 C
1539 11-02-2020 08:10:00 5.1 C 75 % 1.04 C
1540 11-02-2020 08:15:00 5.1 C 75 % 1.04 C
1541 11-02-2020 08:20:00 5.1 C 75 % 1.04 C
1542 11-02-2020 08:25:00 5.1 C 74 % 0.86 C
1543 11-02-2020 08:30:00 5.3 C 76 % 1.42 C
1544 11-02-2020 08:35:00 5.1 C 80 % 1.94 C
1545 11-02-2020 08:40:00 4.8 C 82 % 1.99 C
1546 11-02-2020 08:45:00 4.7 C 83 % 2.07 C
1547 11-02-2020 08:50:00 4.6 C 84 % 2.14 C
1548 11-02-2020 08:55:00 4.6 C 84 % 2.14 C
1549 11-02-2020 09:00:00 4.7 C 83 % 2.07 C
1550 11-02-2020 09:05:00 4.7 C 83 % 2.07 C
Sensor: Nr:Datum:Temp:Feuchte:Taupunkt:
Aussen-T/F 1551 11-02-2020 09:10:00 4.7 C 83 % 2.07 C
1552 11-02-2020 09:15:00 4.9 C 83 % 2.26 C
1553 11-02-2020 09:20:00 5.1 C 82 % 2.29 C
1554 11-02-2020 09:25:00 5.2 C 81 % 2.21 C
1555 11-02-2020 09:30:00 5.2 C 81 % 2.21 C
1556 11-02-2020 09:35:00 5.2 C 81 % 2.21 C
1557 11-02-2020 09:40:00 5.2 C 80 % 2.04 C
1558 11-02-2020 09:45:00 5.2 C 80 % 2.04 C
1559 11-02-2020 09:50:00 5.2 C 79 % 1.86 C
1560 11-02-2020 09:55:00 5.3 C 78 % 1.78 C
1561 11-02-2020 10:00:00 5.3 C 78 % 1.78 C
1562 11-02-2020 10:05:00 5.6 C 77 % 1.89 C
1563 11-02-2020 10:10:00 5.7 C 75 % 1.62 C
1564 11-02-2020 10:15:00 5.9 C 74 % 1.63 C
1565 11-02-2020 10:20:00 6.2 C 73 % 1.73 C
1566 11-02-2020 10:25:00 6.3 C 72 % 1.63 C
1567 11-02-2020 10:30:00 6.3 C 71 % 1.44 C
1568 11-02-2020 10:35:00 6.3 C 71 % 1.44 C
1569 11-02-2020 10:40:00 6.3 C 71 % 1.44 C
1570 11-02-2020 10:45:00 6.2 C 72 % 1.54 C
1571 11-02-2020 10:50:00 6.1 C 73 % 1.63 C
1572 11-02-2020 10:55:00 6.1 C 75 % 2.01 C
1573 11-02-2020 11:00:00 6.1 C 75 % 2.01 C
1574 11-02-2020 11:05:00 6.3 C 74 % 2.02 C
1575 11-02-2020 11:10:00 6.3 C 72 % 1.63 C
Sensor: Nr:Datum:Temp:Feuchte:Taupunkt:
Aussen-T/F 1576 11-02-2020 11:15:00 6.5 C 69 % 1.23 C
1577 11-02-2020 11:20:00 6.7 C 67 % 1.02 C
1578 11-02-2020 11:25:00 6.8 C 66 % 0.9 C
1579 11-02-2020 11:30:00 6.9 C 65 % 0.79 C
1580 11-02-2020 11:35:00 7 C 66 % 1.09 C
1581 11-02-2020 11:40:00 7.1 C 64 % 0.76 C
1582 11-02-2020 11:45:00 7.1 C 64 % 0.76 C
1583 11-02-2020 11:50:00 7 C 65 % 0.88 C
1584 11-02-2020 11:55:00 7 C 64 % 0.67 C
1585 11-02-2020 12:00:00 7.1 C 64 % 0.76 C
1586 11-02-2020 12:05:00 7.2 C 64 % 0.86 C
1587 11-02-2020 12:10:00 7.2 C 63 % 0.64 C
1588 11-02-2020 12:15:00 7.2 C 66 % 1.29 C
1589 11-02-2020 12:20:00 7.1 C 66 % 1.19 C
1590 11-02-2020 12:25:00 7 C 67 % 1.3 C
1591 11-02-2020 12:30:00 7 C 66 % 1.09 C
1592 11-02-2020 12:35:00 7 C 66 % 1.09 C
1593 11-02-2020 12:40:00 7.1 C 66 % 1.19 C
1594 11-02-2020 12:45:00 7.1 C 64 % 0.76 C
1595 11-02-2020 12:50:00 7.2 C 66 % 1.29 C
1596 11-02-2020 12:55:00 7.1 C 65 % 0.98 C
1597 11-02-2020 13:00:00 6.9 C 65 % 0.79 C
1598 11-02-2020 13:05:00 6.7 C 67 % 1.02 C
1599 11-02-2020 13:10:00 6.4 C 69 % 1.14 C
1600 11-02-2020 13:15:00 6.4 C 69 % 1.14 C
Sensor: Nr:Datum:Temp:Feuchte:Taupunkt:
Aussen-T/F 1601 11-02-2020 13:20:00 6.4 C 67 % 0.73 C
1602 11-02-2020 13:25:00 6.4 C 67 % 0.73 C
1603 11-02-2020 13:30:00 6.3 C 70 % 1.24 C
1604 11-02-2020 13:35:00 6.5 C 68 % 1.03 C
1605 11-02-2020 13:40:00 6.9 C 66 % 1 C
1606 11-02-2020 13:45:00 7.3 C 64 % 0.95 C
1607 11-02-2020 13:50:00 7.5 C 64 % 1.14 C
1608 11-02-2020 13:55:00 7.5 C 61 % 0.48 C
1609 11-02-2020 14:00:00 7.4 C 62 % 0.61 C
1610 11-02-2020 14:05:00 7.4 C 63 % 0.83 C
1611 11-02-2020 14:10:00 7.3 C 63 % 0.74 C
1612 11-02-2020 14:15:00 6.9 C 72 % 2.21 C
1613 11-02-2020 14:20:00 5.9 C 78 % 2.37 C
1614 11-02-2020 14:25:00 5.2 C 82 % 2.39 C
1615 11-02-2020 14:30:00 4.9 C 84 % 2.43 C
1616 11-02-2020 14:35:00 4.9 C 84 % 2.43 C
1617 11-02-2020 14:40:00 5 C 84 % 2.53 C
1618 11-02-2020 14:45:00 5.2 C 84 % 2.72 C
1619 11-02-2020 14:50:00 5.3 C 82 % 2.48 C
1620 11-02-2020 14:55:00 5.5 C 76 % 1.62 C
1621 11-02-2020 15:00:00 5.7 C 72 % 1.06 C
1622 11-02-2020 15:05:00 5.8 C 72 % 1.15 C
1623 11-02-2020 15:10:00 5.8 C 71 % 0.96 C
1624 11-02-2020 15:15:00 5.9 C 73 % 1.44 C
1625 11-02-2020 15:20:00 5.8 C 73 % 1.34 C
Sensor: Nr:Datum:Temp:Feuchte:Taupunkt:
Aussen-T/F 1626 11-02-2020 15:25:00 6.1 C 72 % 1.44 C
1627 11-02-2020 15:30:00 6.3 C 73 % 1.83 C
1628 11-02-2020 15:35:00 6.4 C 74 % 2.11 C
1629 11-02-2020 15:40:00 6.6 C 74 % 2.31 C
1630 11-02-2020 15:45:00 6.7 C 73 % 2.21 C
1631 11-02-2020 15:50:00 6.8 C 74 % 2.5 C
1632 11-02-2020 15:55:00 6.9 C 72 % 2.21 C
1633 11-02-2020 16:00:00 7 C 71 % 2.11 C
1634 11-02-2020 16:05:00 7.1 C 70 % 2.01 C
1635 11-02-2020 16:10:00 7.1 C 70 % 2.01 C
1636 11-02-2020 16:15:00 7.1 C 68 % 1.61 C
1637 11-02-2020 16:20:00 7 C 69 % 1.71 C
1638 11-02-2020 16:25:00 7.1 C 69 % 1.81 C
1639 11-02-2020 16:30:00 7.1 C 68 % 1.61 C
1640 11-02-2020 16:35:00 7.2 C 69 % 1.9 C
1641 11-02-2020 16:40:00 7.1 C 68 % 1.61 C
1642 11-02-2020 16:45:00 6.9 C 70 % 1.82 C
1643 11-02-2020 16:50:00 6.7 C 70 % 1.63 C
1644 11-02-2020 16:55:00 6.6 C 71 % 1.73 C
1645 11-02-2020 17:00:00 6.5 C 72 % 1.83 C
1646 11-02-2020 17:05:00 6.4 C 73 % 1.92 C
1647 11-02-2020 17:10:00 6.4 C 72 % 1.73 C
1648 11-02-2020 17:15:00 6.4 C 72 % 1.73 C
1649 11-02-2020 17:20:00 6.3 C 72 % 1.63 C
1650 11-02-2020 17:25:00 6.2 C 72 % 1.54 C
Sensor: Nr:Datum:Temp:Feuchte:Taupunkt:
Aussen-T/F 1651 11-02-2020 17:30:00 6.2 C 72 % 1.54 C
1652 11-02-2020 17:35:00 6.1 C 73 % 1.63 C
1653 11-02-2020 17:40:00 6.1 C 73 % 1.63 C
1654 11-02-2020 17:45:00 6.1 C 72 % 1.44 C
1655 11-02-2020 17:50:00 6.2 C 71 % 1.34 C
1656 11-02-2020 17:55:00 6.2 C 71 % 1.34 C
1657 11-02-2020 18:00:00 6.2 C 71 % 1.34 C
1658 11-02-2020 18:05:00 6.1 C 71 % 1.25 C
1659 11-02-2020 18:10:00 6.2 C 70 % 1.15 C
1660 11-02-2020 18:15:00 6.2 C 70 % 1.15 C
1661 11-02-2020 18:20:00 6.1 C 69 % 0.85 C
1662 11-02-2020 18:25:00 6.1 C 70 % 1.05 C
1663 11-02-2020 18:30:00 5.9 C 70 % 0.86 C
1664 11-02-2020 18:35:00 5.9 C 70 % 0.86 C
1665 11-02-2020 18:40:00 5.8 C 72 % 1.15 C
1666 11-02-2020 18:45:00 5.8 C 72 % 1.15 C
1667 11-02-2020 18:50:00 5.7 C 73 % 1.25 C
1668 11-02-2020 18:55:00 5.7 C 73 % 1.25 C
1669 11-02-2020 19:00:00 5.7 C 73 % 1.25 C
1670 11-02-2020 19:05:00 5.7 C 73 % 1.25 C
1671 11-02-2020 19:10:00 5.6 C 74 % 1.34 C
1672 11-02-2020 19:15:00 5.5 C 75 % 1.43 C
1673 11-02-2020 19:20:00 5.4 C 75 % 1.33 C
1674 11-02-2020 19:25:00 5.3 C 75 % 1.24 C
1675 11-02-2020 19:30:00 5.3 C 76 % 1.42 C
Sensor: Nr:Datum:Temp:Feuchte:Taupunkt:
Aussen-T/F 1676 11-02-2020 19:35:00 5.3 C 76 % 1.42 C
1677 11-02-2020 19:40:00 5.2 C 77 % 1.51 C
1678 11-02-2020 19:45:00 5.2 C 77 % 1.51 C
1679 11-02-2020 19:50:00 5.1 C 77 % 1.41 C
1680 11-02-2020 19:55:00 5.1 C 76 % 1.23 C
1681 11-02-2020 20:00:00 5.1 C 75 % 1.04 C
1682 11-02-2020 20:05:00 5.2 C 75 % 1.14 C
1683 11-02-2020 20:10:00 5.3 C 75 % 1.24 C
1684 11-02-2020 20:15:00 5.5 C 70 % 0.48 C
1685 11-02-2020 20:20:00 5.7 C 68 % 0.27 C
1686 11-02-2020 20:25:00 5.9 C 68 % 0.46 C
1687 11-02-2020 20:30:00 5.8 C 67 % 0.16 C
1688 11-02-2020 20:35:00 5.8 C 67 % 0.16 C
1689 11-02-2020 20:40:00 5.8 C 66 % -0.05 C
1690 11-02-2020 20:45:00 5.7 C 66 % -0.14 C
1691 11-02-2020 20:50:00 5.6 C 66 % -0.24 C
1692 11-02-2020 20:55:00 5.5 C 67 % -0.13 C
1693 11-02-2020 21:00:00 5.4 C 67 % -0.22 C
1694 11-02-2020 21:05:00 5.3 C 67 % -0.32 C
1695 11-02-2020 21:10:00 5.3 C 68 % -0.12 C
1696 11-02-2020 21:15:00 5.3 C 68 % -0.12 C
1697 11-02-2020 21:20:00 5.2 C 69 % -0.01 C
1698 11-02-2020 21:25:00 5.2 C 68 % -0.21 C
1699 11-02-2020 21:30:00 5.2 C 68 % -0.21 C
1700 11-02-2020 21:35:00 5.2 C 69 % -0.01 C
Sensor: Nr:Datum:Temp:Feuchte:Taupunkt:
Aussen-T/F 1701 11-02-2020 21:40:00 5.2 C 68 % -0.21 C
1702 11-02-2020 21:45:00 5.2 C 69 % -0.01 C
1703 11-02-2020 21:50:00 5.1 C 69 % -0.11 C
1704 11-02-2020 21:55:00 5.1 C 69 % -0.11 C
1705 11-02-2020 22:00:00 5 C 69 % -0.2 C
1706 11-02-2020 22:05:00 5 C 70 % 0 C
1707 11-02-2020 22:10:00 5 C 70 % 0 C
1708 11-02-2020 22:15:00 5 C 70 % 0 C
1709 11-02-2020 22:20:00 5 C 70 % 0 C
1710 11-02-2020 22:25:00 4.9 C 70 % -0.1 C
1711 11-02-2020 22:30:00 4.9 C 71 % 0.09 C
1712 11-02-2020 22:35:00 4.8 C 71 % 0 C
1713 11-02-2020 22:40:00 4.8 C 72 % 0.19 C
1714 11-02-2020 22:45:00 4.9 C 72 % 0.29 C
1715 11-02-2020 22:50:00 4.8 C 72 % 0.19 C
1716 11-02-2020 22:55:00 4.7 C 73 % 0.28 C
1717 11-02-2020 23:00:00 4.6 C 74 % 0.38 C
1718 11-02-2020 23:05:00 4.5 C 73 % 0.09 C
1719 11-02-2020 23:10:00 4.6 C 73 % 0.19 C
1720 11-02-2020 23:15:00 4.6 C 73 % 0.19 C
1721 11-02-2020 23:20:00 4.6 C 72 % 0 C
1722 11-02-2020 23:25:00 4.7 C 72 % 0.09 C
1723 11-02-2020 23:30:00 4.8 C 72 % 0.19 C
1724 11-02-2020 23:35:00 4.9 C 71 % 0.09 C
1725 11-02-2020 23:40:00 5 C 70 % 0 C
Sensor: Nr:Datum:Temp:Feuchte:Taupunkt:
Aussen-T/F 1726 11-02-2020 23:45:00 5.1 C 70 % 0.09 C
1727 11-02-2020 23:50:00 5.2 C 69 % -0.01 C
1728 11-02-2020 23:55:00 5.2 C 70 % 0.19 C
1729 12-02-2020 00:00:00 5.2 C 70 % 0.19 C
1730 12-02-2020 00:05:00 5.3 C 70 % 0.28 C
1731 12-02-2020 00:10:00 5.2 C 70 % 0.19 C
1732 12-02-2020 00:15:00 5.3 C 69 % 0.09 C
1733 12-02-2020 00:20:00 5.3 C 69 % 0.09 C
1734 12-02-2020 00:25:00 5.3 C 70 % 0.28 C
1735 12-02-2020 00:30:00 5.3 C 70 % 0.28 C
1736 12-02-2020 00:35:00 5.2 C 70 % 0.19 C
1737 12-02-2020 00:40:00 5.3 C 71 % 0.48 C
1738 12-02-2020 00:45:00 5.2 C 72 % 0.58 C
1739 12-02-2020 00:50:00 5.2 C 73 % 0.77 C
1740 12-02-2020 00:55:00 5.2 C 73 % 0.77 C
1741 12-02-2020 01:00:00 5.2 C 74 % 0.95 C
1742 12-02-2020 01:05:00 5.2 C 74 % 0.95 C
1743 12-02-2020 01:10:00 5.2 C 74 % 0.95 C
1744 12-02-2020 01:15:00 5.1 C 75 % 1.04 C
1745 12-02-2020 01:20:00 5 C 75 % 0.95 C
1746 12-02-2020 01:25:00 5 C 76 % 1.13 C
1747 12-02-2020 01:30:00 5 C 76 % 1.13 C
1748 12-02-2020 01:35:00 5.1 C 76 % 1.23 C
1749 12-02-2020 01:40:00 5.1 C 76 % 1.23 C
1750 12-02-2020 01:45:00 5.1 C 75 % 1.04 C
Sensor: Nr:Datum:Temp:Feuchte:Taupunkt:
Aussen-T/F 1751 12-02-2020 01:50:00 5.2 C 75 % 1.14 C
1752 12-02-2020 01:55:00 5.2 C 75 % 1.14 C
1753 12-02-2020 02:00:00 5.2 C 75 % 1.14 C
1754 12-02-2020 02:05:00 5.2 C 75 % 1.14 C
1755 12-02-2020 02:10:00 5.1 C 75 % 1.04 C
1756 12-02-2020 02:15:00 5.1 C 75 % 1.04 C
1757 12-02-2020 02:20:00 5.1 C 75 % 1.04 C
1758 12-02-2020 02:25:00 5.1 C 75 % 1.04 C
1759 12-02-2020 02:30:00 5 C 75 % 0.95 C
1760 12-02-2020 02:35:00 4.9 C 75 % 0.85 C
1761 12-02-2020 02:40:00 4.9 C 75 % 0.85 C
1762 12-02-2020 02:45:00 4.8 C 76 % 0.94 C
1763 12-02-2020 02:50:00 4.8 C 76 % 0.94 C
1764 12-02-2020 02:55:00 4.7 C 76 % 0.84 C
1765 12-02-2020 03:00:00 4.7 C 76 % 0.84 C
1766 12-02-2020 03:05:00 4.7 C 76 % 0.84 C
1767 12-02-2020 03:10:00 4.7 C 76 % 0.84 C
1768 12-02-2020 03:15:00 4.7 C 76 % 0.84 C
1769 12-02-2020 03:20:00 4.8 C 76 % 0.94 C
1770 12-02-2020 03:25:00 4.8 C 76 % 0.94 C
1771 12-02-2020 03:30:00 4.8 C 76 % 0.94 C
1772 12-02-2020 03:35:00 4.8 C 76 % 0.94 C
1773 12-02-2020 03:40:00 4.8 C 76 % 0.94 C
1774 12-02-2020 03:45:00 4.7 C 76 % 0.84 C
1775 12-02-2020 03:50:00 4.7 C 76 % 0.84 C
Sensor: Nr:Datum:Temp:Feuchte:Taupunkt:
Aussen-T/F 1776 12-02-2020 03:55:00 4.6 C 77 % 0.92 C
1777 12-02-2020 04:00:00 4.5 C 77 % 0.83 C
1778 12-02-2020 04:05:00 4.5 C 78 % 1.01 C
1779 12-02-2020 04:10:00 4.6 C 77 % 0.92 C
1780 12-02-2020 04:15:00 4.7 C 77 % 1.02 C
1781 12-02-2020 04:20:00 4.8 C 76 % 0.94 C
1782 12-02-2020 04:25:00 4.9 C 76 % 1.03 C
1783 12-02-2020 04:30:00 4.9 C 76 % 1.03 C
1784 12-02-2020 04:35:00 4.9 C 77 % 1.22 C
1785 12-02-2020 04:40:00 4.9 C 77 % 1.22 C
1786 12-02-2020 04:45:00 4.9 C 77 % 1.22 C
1787 12-02-2020 04:50:00 4.9 C 77 % 1.22 C
1788 12-02-2020 04:55:00 4.9 C 77 % 1.22 C
1789 12-02-2020 05:00:00 4.9 C 77 % 1.22 C
1790 12-02-2020 05:05:00 4.9 C 77 % 1.22 C
1791 12-02-2020 05:10:00 4.9 C 78 % 1.39 C
1792 12-02-2020 05:15:00 4.9 C 78 % 1.39 C
1793 12-02-2020 05:20:00 4.9 C 78 % 1.39 C
1794 12-02-2020 05:25:00 5 C 77 % 1.31 C
1795 12-02-2020 05:30:00 5.1 C 78 % 1.59 C
1796 12-02-2020 05:35:00 5.1 C 77 % 1.41 C
1797 12-02-2020 05:40:00 5.1 C 78 % 1.59 C
1798 12-02-2020 05:45:00 5.1 C 77 % 1.41 C
1799 12-02-2020 05:50:00 5.1 C 77 % 1.41 C
1800 12-02-2020 05:55:00 5.1 C 77 % 1.41 C
Sensor: Nr:Datum:Temp:Feuchte:Taupunkt:
Aussen-T/F 1801 12-02-2020 06:00:00 5.1 C 77 % 1.41 C
1802 12-02-2020 06:05:00 5.1 C 77 % 1.41 C
1803 12-02-2020 06:10:00 5.1 C 78 % 1.59 C
1804 12-02-2020 06:15:00 5.1 C 78 % 1.59 C
1805 12-02-2020 06:20:00 5 C 78 % 1.49 C
1806 12-02-2020 06:25:00 5.1 C 79 % 1.77 C
1807 12-02-2020 06:30:00 5 C 79 % 1.67 C
1808 12-02-2020 06:35:00 5 C 79 % 1.67 C
1809 12-02-2020 06:40:00 4.9 C 79 % 1.57 C
1810 12-02-2020 06:45:00 4.9 C 79 % 1.57 C
1811 12-02-2020 06:50:00 4.9 C 79 % 1.57 C
1812 12-02-2020 06:55:00 4.9 C 79 % 1.57 C
1813 12-02-2020 07:00:00 4.9 C 80 % 1.75 C
1814 12-02-2020 07:05:00 4.8 C 80 % 1.65 C
1815 12-02-2020 07:10:00 4.8 C 81 % 1.82 C
1816 12-02-2020 07:15:00 4.7 C 83 % 2.07 C
1817 12-02-2020 07:20:00 4.4 C 85 % 2.11 C
1818 12-02-2020 07:25:00 4.2 C 87 % 2.23 C
1819 12-02-2020 07:30:00 3.9 C 87 % 1.94 C
1820 12-02-2020 07:35:00 3.8 C 88 % 2 C
1821 12-02-2020 07:40:00 3.7 C 88 % 1.9 C
1822 12-02-2020 07:45:00 3.7 C 88 % 1.9 C
1823 12-02-2020 07:50:00 3.7 C 89 % 2.06 C
1824 12-02-2020 07:55:00 3.7 C 89 % 2.06 C
1825 12-02-2020 08:00:00 3.7 C 88 % 1.9 C
Sensor: Nr:Datum:Temp:Feuchte:Taupunkt:
Aussen-T/F 1826 12-02-2020 08:05:00 3.7 C 88 % 1.9 C
1827 12-02-2020 08:10:00 3.7 C 88 % 1.9 C
1828 12-02-2020 08:15:00 3.8 C 88 % 2 C
1829 12-02-2020 08:20:00 3.8 C 88 % 2 C
1830 12-02-2020 08:25:00 3.8 C 88 % 2 C
1831 12-02-2020 08:30:00 3.9 C 88 % 2.1 C
1832 12-02-2020 08:35:00 3.9 C 87 % 1.94 C
1833 12-02-2020 08:40:00 3.9 C 87 % 1.94 C
1834 12-02-2020 08:45:00 3.9 C 87 % 1.94 C
1835 12-02-2020 08:50:00 4 C 87 % 2.04 C
1836 12-02-2020 08:55:00 4.1 C 87 % 2.14 C
1837 12-02-2020 09:00:00 4.1 C 87 % 2.14 C
1838 12-02-2020 09:05:00 4.1 C 86 % 1.97 C
1839 12-02-2020 09:10:00 4.1 C 86 % 1.97 C
1840 12-02-2020 09:15:00 4.2 C 86 % 2.07 C
1841 12-02-2020 09:20:00 4.3 C 85 % 2.01 C
1842 12-02-2020 09:25:00 4.3 C 85 % 2.01 C
1843 12-02-2020 09:30:00 4.4 C 84 % 1.94 C
1844 12-02-2020 09:35:00 4.4 C 84 % 1.94 C
1845 12-02-2020 09:40:00 4.4 C 83 % 1.77 C
1846 12-02-2020 09:45:00 4.4 C 84 % 1.94 C
1847 12-02-2020 09:50:00 4.6 C 83 % 1.97 C
1848 12-02-2020 09:55:00 4.8 C 83 % 2.16 C
1849 12-02-2020 10:00:00 4.9 C 83 % 2.26 C
1850 12-02-2020 10:05:00 5.1 C 82 % 2.29 C
Sensor: Nr:Datum:Temp:Feuchte:Taupunkt:
Aussen-T/F 1851 12-02-2020 10:10:00 5.1 C 83 % 2.46 C
1852 12-02-2020 10:15:00 5 C 84 % 2.53 C
1853 12-02-2020 10:20:00 4.8 C 86 % 2.66 C
1854 12-02-2020 10:25:00 4.8 C 87 % 2.82 C
1855 12-02-2020 10:30:00 4.7 C 88 % 2.89 C
1856 12-02-2020 10:35:00 4.7 C 89 % 3.05 C
1857 12-02-2020 10:40:00 4.8 C 89 % 3.14 C
1858 12-02-2020 10:45:00 4.8 C 89 % 3.14 C
1859 12-02-2020 10:50:00 4.9 C 88 % 3.08 C
1860 12-02-2020 10:55:00 5.2 C 88 % 3.38 C
1861 12-02-2020 11:00:00 5.3 C 86 % 3.15 C
1862 12-02-2020 11:05:00 5.5 C 85 % 3.18 C
1863 12-02-2020 11:10:00 5.6 C 85 % 3.28 C
1864 12-02-2020 11:15:00 5.6 C 85 % 3.28 C
1865 12-02-2020 11:20:00 5.6 C 83 % 2.95 C
1866 12-02-2020 11:25:00 5.7 C 83 % 3.04 C
1867 12-02-2020 11:30:00 5.8 C 83 % 3.14 C
1868 12-02-2020 11:35:00 5.8 C 83 % 3.14 C
1869 12-02-2020 11:40:00 5.7 C 82 % 2.87 C
1870 12-02-2020 11:45:00 5.7 C 82 % 2.87 C
1871 12-02-2020 11:50:00 5.4 C 82 % 2.58 C
1872 12-02-2020 11:55:00 5.3 C 83 % 2.65 C
1873 12-02-2020 12:00:00 5.2 C 83 % 2.56 C
1874 12-02-2020 12:05:00 5.2 C 83 % 2.56 C
1875 12-02-2020 12:10:00 5.3 C 84 % 2.82 C
Sensor: Nr:Datum:Temp:Feuchte:Taupunkt:
Aussen-T/F 1876 12-02-2020 12:15:00 5.4 C 84 % 2.92 C
1877 12-02-2020 12:20:00 5.5 C 83 % 2.85 C
1878 12-02-2020 12:25:00 5.5 C 83 % 2.85 C
1879 12-02-2020 12:30:00 5.5 C 83 % 2.85 C
1880 12-02-2020 12:35:00 5.4 C 84 % 2.92 C
1881 12-02-2020 12:40:00 5.3 C 84 % 2.82 C
1882 12-02-2020 12:45:00 5.3 C 85 % 2.99 C
1883 12-02-2020 12:50:00 5.3 C 86 % 3.15 C
1884 12-02-2020 12:55:00 5.3 C 86 % 3.15 C
1885 12-02-2020 13:00:00 5.5 C 85 % 3.18 C
1886 12-02-2020 13:05:00 5.7 C 84 % 3.21 C
1887 12-02-2020 13:10:00 5.9 C 83 % 3.24 C
1888 12-02-2020 13:15:00 6.1 C 80 % 2.92 C
1889 12-02-2020 13:20:00 6.4 C 81 % 3.38 C
1890 12-02-2020 13:25:00 6.7 C 80 % 3.5 C
1891 12-02-2020 13:30:00 6.8 C 77 % 3.06 C
1892 12-02-2020 13:35:00 6.9 C 76 % 2.97 C
1893 12-02-2020 13:40:00 6.9 C 73 % 2.4 C
1894 12-02-2020 13:45:00 6.8 C 75 % 2.69 C
1895 12-02-2020 13:50:00 6.7 C 76 % 2.78 C
1896 12-02-2020 13:55:00 6.6 C 77 % 2.86 C
1897 12-02-2020 14:00:00 6.5 C 77 % 2.77 C
1898 12-02-2020 14:05:00 6.4 C 76 % 2.49 C
1899 12-02-2020 14:10:00 6.5 C 76 % 2.58 C
1900 12-02-2020 14:15:00 6.7 C 75 % 2.59 C
Sensor: Nr:Datum:Temp:Feuchte:Taupunkt:
Aussen-T/F 1901 12-02-2020 14:20:00 6.8 C 75 % 2.69 C
1902 12-02-2020 14:25:00 6.8 C 74 % 2.5 C
1903 12-02-2020 14:30:00 6.9 C 74 % 2.6 C
1904 12-02-2020 14:35:00 7 C 70 % 1.91 C
1905 12-02-2020 14:40:00 7.1 C 69 % 1.81 C
1906 12-02-2020 14:45:00 7.2 C 70 % 2.11 C
1907 12-02-2020 14:50:00 7.1 C 72 % 2.4 C
1908 12-02-2020 14:55:00 7 C 73 % 2.5 C
1909 12-02-2020 15:00:00 6.9 C 74 % 2.6 C
1910 12-02-2020 15:05:00 6.9 C 74 % 2.6 C
1911 12-02-2020 15:10:00 6.9 C 74 % 2.6 C
1912 12-02-2020 15:15:00 7 C 74 % 2.69 C
1913 12-02-2020 15:20:00 7.1 C 72 % 2.4 C
1914 12-02-2020 15:25:00 7.2 C 72 % 2.5 C
1915 12-02-2020 15:30:00 7.3 C 72 % 2.6 C
1916 12-02-2020 15:35:00 7.4 C 73 % 2.89 C
1917 12-02-2020 15:40:00 7.4 C 72 % 2.69 C
1918 12-02-2020 15:45:00 7.2 C 72 % 2.5 C
1919 12-02-2020 15:50:00 7 C 73 % 2.5 C
1920 12-02-2020 15:55:00 6.9 C 74 % 2.6 C
1921 12-02-2020 16:00:00 6.9 C 74 % 2.6 C
1922 12-02-2020 16:05:00 6.9 C 75 % 2.78 C
1923 12-02-2020 16:10:00 6.8 C 75 % 2.69 C
1924 12-02-2020 16:15:00 6.7 C 76 % 2.78 C
1925 12-02-2020 16:20:00 6.7 C 76 % 2.78 C
Sensor: Nr:Datum:Temp:Feuchte:Taupunkt:
Aussen-T/F 1926 12-02-2020 16:25:00 6.7 C 74 % 2.4 C
1927 12-02-2020 16:30:00 6.6 C 75 % 2.49 C
1928 12-02-2020 16:35:00 6.6 C 75 % 2.49 C
1929 12-02-2020 16:40:00 6.6 C 75 % 2.49 C
1930 12-02-2020 16:45:00 6.4 C 76 % 2.49 C
1931 12-02-2020 16:50:00 6.4 C 76 % 2.49 C
1932 12-02-2020 16:55:00 6.4 C 76 % 2.49 C
1933 12-02-2020 17:00:00 6.3 C 74 % 2.02 C
1934 12-02-2020 17:05:00 6.3 C 74 % 2.02 C
1935 12-02-2020 17:10:00 6.2 C 74 % 1.92 C
1936 12-02-2020 17:15:00 6.1 C 75 % 2.01 C
1937 12-02-2020 17:20:00 6 C 75 % 1.91 C
1938 12-02-2020 17:25:00 5.9 C 75 % 1.82 C
1939 12-02-2020 17:30:00 5.8 C 75 % 1.72 C
1940 12-02-2020 17:35:00 5.7 C 76 % 1.81 C
1941 12-02-2020 17:40:00 5.6 C 77 % 1.89 C
1942 12-02-2020 17:45:00 5.4 C 78 % 1.88 C
1943 12-02-2020 17:50:00 5.3 C 79 % 1.96 C
1944 12-02-2020 17:55:00 5.3 C 80 % 2.14 C
1945 12-02-2020 18:00:00 5.1 C 81 % 2.12 C
1946 12-02-2020 18:05:00 4.9 C 82 % 2.09 C
1947 12-02-2020 18:10:00 4.8 C 82 % 1.99 C
1948 12-02-2020 18:15:00 4.7 C 83 % 2.07 C
1949 12-02-2020 18:20:00 4.6 C 83 % 1.97 C
1950 12-02-2020 18:25:00 4.5 C 83 % 1.87 C
Sensor: Nr:Datum:Temp:Feuchte:Taupunkt:
Aussen-T/F 1951 12-02-2020 18:30:00 4.4 C 84 % 1.94 C
1952 12-02-2020 18:35:00 4.3 C 84 % 1.84 C
1953 12-02-2020 18:40:00 4.3 C 84 % 1.84 C
1954 12-02-2020 18:45:00 4.3 C 84 % 1.84 C
1955 12-02-2020 18:50:00 4.3 C 84 % 1.84 C
1956 12-02-2020 18:55:00 4.3 C 84 % 1.84 C
1957 12-02-2020 19:00:00 4.2 C 84 % 1.74 C
1958 12-02-2020 19:05:00 4.2 C 85 % 1.91 C
1959 12-02-2020 19:10:00 4.3 C 84 % 1.84 C
1960 12-02-2020 19:15:00 4.3 C 84 % 1.84 C
1961 12-02-2020 19:20:00 4.3 C 84 % 1.84 C
1962 12-02-2020 19:25:00 4.4 C 84 % 1.94 C
1963 12-02-2020 19:30:00 4.3 C 84 % 1.84 C
1964 12-02-2020 19:35:00 4.3 C 84 % 1.84 C
1965 12-02-2020 19:40:00 4.2 C 84 % 1.74 C
1966 12-02-2020 19:45:00 4.2 C 85 % 1.91 C
1967 12-02-2020 19:50:00 4 C 85 % 1.71 C
1968 12-02-2020 19:55:00 3.9 C 86 % 1.78 C
1969 12-02-2020 20:00:00 3.8 C 86 % 1.68 C
1970 12-02-2020 20:05:00 3.7 C 87 % 1.74 C
1971 12-02-2020 20:10:00 3.6 C 87 % 1.64 C
1972 12-02-2020 20:15:00 3.4 C 87 % 1.45 C
1973 12-02-2020 20:20:00 3.3 C 87 % 1.35 C
1974 12-02-2020 20:25:00 3.1 C 88 % 1.31 C
1975 12-02-2020 20:30:00 2.9 C 88 % 1.11 C
Sensor: Nr:Datum:Temp:Feuchte:Taupunkt:
Aussen-T/F 1976 12-02-2020 20:35:00 2.8 C 89 % 1.17 C
1977 12-02-2020 20:40:00 2.9 C 90 % 1.43 C
1978 12-02-2020 20:45:00 3 C 90 % 1.52 C
1979 12-02-2020 20:50:00 3 C 90 % 1.52 C
1980 12-02-2020 20:55:00 3.1 C 91 % 1.78 C
1981 12-02-2020 21:00:00 2.9 C 90 % 1.43 C
1982 12-02-2020 21:05:00 2.8 C 90 % 1.33 C
1983 12-02-2020 21:10:00 2.8 C 90 % 1.33 C
1984 12-02-2020 21:15:00 2.7 C 91 % 1.38 C
1985 12-02-2020 21:20:00 2.7 C 91 % 1.38 C
1986 12-02-2020 21:25:00 2.8 C 91 % 1.48 C
1987 12-02-2020 21:30:00 2.7 C 91 % 1.38 C
1988 12-02-2020 21:35:00 2.8 C 91 % 1.48 C
1989 12-02-2020 21:40:00 2.7 C 91 % 1.38 C
1990 12-02-2020 21:45:00 2.8 C 91 % 1.48 C
1991 12-02-2020 21:50:00 2.8 C 91 % 1.48 C
1992 12-02-2020 21:55:00 2.9 C 91 % 1.58 C
1993 12-02-2020 22:00:00 2.8 C 91 % 1.48 C
1994 12-02-2020 22:05:00 2.8 C 91 % 1.48 C
1995 12-02-2020 22:10:00 2.8 C 91 % 1.48 C
1996 12-02-2020 22:15:00 2.7 C 91 % 1.38 C
1997 12-02-2020 22:20:00 2.6 C 91 % 1.28 C
1998 12-02-2020 22:25:00 2.6 C 91 % 1.28 C
1999 12-02-2020 22:30:00 2.4 C 91 % 1.08 C
2000 12-02-2020 22:35:00 2.4 C 91 % 1.08 C
Sensor: Nr:Datum:Temp:Feuchte:Taupunkt:
Aussen-T/F 2001 12-02-2020 22:40:00 2.4 C 92 % 1.24 C
2002 12-02-2020 22:45:00 2.5 C 92 % 1.34 C
2003 12-02-2020 22:50:00 2.4 C 92 % 1.24 C
2004 12-02-2020 22:55:00 2.4 C 92 % 1.24 C
2005 12-02-2020 23:00:00 2.4 C 92 % 1.24 C
2006 12-02-2020 23:05:00 2.3 C 92 % 1.14 C
2007 12-02-2020 23:10:00 2.3 C 93 % 1.29 C
2008 12-02-2020 23:15:00 2.4 C 93 % 1.39 C
2009 12-02-2020 23:20:00 2.4 C 93 % 1.39 C
2010 12-02-2020 23:25:00 2.4 C 93 % 1.39 C
2011 12-02-2020 23:30:00 2.4 C 93 % 1.39 C
2012 12-02-2020 23:35:00 2.4 C 93 % 1.39 C
2013 12-02-2020 23:40:00 2.4 C 93 % 1.39 C
2014 12-02-2020 23:45:00 2.4 C 93 % 1.39 C
2015 12-02-2020 23:50:00 2.4 C 93 % 1.39 C
2016 12-02-2020 23:55:00 2.6 C 93 % 1.59 C
2017 13-02-2020 00:00:00 2.6 C 93 % 1.59 C
2018 13-02-2020 00:05:00 2.6 C 93 % 1.59 C
2019 13-02-2020 00:10:00 2.5 C 93 % 1.49 C
2020 13-02-2020 00:15:00 2.5 C 93 % 1.49 C
2021 13-02-2020 00:20:00 2.5 C 93 % 1.49 C
2022 13-02-2020 00:25:00 2.4 C 93 % 1.39 C
2023 13-02-2020 00:30:00 2.4 C 93 % 1.39 C
2024 13-02-2020 00:35:00 2.4 C 93 % 1.39 C
2025 13-02-2020 00:40:00 2.4 C 93 % 1.39 C
Sensor: Nr:Datum:Temp:Feuchte:Taupunkt:
Aussen-T/F 2026 13-02-2020 00:45:00 2.4 C 93 % 1.39 C
2027 13-02-2020 00:50:00 2.4 C 93 % 1.39 C
2028 13-02-2020 00:55:00 2.4 C 93 % 1.39 C
2029 13-02-2020 01:00:00 2.5 C 94 % 1.63 C
2030 13-02-2020 01:05:00 2.5 C 93 % 1.49 C
2031 13-02-2020 01:10:00 2.5 C 93 % 1.49 C
2032 13-02-2020 01:15:00 2.5 C 93 % 1.49 C
2033 13-02-2020 01:20:00 2.4 C 93 % 1.39 C
2034 13-02-2020 01:25:00 2.4 C 93 % 1.39 C
2035 13-02-2020 01:30:00 2.4 C 93 % 1.39 C
2036 13-02-2020 01:35:00 2.4 C 93 % 1.39 C
2037 13-02-2020 01:40:00 2.4 C 93 % 1.39 C
2038 13-02-2020 01:45:00 2.3 C 93 % 1.29 C
2039 13-02-2020 01:50:00 2.2 C 93 % 1.19 C
2040 13-02-2020 01:55:00 2.2 C 93 % 1.19 C
2041 13-02-2020 02:00:00 2.2 C 93 % 1.19 C
2042 13-02-2020 02:05:00 2.1 C 93 % 1.09 C
2043 13-02-2020 02:10:00 1.9 C 93 % 0.89 C
2044 13-02-2020 02:15:00 1.8 C 93 % 0.79 C
2045 13-02-2020 02:20:00 1.8 C 93 % 0.79 C
2046 13-02-2020 02:25:00 1.7 C 93 % 0.69 C
2047 13-02-2020 02:30:00 1.6 C 93 % 0.59 C
2048 13-02-2020 02:35:00 1.5 C 93 % 0.49 C
2049 13-02-2020 02:40:00 1.4 C 93 % 0.4 C
2050 13-02-2020 02:45:00 1.3 C 93 % 0.3 C
Sensor: Nr:Datum:Temp:Feuchte:Taupunkt:
Aussen-T/F 2051 13-02-2020 02:50:00 1.3 C 93 % 0.3 C
2052 13-02-2020 02:55:00 1.2 C 93 % 0.2 C
2053 13-02-2020 03:00:00 1.1 C 93 % 0.1 C
2054 13-02-2020 03:05:00 1.1 C 93 % 0.1 C
2055 13-02-2020 03:10:00 1.1 C 94 % 0.24 C
2056 13-02-2020 03:15:00 1 C 94 % 0.15 C
2057 13-02-2020 03:20:00 1 C 94 % 0.15 C
2058 13-02-2020 03:25:00 1 C 94 % 0.15 C
2059 13-02-2020 03:30:00 1 C 94 % 0.15 C
2060 13-02-2020 03:35:00 1 C 94 % 0.15 C
2061 13-02-2020 03:40:00 0.9 C 94 % 0.05 C
2062 13-02-2020 03:45:00 0.9 C 94 % 0.05 C
2063 13-02-2020 03:50:00 0.8 C 94 % -0.05 C
2064 13-02-2020 03:55:00 0.8 C 94 % -0.05 C
2065 13-02-2020 04:00:00 0.7 C 94 % -0.15 C
2066 13-02-2020 04:05:00 0.7 C 94 % -0.15 C
2067 13-02-2020 04:10:00 0.7 C 94 % -0.15 C
2068 13-02-2020 04:15:00 0.6 C 94 % -0.25 C
2069 13-02-2020 04:20:00 0.6 C 94 % -0.25 C
2070 13-02-2020 04:25:00 0.6 C 95 % -0.11 C
2071 13-02-2020 04:30:00 0.6 C 95 % -0.11 C
2072 13-02-2020 04:35:00 0.6 C 95 % -0.11 C
2073 13-02-2020 04:40:00 0.6 C 94 % -0.25 C
2074 13-02-2020 04:45:00 0.5 C 94 % -0.35 C
2075 13-02-2020 04:50:00 0.5 C 94 % -0.35 C
Sensor: Nr:Datum:Temp:Feuchte:Taupunkt:
Aussen-T/F 2076 13-02-2020 04:55:00 0.5 C 95 % -0.21 C
2077 13-02-2020 05:00:00 0.6 C 95 % -0.11 C
2078 13-02-2020 05:05:00 0.5 C 95 % -0.21 C
2079 13-02-2020 05:10:00 0.4 C 95 % -0.31 C
2080 13-02-2020 05:15:00 0.3 C 95 % -0.4 C
2081 13-02-2020 05:20:00 0.2 C 94 % -0.65 C
2082 13-02-2020 05:25:00 0.1 C 94 % -0.75 C
2083 13-02-2020 05:30:00 0 C 95 % -0.7 C
2084 13-02-2020 05:35:00 -0.1 C 95 % -0.8 C
2085 13-02-2020 05:40:00 -0.1 C 95 % -0.8 C
2086 13-02-2020 05:45:00 -0.1 C 95 % -0.8 C
2087 13-02-2020 05:50:00 0 C 95 % -0.7 C
2088 13-02-2020 05:55:00 0.1 C 95 % -0.6 C
2089 13-02-2020 06:00:00 0.2 C 95 % -0.5 C
2090 13-02-2020 06:05:00 0.3 C 95 % -0.4 C
2091 13-02-2020 06:10:00 0.4 C 95 % -0.31 C
2092 13-02-2020 06:15:00 0.5 C 95 % -0.21 C
2093 13-02-2020 06:20:00 0.6 C 96 % 0.04 C
2094 13-02-2020 06:25:00 0.6 C 96 % 0.04 C
2095 13-02-2020 06:30:00 0.7 C 96 % 0.14 C
2096 13-02-2020 06:35:00 0.7 C 96 % 0.14 C
2097 13-02-2020 06:40:00 0.7 C 96 % 0.14 C
2098 13-02-2020 06:45:00 0.7 C 96 % 0.14 C
2099 13-02-2020 06:50:00 0.7 C 96 % 0.14 C
2100 13-02-2020 06:55:00 0.7 C 96 % 0.14 C
Sensor: Nr:Datum:Temp:Feuchte:Taupunkt:
Aussen-T/F 2101 13-02-2020 07:00:00 0.7 C 96 % 0.14 C
2102 13-02-2020 07:05:00 0.7 C 96 % 0.14 C
2103 13-02-2020 07:10:00 0.6 C 95 % -0.11 C
2104 13-02-2020 07:15:00 0.6 C 96 % 0.04 C
2105 13-02-2020 07:20:00 0.6 C 96 % 0.04 C
2106 13-02-2020 07:25:00 0.7 C 96 % 0.14 C
2107 13-02-2020 07:30:00 0.8 C 96 % 0.24 C
2108 13-02-2020 07:35:00 0.9 C 96 % 0.34 C
2109 13-02-2020 07:40:00 1 C 96 % 0.44 C
2110 13-02-2020 07:45:00 1.1 C 96 % 0.54 C
2111 13-02-2020 07:50:00 1.2 C 96 % 0.63 C
2112 13-02-2020 07:55:00 1.3 C 96 % 0.73 C
2113 13-02-2020 08:00:00 1.3 C 96 % 0.73 C
2114 13-02-2020 08:05:00 1.5 C 96 % 0.93 C
2115 13-02-2020 08:10:00 1.6 C 96 % 1.03 C
2116 13-02-2020 08:15:00 1.7 C 96 % 1.13 C
2117 13-02-2020 08:20:00 1.8 C 96 % 1.23 C
2118 13-02-2020 08:25:00 1.9 C 96 % 1.33 C
2119 13-02-2020 08:30:00 2 C 96 % 1.43 C
2120 13-02-2020 08:35:00 2.1 C 96 % 1.53 C
2121 13-02-2020 08:40:00 2.2 C 96 % 1.63 C
2122 13-02-2020 08:45:00 2.4 C 96 % 1.83 C
2123 13-02-2020 08:50:00 2.7 C 96 % 2.13 C
2124 13-02-2020 08:55:00 2.8 C 96 % 2.23 C
2125 13-02-2020 09:00:00 2.8 C 96 % 2.23 C
Sensor: Nr:Datum:Temp:Feuchte:Taupunkt:
Aussen-T/F 2126 13-02-2020 09:05:00 2.9 C 96 % 2.33 C
2127 13-02-2020 09:10:00 2.9 C 96 % 2.33 C
2128 13-02-2020 09:15:00 3 C 96 % 2.43 C
2129 13-02-2020 09:20:00 3.1 C 96 % 2.53 C
2130 13-02-2020 09:25:00 3.2 C 95 % 2.48 C
2131 13-02-2020 09:30:00 3.3 C 95 % 2.58 C
2132 13-02-2020 09:35:00 3.4 C 94 % 2.53 C
2133 13-02-2020 09:40:00 3.5 C 94 % 2.63 C
2134 13-02-2020 09:45:00 3.6 C 93 % 2.58 C
2135 13-02-2020 09:50:00 3.8 C 93 % 2.77 C
2136 13-02-2020 09:55:00 3.9 C 92 % 2.72 C
2137 13-02-2020 10:00:00 4 C 92 % 2.82 C
2138 13-02-2020 10:05:00 4.1 C 91 % 2.77 C
2139 13-02-2020 10:10:00 4.2 C 91 % 2.87 C
2140 13-02-2020 10:15:00 4.3 C 90 % 2.81 C
2141 13-02-2020 10:20:00 4.4 C 89 % 2.75 C
2142 13-02-2020 10:25:00 4.5 C 89 % 2.85 C
2143 13-02-2020 10:30:00 4.6 C 87 % 2.63 C
2144 13-02-2020 10:35:00 4.8 C 86 % 2.66 C
2145 13-02-2020 10:40:00 4.9 C 85 % 2.6 C
2146 13-02-2020 10:45:00 5.1 C 85 % 2.79 C
2147 13-02-2020 10:50:00 5.2 C 85 % 2.89 C
2148 13-02-2020 10:55:00 5.3 C 84 % 2.82 C
2149 13-02-2020 11:00:00 5.3 C 84 % 2.82 C
2150 13-02-2020 11:05:00 5.4 C 83 % 2.75 C
Sensor: Nr:Datum:Temp:Feuchte:Taupunkt:
Aussen-T/F 2151 13-02-2020 11:10:00 5.6 C 83 % 2.95 C
2152 13-02-2020 11:15:00 5.7 C 82 % 2.87 C
2153 13-02-2020 11:20:00 5.8 C 81 % 2.8 C
2154 13-02-2020 11:25:00 5.9 C 81 % 2.9 C
2155 13-02-2020 11:30:00 6.1 C 79 % 2.74 C
2156 13-02-2020 11:35:00 6.3 C 79 % 2.93 C
2157 13-02-2020 11:40:00 6.4 C 78 % 2.85 C
2158 13-02-2020 11:45:00 6.4 C 77 % 2.67 C
2159 13-02-2020 11:50:00 6.5 C 77 % 2.77 C
2160 13-02-2020 11:55:00 6.6 C 77 % 2.86 C
2161 13-02-2020 12:00:00 6.7 C 77 % 2.96 C
2162 13-02-2020 12:05:00 6.8 C 77 % 3.06 C
2163 13-02-2020 12:10:00 6.8 C 78 % 3.24 C
2164 13-02-2020 12:15:00 6.7 C 80 % 3.5 C
2165 13-02-2020 12:20:00 6.4 C 81 % 3.38 C
2166 13-02-2020 12:25:00 6.3 C 82 % 3.46 C
2167 13-02-2020 12:30:00 6.2 C 82 % 3.36 C
2168 13-02-2020 12:35:00 6.1 C 83 % 3.44 C
2169 13-02-2020 12:40:00 6 C 84 % 3.51 C
2170 13-02-2020 12:45:00 5.9 C 85 % 3.58 C
2171 13-02-2020 12:50:00 5.8 C 86 % 3.64 C
2172 13-02-2020 12:55:00 5.8 C 87 % 3.81 C
2173 13-02-2020 13:00:00 5.7 C 88 % 3.87 C
2174 13-02-2020 13:05:00 5.6 C 88 % 3.77 C
2175 13-02-2020 13:10:00 5.5 C 89 % 3.84 C
Sensor: Nr:Datum:Temp:Feuchte:Taupunkt:
Aussen-T/F 2176 13-02-2020 13:15:00 5.4 C 89 % 3.74 C
2177 13-02-2020 13:20:00 5.4 C 90 % 3.89 C
2178 13-02-2020 13:25:00 5.3 C 90 % 3.8 C
2179 13-02-2020 13:30:00 5.4 C 91 % 4.05 C
2180 13-02-2020 13:35:00 5.3 C 91 % 3.95 C
2181 13-02-2020 13:40:00 5.3 C 91 % 3.95 C
2182 13-02-2020 13:45:00 5.3 C 91 % 3.95 C
2183 13-02-2020 13:50:00 5.3 C 92 % 4.11 C
2184 13-02-2020 13:55:00 5.3 C 92 % 4.11 C
2185 13-02-2020 14:00:00 5.4 C 92 % 4.21 C
2186 13-02-2020 14:05:00 5.4 C 92 % 4.21 C
2187 13-02-2020 14:10:00 5.3 C 91 % 3.95 C
2188 13-02-2020 14:15:00 5.2 C 92 % 4.01 C
2189 13-02-2020 14:20:00 5.2 C 92 % 4.01 C
2190 13-02-2020 14:25:00 5.2 C 93 % 4.16 C
2191 13-02-2020 14:30:00 5.3 C 93 % 4.26 C
2192 13-02-2020 14:35:00 5.4 C 93 % 4.36 C
2193 13-02-2020 14:40:00 5.4 C 93 % 4.36 C
2194 13-02-2020 14:45:00 5.4 C 93 % 4.36 C
2195 13-02-2020 14:50:00 5.5 C 93 % 4.46 C
2196 13-02-2020 14:55:00 5.6 C 93 % 4.56 C
2197 13-02-2020 15:00:00 5.6 C 93 % 4.56 C
2198 13-02-2020 15:05:00 5.5 C 93 % 4.46 C
2199 13-02-2020 15:10:00 5.6 C 94 % 4.71 C
2200 13-02-2020 15:15:00 5.6 C 94 % 4.71 C
Sensor: Nr:Datum:Temp:Feuchte:Taupunkt:
Aussen-T/F 2201 13-02-2020 15:20:00 5.7 C 94 % 4.81 C
2202 13-02-2020 15:25:00 5.8 C 94 % 4.91 C
2203 13-02-2020 15:30:00 5.8 C 95 % 5.06 C
2204 13-02-2020 15:35:00 5.9 C 95 % 5.16 C
2205 13-02-2020 15:40:00 5.9 C 95 % 5.16 C
2206 13-02-2020 15:45:00 6 C 95 % 5.26 C
2207 13-02-2020 15:50:00 6.1 C 95 % 5.36 C
2208 13-02-2020 15:55:00 6.2 C 95 % 5.46 C
2209 13-02-2020 16:00:00 6.3 C 95 % 5.56 C
2210 13-02-2020 16:05:00 6.3 C 95 % 5.56 C
2211 13-02-2020 16:10:00 6.3 C 94 % 5.41 C
2212 13-02-2020 16:15:00 6.4 C 94 % 5.51 C
2213 13-02-2020 16:20:00 6.6 C 95 % 5.86 C
2214 13-02-2020 16:25:00 6.7 C 94 % 5.8 C
2215 13-02-2020 16:30:00 6.7 C 94 % 5.8 C
2216 13-02-2020 16:35:00 6.8 C 94 % 5.9 C
2217 13-02-2020 16:40:00 6.8 C 94 % 5.9 C
2218 13-02-2020 16:45:00 6.8 C 94 % 5.9 C
2219 13-02-2020 16:50:00 6.7 C 94 % 5.8 C
2220 13-02-2020 16:55:00 6.7 C 94 % 5.8 C
2221 13-02-2020 17:00:00 6.6 C 94 % 5.71 C
2222 13-02-2020 17:05:00 6.6 C 94 % 5.71 C
2223 13-02-2020 17:10:00 6.6 C 94 % 5.71 C
2224 13-02-2020 17:15:00 6.5 C 94 % 5.61 C
2225 13-02-2020 17:20:00 6.4 C 94 % 5.51 C
Sensor: Nr:Datum:Temp:Feuchte:Taupunkt:
Aussen-T/F 2226 13-02-2020 17:25:00 6.4 C 94 % 5.51 C
2227 13-02-2020 17:30:00 6.4 C 94 % 5.51 C
2228 13-02-2020 17:35:00 6.3 C 94 % 5.41 C
2229 13-02-2020 17:40:00 6.2 C 94 % 5.31 C
2230 13-02-2020 17:45:00 6.1 C 94 % 5.21 C
2231 13-02-2020 17:50:00 5.9 C 94 % 5.01 C
2232 13-02-2020 17:55:00 5.8 C 94 % 4.91 C
2233 13-02-2020 18:00:00 5.7 C 94 % 4.81 C
2234 13-02-2020 18:05:00 5.6 C 94 % 4.71 C
2235 13-02-2020 18:10:00 5.4 C 94 % 4.51 C
2236 13-02-2020 18:15:00 5.4 C 94 % 4.51 C
2237 13-02-2020 18:20:00 5.4 C 94 % 4.51 C
2238 13-02-2020 18:25:00 5.3 C 95 % 4.57 C
2239 13-02-2020 18:30:00 5.3 C 95 % 4.57 C
2240 13-02-2020 18:35:00 5.3 C 95 % 4.57 C
2241 13-02-2020 18:40:00 5.4 C 95 % 4.66 C
2242 13-02-2020 18:45:00 5.4 C 95 % 4.66 C
2243 13-02-2020 18:50:00 5.4 C 95 % 4.66 C
2244 13-02-2020 18:55:00 5.4 C 95 % 4.66 C
2245 13-02-2020 19:00:00 5.4 C 95 % 4.66 C
2246 13-02-2020 19:05:00 5.3 C 95 % 4.57 C
2247 13-02-2020 19:10:00 5.3 C 95 % 4.57 C
2248 13-02-2020 19:15:00 5.3 C 95 % 4.57 C
2249 13-02-2020 19:20:00 5.3 C 95 % 4.57 C
2250 13-02-2020 19:25:00 5.2 C 95 % 4.47 C
Sensor: Nr:Datum:Temp:Feuchte:Taupunkt:
Aussen-T/F 2251 13-02-2020 19:30:00 5.2 C 95 % 4.47 C
2252 13-02-2020 19:35:00 5.1 C 95 % 4.37 C
2253 13-02-2020 19:40:00 5.1 C 95 % 4.37 C
2254 13-02-2020 19:45:00 5.1 C 95 % 4.37 C
2255 13-02-2020 19:50:00 5.1 C 95 % 4.37 C
2256 13-02-2020 19:55:00 5.2 C 95 % 4.47 C
2257 13-02-2020 20:00:00 5.2 C 95 % 4.47 C
2258 13-02-2020 20:05:00 5.3 C 95 % 4.57 C
2259 13-02-2020 20:10:00 5.3 C 95 % 4.57 C
2260 13-02-2020 20:15:00 5.3 C 95 % 4.57 C
2261 13-02-2020 20:20:00 5.4 C 95 % 4.66 C
2262 13-02-2020 20:25:00 5.4 C 95 % 4.66 C
2263 13-02-2020 20:30:00 5.4 C 95 % 4.66 C
2264 13-02-2020 20:35:00 5.4 C 95 % 4.66 C
2265 13-02-2020 20:40:00 5.4 C 96 % 4.81 C
2266 13-02-2020 20:45:00 5.4 C 96 % 4.81 C
2267 13-02-2020 20:50:00 5.5 C 96 % 4.91 C
2268 13-02-2020 20:55:00 5.5 C 96 % 4.91 C
2269 13-02-2020 21:00:00 5.6 C 96 % 5.01 C
2270 13-02-2020 21:05:00 5.6 C 96 % 5.01 C
2271 13-02-2020 21:10:00 5.6 C 96 % 5.01 C
2272 13-02-2020 21:15:00 5.6 C 96 % 5.01 C
2273 13-02-2020 21:20:00 5.7 C 96 % 5.11 C
2274 13-02-2020 21:25:00 5.6 C 96 % 5.01 C
2275 13-02-2020 21:30:00 5.6 C 96 % 5.01 C
Sensor: Nr:Datum:Temp:Feuchte:Taupunkt:
Aussen-T/F 2276 13-02-2020 21:35:00 5.6 C 96 % 5.01 C
2277 13-02-2020 21:40:00 5.7 C 96 % 5.11 C
2278 13-02-2020 21:45:00 5.6 C 96 % 5.01 C
2279 13-02-2020 21:50:00 5.7 C 96 % 5.11 C
2280 13-02-2020 21:55:00 5.7 C 96 % 5.11 C
2281 13-02-2020 22:00:00 5.8 C 96 % 5.21 C
2282 13-02-2020 22:05:00 5.9 C 96 % 5.31 C
2283 13-02-2020 22:10:00 6.2 C 97 % 5.76 C
2284 13-02-2020 22:15:00 6.3 C 97 % 5.86 C
2285 13-02-2020 22:20:00 6.4 C 97 % 5.96 C
2286 13-02-2020 22:25:00 6.4 C 96 % 5.81 C
2287 13-02-2020 22:30:00 6.5 C 96 % 5.91 C
2288 13-02-2020 22:35:00 6.6 C 96 % 6.01 C
2289 13-02-2020 22:40:00 6.7 C 96 % 6.11 C
2290 13-02-2020 22:45:00 6.7 C 96 % 6.11 C
2291 13-02-2020 22:50:00 6.8 C 95 % 6.06 C
2292 13-02-2020 22:55:00 6.9 C 95 % 6.16 C
2293 13-02-2020 23:00:00 6.9 C 94 % 6 C
2294 13-02-2020 23:05:00 7 C 94 % 6.1 C
2295 13-02-2020 23:10:00 7 C 94 % 6.1 C
2296 13-02-2020 23:15:00 7 C 94 % 6.1 C
2297 13-02-2020 23:20:00 7 C 94 % 6.1 C
2298 13-02-2020 23:25:00 6.9 C 94 % 6 C
2299 13-02-2020 23:30:00 6.9 C 94 % 6 C
2300 13-02-2020 23:35:00 6.8 C 94 % 5.9 C
Sensor: Nr:Datum:Temp:Feuchte:Taupunkt:
Aussen-T/F 2301 13-02-2020 23:40:00 6.8 C 94 % 5.9 C
2302 13-02-2020 23:45:00 6.7 C 94 % 5.8 C
2303 13-02-2020 23:50:00 6.7 C 95 % 5.96 C
2304 13-02-2020 23:55:00 6.7 C 95 % 5.96 C
2305 14-02-2020 00:00:00 6.7 C 95 % 5.96 C
2306 14-02-2020 00:05:00 6.7 C 95 % 5.96 C
2307 14-02-2020 00:10:00 6.7 C 95 % 5.96 C
2308 14-02-2020 00:15:00 6.6 C 95 % 5.86 C
2309 14-02-2020 00:20:00 6.6 C 95 % 5.86 C
2310 14-02-2020 00:25:00 6.6 C 95 % 5.86 C
2311 14-02-2020 00:30:00 6.6 C 95 % 5.86 C
2312 14-02-2020 00:35:00 6.6 C 95 % 5.86 C
2313 14-02-2020 00:40:00 6.6 C 95 % 5.86 C
2314 14-02-2020 00:45:00 6.5 C 95 % 5.76 C
2315 14-02-2020 00:50:00 6.5 C 95 % 5.76 C
2316 14-02-2020 00:55:00 6.4 C 95 % 5.66 C
2317 14-02-2020 01:00:00 6.4 C 95 % 5.66 C
2318 14-02-2020 01:05:00 6.3 C 95 % 5.56 C
2319 14-02-2020 01:10:00 6.3 C 95 % 5.56 C
2320 14-02-2020 01:15:00 6.2 C 95 % 5.46 C
2321 14-02-2020 01:20:00 6.2 C 95 % 5.46 C
2322 14-02-2020 01:25:00 6.2 C 95 % 5.46 C
2323 14-02-2020 01:30:00 6.2 C 95 % 5.46 C
2324 14-02-2020 01:35:00 6.3 C 95 % 5.56 C
2325 14-02-2020 01:40:00 6.3 C 95 % 5.56 C
Sensor: Nr:Datum:Temp:Feuchte:Taupunkt:
Aussen-T/F 2326 14-02-2020 01:45:00 6.3 C 95 % 5.56 C
2327 14-02-2020 01:50:00 6.3 C 95 % 5.56 C
2328 14-02-2020 01:55:00 6.3 C 95 % 5.56 C
2329 14-02-2020 02:00:00 6.3 C 95 % 5.56 C
2330 14-02-2020 02:05:00 6.3 C 95 % 5.56 C
2331 14-02-2020 02:10:00 6.3 C 95 % 5.56 C
2332 14-02-2020 02:15:00 6.3 C 95 % 5.56 C
2333 14-02-2020 02:20:00 6.3 C 94 % 5.41 C
2334 14-02-2020 02:25:00 6.4 C 94 % 5.51 C
2335 14-02-2020 02:30:00 6.3 C 94 % 5.41 C
2336 14-02-2020 02:35:00 6.3 C 95 % 5.56 C
2337 14-02-2020 02:40:00 6.3 C 95 % 5.56 C
2338 14-02-2020 02:45:00 6.3 C 95 % 5.56 C
2339 14-02-2020 02:50:00 6.3 C 95 % 5.56 C
2340 14-02-2020 02:55:00 6.3 C 95 % 5.56 C
2341 14-02-2020 03:00:00 6.3 C 94 % 5.41 C
2342 14-02-2020 03:05:00 6.4 C 94 % 5.51 C
2343 14-02-2020 03:10:00 6.4 C 94 % 5.51 C
2344 14-02-2020 03:15:00 6.4 C 94 % 5.51 C
2345 14-02-2020 03:20:00 6.4 C 94 % 5.51 C
2346 14-02-2020 03:25:00 6.4 C 94 % 5.51 C
2347 14-02-2020 03:30:00 6.4 C 94 % 5.51 C
2348 14-02-2020 03:35:00 6.4 C 94 % 5.51 C
2349 14-02-2020 03:40:00 6.4 C 94 % 5.51 C
2350 14-02-2020 03:45:00 6.4 C 94 % 5.51 C
Sensor: Nr:Datum:Temp:Feuchte:Taupunkt:
Aussen-T/F 2351 14-02-2020 03:50:00 6.3 C 95 % 5.56 C
2352 14-02-2020 03:55:00 6.3 C 95 % 5.56 C
2353 14-02-2020 04:00:00 6.3 C 95 % 5.56 C
2354 14-02-2020 04:05:00 6.2 C 95 % 5.46 C
2355 14-02-2020 04:10:00 6.2 C 95 % 5.46 C
2356 14-02-2020 04:15:00 6 C 95 % 5.26 C
2357 14-02-2020 04:20:00 5.9 C 95 % 5.16 C
2358 14-02-2020 04:25:00 5.9 C 95 % 5.16 C
2359 14-02-2020 04:30:00 5.9 C 95 % 5.16 C
2360 14-02-2020 04:35:00 5.9 C 95 % 5.16 C
2361 14-02-2020 04:40:00 5.8 C 95 % 5.06 C
2362 14-02-2020 04:45:00 5.8 C 95 % 5.06 C
2363 14-02-2020 04:50:00 5.8 C 95 % 5.06 C
2364 14-02-2020 04:55:00 5.7 C 95 % 4.96 C
2365 14-02-2020 05:00:00 5.7 C 95 % 4.96 C
2366 14-02-2020 05:05:00 5.7 C 95 % 4.96 C
2367 14-02-2020 05:10:00 5.6 C 95 % 4.86 C
2368 14-02-2020 05:15:00 5.6 C 95 % 4.86 C
2369 14-02-2020 05:20:00 5.6 C 95 % 4.86 C
2370 14-02-2020 05:25:00 5.6 C 95 % 4.86 C
2371 14-02-2020 05:30:00 5.6 C 96 % 5.01 C
2372 14-02-2020 05:35:00 5.6 C 96 % 5.01 C
2373 14-02-2020 05:40:00 5.7 C 96 % 5.11 C
2374 14-02-2020 05:45:00 5.7 C 96 % 5.11 C
2375 14-02-2020 05:50:00 5.7 C 96 % 5.11 C
Sensor: Nr:Datum:Temp:Feuchte:Taupunkt:
Aussen-T/F 2376 14-02-2020 05:55:00 5.7 C 96 % 5.11 C
2377 14-02-2020 06:00:00 5.7 C 96 % 5.11 C
2378 14-02-2020 06:05:00 5.7 C 96 % 5.11 C
2379 14-02-2020 06:10:00 5.7 C 96 % 5.11 C
2380 14-02-2020 06:15:00 5.7 C 96 % 5.11 C
2381 14-02-2020 06:20:00 5.7 C 96 % 5.11 C
2382 14-02-2020 06:25:00 5.6 C 96 % 5.01 C
2383 14-02-2020 06:30:00 5.6 C 96 % 5.01 C
2384 14-02-2020 06:35:00 5.6 C 96 % 5.01 C
2385 14-02-2020 06:40:00 5.6 C 96 % 5.01 C
2386 14-02-2020 06:45:00 5.6 C 96 % 5.01 C
2387 14-02-2020 06:50:00 5.6 C 96 % 5.01 C
2388 14-02-2020 06:55:00 5.6 C 96 % 5.01 C
2389 14-02-2020 07:00:00 5.6 C 96 % 5.01 C
2390 14-02-2020 07:05:00 5.6 C 96 % 5.01 C
2391 14-02-2020 07:10:00 5.6 C 96 % 5.01 C
2392 14-02-2020 07:15:00 5.6 C 96 % 5.01 C
2393 14-02-2020 07:20:00 5.6 C 96 % 5.01 C
2394 14-02-2020 07:25:00 5.5 C 96 % 4.91 C
2395 14-02-2020 07:30:00 5.4 C 96 % 4.81 C
2396 14-02-2020 07:35:00 5.4 C 96 % 4.81 C
2397 14-02-2020 07:40:00 5.4 C 96 % 4.81 C
2398 14-02-2020 07:45:00 5.4 C 96 % 4.81 C
2399 14-02-2020 07:50:00 5.4 C 96 % 4.81 C
2400 14-02-2020 07:55:00 5.4 C 96 % 4.81 C
Sensor: Nr:Datum:Temp:Feuchte:Taupunkt:
Aussen-T/F 2401 14-02-2020 08:00:00 5.4 C 96 % 4.81 C
2402 14-02-2020 08:05:00 5.3 C 96 % 4.72 C
2403 14-02-2020 08:10:00 5.3 C 96 % 4.72 C
2404 14-02-2020 08:15:00 5.3 C 96 % 4.72 C
2405 14-02-2020 08:20:00 5.3 C 96 % 4.72 C
2406 14-02-2020 08:25:00 5.3 C 96 % 4.72 C
2407 14-02-2020 08:30:00 5.3 C 96 % 4.72 C
2408 14-02-2020 08:35:00 5.3 C 96 % 4.72 C
2409 14-02-2020 08:40:00 5.3 C 96 % 4.72 C
2410 14-02-2020 08:45:00 5.3 C 96 % 4.72 C
2411 14-02-2020 08:50:00 5.3 C 96 % 4.72 C
2412 14-02-2020 08:55:00 5.4 C 96 % 4.81 C
2413 14-02-2020 09:00:00 5.5 C 96 % 4.91 C
2414 14-02-2020 09:05:00 5.6 C 96 % 5.01 C
2415 14-02-2020 09:10:00 5.6 C 96 % 5.01 C
2416 14-02-2020 09:15:00 5.7 C 95 % 4.96 C
2417 14-02-2020 09:20:00 5.7 C 95 % 4.96 C
2418 14-02-2020 09:25:00 5.8 C 94 % 4.91 C
2419 14-02-2020 09:30:00 5.8 C 94 % 4.91 C
2420 14-02-2020 09:35:00 5.9 C 94 % 5.01 C
2421 14-02-2020 09:40:00 6 C 93 % 4.96 C
2422 14-02-2020 09:45:00 6 C 92 % 4.8 C
2423 14-02-2020 09:50:00 6.1 C 92 % 4.9 C
2424 14-02-2020 09:55:00 6.1 C 92 % 4.9 C
2425 14-02-2020 10:00:00 6.1 C 92 % 4.9 C
Sensor: Nr:Datum:Temp:Feuchte:Taupunkt:
Aussen-T/F 2426 14-02-2020 10:05:00 6.1 C 91 % 4.74 C
2427 14-02-2020 10:10:00 6.1 C 91 % 4.74 C
2428 14-02-2020 10:15:00 6.2 C 92 % 5 C
2429 14-02-2020 10:20:00 6.2 C 92 % 5 C
2430 14-02-2020 10:25:00 6.2 C 91 % 4.84 C
2431 14-02-2020 10:30:00 6.2 C 92 % 5 C
2432 14-02-2020 10:35:00 6.2 C 92 % 5 C
2433 14-02-2020 10:40:00 6.2 C 92 % 5 C
2434 14-02-2020 10:45:00 6.2 C 91 % 4.84 C
2435 14-02-2020 10:50:00 6.2 C 90 % 4.69 C
2436 14-02-2020 10:55:00 6.3 C 90 % 4.78 C
2437 14-02-2020 11:00:00 6.4 C 90 % 4.88 C
2438 14-02-2020 11:05:00 6.5 C 90 % 4.98 C
2439 14-02-2020 11:10:00 6.6 C 90 % 5.08 C
2440 14-02-2020 11:15:00 6.7 C 90 % 5.18 C
2441 14-02-2020 11:20:00 6.7 C 90 % 5.18 C
2442 14-02-2020 11:25:00 6.7 C 89 % 5.02 C
2443 14-02-2020 11:30:00 6.7 C 90 % 5.18 C
2444 14-02-2020 11:35:00 6.8 C 90 % 5.28 C
2445 14-02-2020 11:40:00 6.8 C 89 % 5.12 C
2446 14-02-2020 11:45:00 6.8 C 90 % 5.28 C
2447 14-02-2020 11:50:00 6.8 C 89 % 5.12 C
2448 14-02-2020 11:55:00 6.8 C 89 % 5.12 C
2449 14-02-2020 12:00:00 6.9 C 90 % 5.38 C
2450 14-02-2020 12:05:00 7 C 90 % 5.48 C
Sensor: Nr:Datum:Temp:Feuchte:Taupunkt:
Aussen-T/F 2451 14-02-2020 12:10:00 7.1 C 89 % 5.41 C
2452 14-02-2020 12:15:00 7.1 C 89 % 5.41 C
2453 14-02-2020 12:20:00 7.1 C 88 % 5.25 C
2454 14-02-2020 12:25:00 7.2 C 87 % 5.19 C
2455 14-02-2020 12:30:00 7.2 C 87 % 5.19 C
2456 14-02-2020 12:35:00 7.3 C 87 % 5.28 C
2457 14-02-2020 12:40:00 7.3 C 86 % 5.12 C
2458 14-02-2020 12:45:00 7.4 C 86 % 5.22 C
2459 14-02-2020 12:50:00 7.4 C 86 % 5.22 C
2460 14-02-2020 12:55:00 7.6 C 85 % 5.24 C
2461 14-02-2020 13:00:00 7.6 C 86 % 5.41 C
2462 14-02-2020 13:05:00 7.6 C 85 % 5.24 C
2463 14-02-2020 13:10:00 7.6 C 84 % 5.07 C
2464 14-02-2020 13:15:00 7.7 C 83 % 5 C
2465 14-02-2020 13:20:00 7.7 C 84 % 5.17 C
2466 14-02-2020 13:25:00 7.7 C 83 % 5 C
2467 14-02-2020 13:30:00 7.7 C 83 % 5 C
2468 14-02-2020 13:35:00 7.7 C 83 % 5 C
2469 14-02-2020 13:40:00 7.8 C 83 % 5.1 C
2470 14-02-2020 13:45:00 7.8 C 82 % 4.92 C
2471 14-02-2020 13:50:00 7.8 C 82 % 4.92 C
2472 14-02-2020 13:55:00 7.9 C 83 % 5.2 C
2473 14-02-2020 14:00:00 7.9 C 82 % 5.02 C
2474 14-02-2020 14:05:00 8 C 82 % 5.12 C
2475 14-02-2020 14:10:00 8.1 C 82 % 5.22 C
Sensor: Nr:Datum:Temp:Feuchte:Taupunkt:
Aussen-T/F 2476 14-02-2020 14:15:00 8.1 C 82 % 5.22 C
2477 14-02-2020 14:20:00 8.1 C 81 % 5.04 C
2478 14-02-2020 14:25:00 8.2 C 83 % 5.49 C
2479 14-02-2020 14:30:00 8.2 C 81 % 5.14 C
2480 14-02-2020 14:35:00 8.2 C 81 % 5.14 C
2481 14-02-2020 14:40:00 8.3 C 80 % 5.06 C
2482 14-02-2020 14:45:00 8.3 C 81 % 5.24 C
2483 14-02-2020 14:50:00 8.3 C 81 % 5.24 C
2484 14-02-2020 14:55:00 8.3 C 79 % 4.88 C
2485 14-02-2020 15:00:00 8.3 C 79 % 4.88 C
2486 14-02-2020 15:05:00 8.3 C 79 % 4.88 C
2487 14-02-2020 15:10:00 8.2 C 79 % 4.78 C
2488 14-02-2020 15:15:00 8.2 C 78 % 4.6 C
2489 14-02-2020 15:20:00 8.2 C 78 % 4.6 C
2490 14-02-2020 15:25:00 8.2 C 78 % 4.6 C
2491 14-02-2020 15:30:00 8.2 C 78 % 4.6 C
2492 14-02-2020 15:35:00 8.2 C 78 % 4.6 C
2493 14-02-2020 15:40:00 8.3 C 78 % 4.7 C
2494 14-02-2020 15:45:00 8.3 C 78 % 4.7 C
2495 14-02-2020 15:50:00 8.3 C 78 % 4.7 C
2496 14-02-2020 15:55:00 8.3 C 79 % 4.88 C
2497 14-02-2020 16:00:00 8.3 C 79 % 4.88 C
2498 14-02-2020 16:05:00 8.4 C 78 % 4.79 C
2499 14-02-2020 16:10:00 8.4 C 78 % 4.79 C
2500 14-02-2020 16:15:00 8.4 C 79 % 4.98 C
Sensor: Nr:Datum:Temp:Feuchte:Taupunkt:
Aussen-T/F 2501 14-02-2020 16:20:00 8.4 C 79 % 4.98 C
2502 14-02-2020 16:25:00 8.4 C 80 % 5.16 C
2503 14-02-2020 16:30:00 8.4 C 81 % 5.33 C
2504 14-02-2020 16:35:00 8.4 C 80 % 5.16 C
2505 14-02-2020 16:40:00 8.4 C 82 % 5.51 C
2506 14-02-2020 16:45:00 8.4 C 83 % 5.69 C
2507 14-02-2020 16:50:00 8.4 C 83 % 5.69 C
2508 14-02-2020 16:55:00 8.4 C 84 % 5.86 C
2509 14-02-2020 17:00:00 8.3 C 85 % 5.93 C
2510 14-02-2020 17:05:00 8.2 C 85 % 5.83 C
2511 14-02-2020 17:10:00 8.2 C 85 % 5.83 C
2512 14-02-2020 17:15:00 8 C 86 % 5.81 C
2513 14-02-2020 17:20:00 7.9 C 86 % 5.71 C
2514 14-02-2020 17:25:00 7.8 C 87 % 5.78 C
2515 14-02-2020 17:30:00 7.7 C 87 % 5.68 C
2516 14-02-2020 17:35:00 7.6 C 87 % 5.58 C
2517 14-02-2020 17:40:00 7.4 C 88 % 5.55 C
2518 14-02-2020 17:45:00 7.3 C 88 % 5.45 C
2519 14-02-2020 17:50:00 7.2 C 88 % 5.35 C
2520 14-02-2020 17:55:00 7.1 C 89 % 5.41 C
2521 14-02-2020 18:00:00 7 C 89 % 5.31 C
2522 14-02-2020 18:05:00 6.9 C 89 % 5.22 C
2523 14-02-2020 18:10:00 6.9 C 90 % 5.38 C
2524 14-02-2020 18:15:00 6.9 C 90 % 5.38 C
2525 14-02-2020 18:20:00 6.8 C 90 % 5.28 C
Sensor: Nr:Datum:Temp:Feuchte:Taupunkt:
Aussen-T/F 2526 14-02-2020 18:25:00 6.8 C 90 % 5.28 C
2527 14-02-2020 18:30:00 6.8 C 90 % 5.28 C
2528 14-02-2020 18:35:00 6.7 C 90 % 5.18 C
2529 14-02-2020 18:40:00 6.7 C 90 % 5.18 C
2530 14-02-2020 18:45:00 6.7 C 91 % 5.34 C
2531 14-02-2020 18:50:00 6.7 C 91 % 5.34 C
2532 14-02-2020 18:55:00 6.7 C 91 % 5.34 C
2533 14-02-2020 19:00:00 6.7 C 91 % 5.34 C
2534 14-02-2020 19:05:00 6.6 C 90 % 5.08 C
2535 14-02-2020 19:10:00 6.4 C 90 % 4.88 C
2536 14-02-2020 19:15:00 6.3 C 90 % 4.78 C
2537 14-02-2020 19:20:00 6.2 C 90 % 4.69 C
2538 14-02-2020 19:25:00 6.1 C 90 % 4.59 C
2539 14-02-2020 19:30:00 5.9 C 90 % 4.39 C
2540 14-02-2020 19:35:00 5.8 C 90 % 4.29 C
2541 14-02-2020 19:40:00 5.6 C 90 % 4.09 C
2542 14-02-2020 19:45:00 5.4 C 91 % 4.05 C
2543 14-02-2020 19:50:00 5.4 C 91 % 4.05 C
2544 14-02-2020 19:55:00 5.3 C 91 % 3.95 C
2545 14-02-2020 20:00:00 5.2 C 91 % 3.85 C
2546 14-02-2020 20:05:00 5.2 C 92 % 4.01 C
2547 14-02-2020 20:10:00 5.1 C 92 % 3.91 C
2548 14-02-2020 20:15:00 5.1 C 92 % 3.91 C
2549 14-02-2020 20:20:00 5.1 C 92 % 3.91 C
2550 14-02-2020 20:25:00 5 C 93 % 3.96 C
Sensor: Nr:Datum:Temp:Feuchte:Taupunkt:
Aussen-T/F 2551 14-02-2020 20:30:00 4.8 C 92 % 3.61 C
2552 14-02-2020 20:35:00 4.8 C 93 % 3.77 C
2553 14-02-2020 20:40:00 4.8 C 93 % 3.77 C
2554 14-02-2020 20:45:00 4.7 C 93 % 3.67 C
2555 14-02-2020 20:50:00 4.6 C 93 % 3.57 C
2556 14-02-2020 20:55:00 4.6 C 93 % 3.57 C
2557 14-02-2020 21:00:00 4.6 C 94 % 3.72 C
2558 14-02-2020 21:05:00 4.5 C 93 % 3.47 C
2559 14-02-2020 21:10:00 4.5 C 94 % 3.62 C
2560 14-02-2020 21:15:00 4.4 C 94 % 3.52 C
2561 14-02-2020 21:20:00 4.4 C 94 % 3.52 C
2562 14-02-2020 21:25:00 4.3 C 94 % 3.42 C
2563 14-02-2020 21:30:00 4.3 C 94 % 3.42 C
2564 14-02-2020 21:35:00 4.2 C 94 % 3.32 C
2565 14-02-2020 21:40:00 4.1 C 94 % 3.22 C
2566 14-02-2020 21:45:00 3.9 C 94 % 3.02 C
2567 14-02-2020 21:50:00 3.8 C 94 % 2.93 C
2568 14-02-2020 21:55:00 3.8 C 94 % 2.93 C
2569 14-02-2020 22:00:00 3.7 C 94 % 2.83 C
2570 14-02-2020 22:05:00 3.6 C 94 % 2.73 C
2571 14-02-2020 22:10:00 3.6 C 94 % 2.73 C
2572 14-02-2020 22:15:00 3.6 C 95 % 2.88 C
2573 14-02-2020 22:20:00 3.6 C 95 % 2.88 C
2574 14-02-2020 22:25:00 3.6 C 95 % 2.88 C
2575 14-02-2020 22:30:00 3.6 C 95 % 2.88 C
Sensor: Nr:Datum:Temp:Feuchte:Taupunkt:
Aussen-T/F 2576 14-02-2020 22:35:00 3.6 C 95 % 2.88 C
2577 14-02-2020 22:40:00 3.4 C 94 % 2.53 C
2578 14-02-2020 22:45:00 3.3 C 94 % 2.43 C
2579 14-02-2020 22:50:00 3.2 C 95 % 2.48 C
2580 14-02-2020 22:55:00 3.1 C 94 % 2.23 C
2581 14-02-2020 23:00:00 3.1 C 95 % 2.38 C
2582 14-02-2020 23:05:00 3.1 C 95 % 2.38 C
2583 14-02-2020 23:10:00 3.1 C 95 % 2.38 C
2584 14-02-2020 23:15:00 3.2 C 95 % 2.48 C
2585 14-02-2020 23:20:00 3.2 C 95 % 2.48 C
2586 14-02-2020 23:25:00 3.2 C 95 % 2.48 C
2587 14-02-2020 23:30:00 3.2 C 95 % 2.48 C
2588 14-02-2020 23:35:00 3.3 C 95 % 2.58 C
2589 14-02-2020 23:40:00 3.2 C 95 % 2.48 C
2590 14-02-2020 23:45:00 3.1 C 95 % 2.38 C
2591 14-02-2020 23:50:00 3 C 95 % 2.28 C
2592 14-02-2020 23:55:00 2.9 C 95 % 2.18 C
2593 15-02-2020 00:00:00 2.9 C 95 % 2.18 C
2594 15-02-2020 00:05:00 2.8 C 95 % 2.08 C
2595 15-02-2020 00:10:00 2.8 C 95 % 2.08 C
2596 15-02-2020 00:15:00 2.8 C 95 % 2.08 C
2597 15-02-2020 00:20:00 2.7 C 95 % 1.98 C
2598 15-02-2020 00:25:00 2.7 C 95 % 1.98 C
2599 15-02-2020 00:30:00 2.7 C 95 % 1.98 C
2600 15-02-2020 00:35:00 2.7 C 95 % 1.98 C
Sensor: Nr:Datum:Temp:Feuchte:Taupunkt:
Aussen-T/F 2601 15-02-2020 00:40:00 2.7 C 96 % 2.13 C
2602 15-02-2020 00:45:00 2.7 C 96 % 2.13 C
2603 15-02-2020 00:50:00 2.7 C 96 % 2.13 C
2604 15-02-2020 00:55:00 2.8 C 96 % 2.23 C
2605 15-02-2020 01:00:00 2.8 C 96 % 2.23 C
2606 15-02-2020 01:05:00 2.9 C 96 % 2.33 C
2607 15-02-2020 01:10:00 3 C 96 % 2.43 C
2608 15-02-2020 01:15:00 3.2 C 96 % 2.63 C
2609 15-02-2020 01:20:00 3.2 C 96 % 2.63 C
2610 15-02-2020 01:25:00 3.3 C 96 % 2.72 C
2611 15-02-2020 01:30:00 3.3 C 96 % 2.72 C
2612 15-02-2020 01:35:00 3.3 C 96 % 2.72 C
2613 15-02-2020 01:40:00 3.3 C 96 % 2.72 C
2614 15-02-2020 01:45:00 3.3 C 96 % 2.72 C
2615 15-02-2020 01:50:00 3.3 C 96 % 2.72 C
2616 15-02-2020 01:55:00 3.4 C 96 % 2.82 C
2617 15-02-2020 02:00:00 3.3 C 96 % 2.72 C
2618 15-02-2020 02:05:00 3.3 C 96 % 2.72 C
2619 15-02-2020 02:10:00 3.3 C 96 % 2.72 C
2620 15-02-2020 02:15:00 3.4 C 96 % 2.82 C
2621 15-02-2020 02:20:00 3.4 C 96 % 2.82 C
2622 15-02-2020 02:25:00 3.4 C 96 % 2.82 C
2623 15-02-2020 02:30:00 3.3 C 96 % 2.72 C
2624 15-02-2020 02:35:00 3.2 C 96 % 2.63 C
2625 15-02-2020 02:40:00 3.2 C 96 % 2.63 C
Sensor: Nr:Datum:Temp:Feuchte:Taupunkt:
Aussen-T/F 2626 15-02-2020 02:45:00 3.1 C 96 % 2.53 C
2627 15-02-2020 02:50:00 3.1 C 96 % 2.53 C
2628 15-02-2020 02:55:00 3.1 C 96 % 2.53 C
2629 15-02-2020 03:00:00 3 C 96 % 2.43 C
2630 15-02-2020 03:05:00 2.9 C 96 % 2.33 C
2631 15-02-2020 03:10:00 2.8 C 96 % 2.23 C
2632 15-02-2020 03:15:00 2.7 C 96 % 2.13 C
2633 15-02-2020 03:20:00 2.6 C 96 % 2.03 C
2634 15-02-2020 03:25:00 2.7 C 96 % 2.13 C
2635 15-02-2020 03:30:00 2.7 C 96 % 2.13 C
2636 15-02-2020 03:35:00 2.7 C 96 % 2.13 C
2637 15-02-2020 03:40:00 2.7 C 96 % 2.13 C
2638 15-02-2020 03:45:00 2.6 C 96 % 2.03 C
2639 15-02-2020 03:50:00 2.5 C 96 % 1.93 C
2640 15-02-2020 03:55:00 2.4 C 96 % 1.83 C
2641 15-02-2020 04:00:00 2.4 C 96 % 1.83 C
2642 15-02-2020 04:05:00 2.4 C 96 % 1.83 C
2643 15-02-2020 04:10:00 2.5 C 96 % 1.93 C
2644 15-02-2020 04:15:00 2.4 C 96 % 1.83 C
2645 15-02-2020 04:20:00 2.5 C 96 % 1.93 C
2646 15-02-2020 04:25:00 2.5 C 96 % 1.93 C
2647 15-02-2020 04:30:00 2.5 C 96 % 1.93 C
2648 15-02-2020 04:35:00 2.4 C 96 % 1.83 C
2649 15-02-2020 04:40:00 2.4 C 96 % 1.83 C
2650 15-02-2020 04:45:00 2.5 C 97 % 2.07 C
Sensor: Nr:Datum:Temp:Feuchte:Taupunkt:
Aussen-T/F 2651 15-02-2020 04:50:00 2.6 C 97 % 2.17 C
2652 15-02-2020 04:55:00 2.5 C 97 % 2.07 C
2653 15-02-2020 05:00:00 2.5 C 97 % 2.07 C
2654 15-02-2020 05:05:00 2.4 C 97 % 1.97 C
2655 15-02-2020 05:10:00 2.3 C 96 % 1.73 C
2656 15-02-2020 05:15:00 2.3 C 96 % 1.73 C
2657 15-02-2020 05:20:00 2.3 C 96 % 1.73 C
2658 15-02-2020 05:25:00 2.2 C 96 % 1.63 C
2659 15-02-2020 05:30:00 2.2 C 96 % 1.63 C
2660 15-02-2020 05:35:00 2.2 C 96 % 1.63 C
2661 15-02-2020 05:40:00 2.2 C 97 % 1.77 C
2662 15-02-2020 05:45:00 2.2 C 96 % 1.63 C
2663 15-02-2020 05:50:00 2.1 C 96 % 1.53 C
2664 15-02-2020 05:55:00 2.1 C 96 % 1.53 C
2665 15-02-2020 06:00:00 2 C 96 % 1.43 C
2666 15-02-2020 06:05:00 2 C 96 % 1.43 C
2667 15-02-2020 06:10:00 2 C 96 % 1.43 C
2668 15-02-2020 06:15:00 1.9 C 96 % 1.33 C
2669 15-02-2020 06:20:00 1.8 C 96 % 1.23 C
2670 15-02-2020 06:25:00 1.8 C 96 % 1.23 C
2671 15-02-2020 06:30:00 1.8 C 96 % 1.23 C
2672 15-02-2020 06:35:00 1.8 C 96 % 1.23 C
2673 15-02-2020 06:40:00 1.8 C 97 % 1.38 C
2674 15-02-2020 06:45:00 1.8 C 97 % 1.38 C
2675 15-02-2020 06:50:00 1.8 C 96 % 1.23 C
Sensor: Nr:Datum:Temp:Feuchte:Taupunkt:
Aussen-T/F 2676 15-02-2020 06:55:00 1.8 C 97 % 1.38 C
2677 15-02-2020 07:00:00 1.8 C 97 % 1.38 C
2678 15-02-2020 07:05:00 1.8 C 97 % 1.38 C
2679 15-02-2020 07:10:00 1.8 C 97 % 1.38 C
2680 15-02-2020 07:15:00 1.8 C 97 % 1.38 C
2681 15-02-2020 07:20:00 1.7 C 96 % 1.13 C
2682 15-02-2020 07:25:00 1.6 C 97 % 1.18 C
2683 15-02-2020 07:30:00 1.5 C 97 % 1.08 C
2684 15-02-2020 07:35:00 1.4 C 97 % 0.98 C
2685 15-02-2020 07:40:00 1.6 C 96 % 1.03 C
2686 15-02-2020 07:45:00 1.7 C 97 % 1.28 C
2687 15-02-2020 07:50:00 1.9 C 97 % 1.48 C
2688 15-02-2020 07:55:00 2.1 C 97 % 1.67 C
2689 15-02-2020 08:00:00 2.1 C 97 % 1.67 C
2690 15-02-2020 08:05:00 2.1 C 97 % 1.67 C
2691 15-02-2020 08:10:00 2 C 97 % 1.58 C
2692 15-02-2020 08:15:00 2 C 97 % 1.58 C
2693 15-02-2020 08:20:00 2.1 C 97 % 1.67 C
2694 15-02-2020 08:25:00 2.2 C 97 % 1.77 C
2695 15-02-2020 08:30:00 2.4 C 97 % 1.97 C
2696 15-02-2020 08:35:00 2.4 C 97 % 1.97 C
2697 15-02-2020 08:40:00 2.6 C 97 % 2.17 C
2698 15-02-2020 08:45:00 2.7 C 97 % 2.27 C
2699 15-02-2020 08:50:00 2.7 C 97 % 2.27 C
2700 15-02-2020 08:55:00 2.8 C 97 % 2.37 C
Sensor: Nr:Datum:Temp:Feuchte:Taupunkt:
Aussen-T/F 2701 15-02-2020 09:00:00 3.1 C 97 % 2.67 C
2702 15-02-2020 09:05:00 3.1 C 97 % 2.67 C
2703 15-02-2020 09:10:00 3.3 C 97 % 2.87 C
2704 15-02-2020 09:15:00 3.4 C 97 % 2.97 C
2705 15-02-2020 09:20:00 3.5 C 97 % 3.07 C
2706 15-02-2020 09:25:00 3.6 C 97 % 3.17 C
2707 15-02-2020 09:30:00 3.7 C 97 % 3.27 C
2708 15-02-2020 09:35:00 3.8 C 97 % 3.37 C
2709 15-02-2020 09:40:00 3.9 C 97 % 3.47 C
2710 15-02-2020 09:45:00 4.1 C 98 % 3.81 C
2711 15-02-2020 09:50:00 4.3 C 97 % 3.87 C
2712 15-02-2020 09:55:00 4.3 C 98 % 4.01 C
2713 15-02-2020 10:00:00 4.4 C 98 % 4.11 C
2714 15-02-2020 10:05:00 4.5 C 98 % 4.21 C
2715 15-02-2020 10:10:00 4.5 C 97 % 4.07 C
2716 15-02-2020 10:15:00 4.6 C 97 % 4.17 C
2717 15-02-2020 10:20:00 4.7 C 98 % 4.41 C
2718 15-02-2020 10:25:00 4.8 C 98 % 4.51 C
2719 15-02-2020 10:30:00 4.8 C 97 % 4.37 C
2720 15-02-2020 10:35:00 4.9 C 98 % 4.61 C
2721 15-02-2020 10:40:00 5.1 C 98 % 4.81 C
2722 15-02-2020 10:45:00 5.2 C 97 % 4.76 C
2723 15-02-2020 10:50:00 5.2 C 97 % 4.76 C
2724 15-02-2020 10:55:00 5.3 C 98 % 5.01 C
2725 15-02-2020 11:00:00 5.3 C 97 % 4.86 C
Sensor: Nr:Datum:Temp:Feuchte:Taupunkt:
Aussen-T/F 2726 15-02-2020 11:05:00 5.4 C 97 % 4.96 C
2727 15-02-2020 11:10:00 5.7 C 97 % 5.26 C
2728 15-02-2020 11:15:00 6 C 98 % 5.71 C
2729 15-02-2020 11:20:00 6.3 C 98 % 6.01 C
2730 15-02-2020 11:25:00 6.5 C 97 % 6.06 C
2731 15-02-2020 11:30:00 6.7 C 98 % 6.41 C
2732 15-02-2020 11:35:00 6.8 C 97 % 6.36 C
2733 15-02-2020 11:40:00 7.1 C 97 % 6.66 C
2734 15-02-2020 11:45:00 7.2 C 98 % 6.91 C
2735 15-02-2020 11:50:00 7.4 C 97 % 6.96 C
2736 15-02-2020 11:55:00 7.6 C 97 % 7.16 C
2737 15-02-2020 12:00:00 7.7 C 97 % 7.25 C
2738 15-02-2020 12:05:00 7.8 C 96 % 7.2 C
2739 15-02-2020 12:10:00 8 C 96 % 7.4 C
2740 15-02-2020 12:15:00 8.2 C 95 % 7.45 C
2741 15-02-2020 12:20:00 8.3 C 94 % 7.39 C
2742 15-02-2020 12:25:00 8.6 C 94 % 7.69 C
2743 15-02-2020 12:30:00 8.8 C 93 % 7.73 C
2744 15-02-2020 12:35:00 9.1 C 91 % 7.71 C
2745 15-02-2020 12:40:00 9.4 C 89 % 7.68 C
2746 15-02-2020 12:45:00 9.7 C 87 % 7.64 C
2747 15-02-2020 12:50:00 9.9 C 86 % 7.67 C
2748 15-02-2020 12:55:00 10.2 C 85 % 7.79 C
2749 15-02-2020 13:00:00 10.4 C 83 % 7.64 C
2750 15-02-2020 13:05:00 10.6 C 83 % 7.84 C
Sensor: Nr:Datum:Temp:Feuchte:Taupunkt:
Aussen-T/F 2751 15-02-2020 13:10:00 10.7 C 80 % 7.4 C
2752 15-02-2020 13:15:00 10.8 C 79 % 7.31 C
2753 15-02-2020 13:20:00 11 C 78 % 7.32 C
2754 15-02-2020 13:25:00 11.2 C 77 % 7.32 C
2755 15-02-2020 13:30:00 11.3 C 77 % 7.42 C
2756 15-02-2020 13:35:00 11.4 C 77 % 7.52 C
2757 15-02-2020 13:40:00 11.6 C 75 % 7.33 C
2758 15-02-2020 13:45:00 11.7 C 74 % 7.23 C
2759 15-02-2020 13:50:00 11.8 C 75 % 7.52 C
2760 15-02-2020 13:55:00 11.8 C 73 % 7.12 C
2761 15-02-2020 14:00:00 11.8 C 74 % 7.32 C
2762 15-02-2020 14:05:00 11.8 C 74 % 7.32 C
2763 15-02-2020 14:10:00 11.7 C 73 % 7.03 C
2764 15-02-2020 14:15:00 11.7 C 73 % 7.03 C
2765 15-02-2020 14:20:00 11.6 C 74 % 7.13 C
2766 15-02-2020 14:25:00 11.4 C 74 % 6.94 C
2767 15-02-2020 14:30:00 11.3 C 73 % 6.64 C
2768 15-02-2020 14:35:00 11.3 C 74 % 6.84 C
2769 15-02-2020 14:40:00 11.3 C 75 % 7.04 C
2770 15-02-2020 14:45:00 11.2 C 74 % 6.74 C
2771 15-02-2020 14:50:00 11.2 C 74 % 6.74 C
2772 15-02-2020 14:55:00 11.1 C 74 % 6.65 C
2773 15-02-2020 15:00:00 11.2 C 74 % 6.74 C
2774 15-02-2020 15:05:00 11.2 C 76 % 7.13 C
2775 15-02-2020 15:10:00 11.2 C 75 % 6.94 C
Sensor: Nr:Datum:Temp:Feuchte:Taupunkt:
Aussen-T/F 2776 15-02-2020 15:15:00 11.3 C 73 % 6.64 C
2777 15-02-2020 15:20:00 11.4 C 73 % 6.74 C
2778 15-02-2020 15:25:00 11.6 C 73 % 6.93 C
2779 15-02-2020 15:30:00 11.7 C 73 % 7.03 C
2780 15-02-2020 15:35:00 11.7 C 73 % 7.03 C
2781 15-02-2020 15:40:00 11.6 C 73 % 6.93 C
2782 15-02-2020 15:45:00 11.7 C 72 % 6.83 C
2783 15-02-2020 15:50:00 11.7 C 73 % 7.03 C
2784 15-02-2020 15:55:00 11.8 C 74 % 7.32 C
2785 15-02-2020 16:00:00 11.7 C 72 % 6.83 C
2786 15-02-2020 16:05:00 11.7 C 73 % 7.03 C
2787 15-02-2020 16:10:00 11.6 C 73 % 6.93 C
2788 15-02-2020 16:15:00 11.6 C 74 % 7.13 C
2789 15-02-2020 16:20:00 11.4 C 75 % 7.13 C
2790 15-02-2020 16:25:00 11.2 C 76 % 7.13 C
2791 15-02-2020 16:30:00 11.1 C 77 % 7.23 C
2792 15-02-2020 16:35:00 10.7 C 78 % 7.03 C
2793 15-02-2020 16:40:00 10.4 C 79 % 6.92 C
2794 15-02-2020 16:45:00 10.2 C 80 % 6.91 C
2795 15-02-2020 16:50:00 9.9 C 80 % 6.62 C
2796 15-02-2020 16:55:00 9.9 C 81 % 6.8 C
2797 15-02-2020 17:00:00 9.8 C 81 % 6.7 C
2798 15-02-2020 17:05:00 9.6 C 81 % 6.5 C
2799 15-02-2020 17:10:00 9.5 C 81 % 6.41 C
2800 15-02-2020 17:15:00 9.3 C 83 % 6.57 C
Sensor: Nr:Datum:Temp:Feuchte:Taupunkt:
Aussen-T/F 2801 15-02-2020 17:20:00 9.2 C 83 % 6.47 C
2802 15-02-2020 17:25:00 8.9 C 84 % 6.35 C
2803 15-02-2020 17:30:00 8.8 C 84 % 6.25 C
2804 15-02-2020 17:35:00 8.6 C 85 % 6.23 C
2805 15-02-2020 17:40:00 8.4 C 85 % 6.03 C
2806 15-02-2020 17:45:00 8.3 C 85 % 5.93 C
2807 15-02-2020 17:50:00 8.2 C 86 % 6 C
2808 15-02-2020 17:55:00 8.1 C 86 % 5.9 C
2809 15-02-2020 18:00:00 7.9 C 87 % 5.87 C
2810 15-02-2020 18:05:00 7.7 C 87 % 5.68 C
2811 15-02-2020 18:10:00 7.7 C 88 % 5.84 C
2812 15-02-2020 18:15:00 7.6 C 88 % 5.74 C
2813 15-02-2020 18:20:00 7.6 C 88 % 5.74 C
2814 15-02-2020 18:25:00 7.6 C 89 % 5.91 C
2815 15-02-2020 18:30:00 7.6 C 89 % 5.91 C
2816 15-02-2020 18:35:00 7.5 C 89 % 5.81 C
2817 15-02-2020 18:40:00 7.5 C 89 % 5.81 C
2818 15-02-2020 18:45:00 7.4 C 89 % 5.71 C
2819 15-02-2020 18:50:00 7.4 C 90 % 5.87 C
2820 15-02-2020 18:55:00 7.4 C 90 % 5.87 C
2821 15-02-2020 19:00:00 7.4 C 90 % 5.87 C
2822 15-02-2020 19:05:00 7.4 C 89 % 5.71 C
2823 15-02-2020 19:10:00 7.4 C 90 % 5.87 C
2824 15-02-2020 19:15:00 7.4 C 89 % 5.71 C
2825 15-02-2020 19:20:00 7.4 C 89 % 5.71 C
Sensor: Nr:Datum:Temp:Feuchte:Taupunkt:
Aussen-T/F 2826 15-02-2020 19:25:00 7.4 C 90 % 5.87 C
2827 15-02-2020 19:30:00 7.4 C 89 % 5.71 C
2828 15-02-2020 19:35:00 7.3 C 90 % 5.77 C
2829 15-02-2020 19:40:00 7.3 C 90 % 5.77 C
2830 15-02-2020 19:45:00 7.3 C 90 % 5.77 C
2831 15-02-2020 19:50:00 7.3 C 90 % 5.77 C
2832 15-02-2020 19:55:00 7.2 C 90 % 5.67 C
2833 15-02-2020 20:00:00 7.2 C 90 % 5.67 C
2834 15-02-2020 20:05:00 7.3 C 90 % 5.77 C
2835 15-02-2020 20:10:00 7.3 C 89 % 5.61 C
2836 15-02-2020 20:15:00 7.5 C 89 % 5.81 C
2837 15-02-2020 20:20:00 7.6 C 89 % 5.91 C
2838 15-02-2020 20:25:00 7.7 C 89 % 6 C
2839 15-02-2020 20:30:00 7.7 C 89 % 6 C
2840 15-02-2020 20:35:00 7.7 C 88 % 5.84 C
2841 15-02-2020 20:40:00 7.8 C 88 % 5.94 C
2842 15-02-2020 20:45:00 7.8 C 88 % 5.94 C
2843 15-02-2020 20:50:00 7.9 C 88 % 6.04 C
2844 15-02-2020 20:55:00 7.9 C 88 % 6.04 C
2845 15-02-2020 21:00:00 7.9 C 88 % 6.04 C
2846 15-02-2020 21:05:00 7.9 C 87 % 5.87 C
2847 15-02-2020 21:10:00 8 C 88 % 6.14 C
2848 15-02-2020 21:15:00 7.9 C 87 % 5.87 C
2849 15-02-2020 21:20:00 7.9 C 87 % 5.87 C
2850 15-02-2020 21:25:00 8 C 86 % 5.81 C
Sensor: Nr:Datum:Temp:Feuchte:Taupunkt:
Aussen-T/F 2851 15-02-2020 21:30:00 8.2 C 86 % 6 C
2852 15-02-2020 21:35:00 8.2 C 85 % 5.83 C
2853 15-02-2020 21:40:00 8.3 C 85 % 5.93 C
2854 15-02-2020 21:45:00 8.3 C 85 % 5.93 C
2855 15-02-2020 21:50:00 8.3 C 85 % 5.93 C
2856 15-02-2020 21:55:00 8.3 C 84 % 5.76 C
2857 15-02-2020 22:00:00 8.3 C 85 % 5.93 C
2858 15-02-2020 22:05:00 8.3 C 84 % 5.76 C
2859 15-02-2020 22:10:00 8.3 C 84 % 5.76 C
2860 15-02-2020 22:15:00 8.4 C 84 % 5.86 C
2861 15-02-2020 22:20:00 8.3 C 84 % 5.76 C
2862 15-02-2020 22:25:00 8.4 C 83 % 5.69 C
2863 15-02-2020 22:30:00 8.6 C 83 % 5.88 C
2864 15-02-2020 22:35:00 8.7 C 83 % 5.98 C
2865 15-02-2020 22:40:00 8.8 C 83 % 6.08 C
2866 15-02-2020 22:45:00 9.1 C 82 % 6.19 C
2867 15-02-2020 22:50:00 9.2 C 81 % 6.11 C
2868 15-02-2020 22:55:00 9.3 C 81 % 6.21 C
2869 15-02-2020 23:00:00 9.3 C 81 % 6.21 C
2870 15-02-2020 23:05:00 9.4 C 79 % 5.95 C
2871 15-02-2020 23:10:00 9.9 C 77 % 6.06 C
2872 15-02-2020 23:15:00 10.2 C 77 % 6.35 C
2873 15-02-2020 23:20:00 10.3 C 77 % 6.45 C
2874 15-02-2020 23:25:00 10.2 C 77 % 6.35 C
2875 15-02-2020 23:30:00 10.1 C 78 % 6.44 C
Sensor: Nr:Datum:Temp:Feuchte:Taupunkt:
Aussen-T/F 2876 15-02-2020 23:35:00 9.9 C 79 % 6.43 C
2877 15-02-2020 23:40:00 9.9 C 78 % 6.25 C
2878 15-02-2020 23:45:00 10.1 C 76 % 6.07 C
2879 15-02-2020 23:50:00 10.3 C 76 % 6.26 C
2880 15-02-2020 23:55:00 10.4 C 77 % 6.55 C
2881 16-02-2020 00:00:00 10.4 C 76 % 6.36 C
2882 16-02-2020 00:05:00 10.4 C 77 % 6.55 C
2883 16-02-2020 00:10:00 10.3 C 77 % 6.45 C
2884 16-02-2020 00:15:00 10.1 C 76 % 6.07 C
2885 16-02-2020 00:20:00 10.2 C 76 % 6.16 C
2886 16-02-2020 00:25:00 10.2 C 77 % 6.35 C
2887 16-02-2020 00:30:00 10.2 C 77 % 6.35 C
2888 16-02-2020 00:35:00 10.1 C 78 % 6.44 C
2889 16-02-2020 00:40:00 10.2 C 77 % 6.35 C
2890 16-02-2020 00:45:00 10.2 C 77 % 6.35 C
2891 16-02-2020 00:50:00 10.4 C 76 % 6.36 C
2892 16-02-2020 00:55:00 10.6 C 76 % 6.55 C
2893 16-02-2020 01:00:00 10.5 C 76 % 6.45 C
2894 16-02-2020 01:05:00 10.4 C 76 % 6.36 C
2895 16-02-2020 01:10:00 10.4 C 76 % 6.36 C
2896 16-02-2020 01:15:00 10.6 C 76 % 6.55 C
2897 16-02-2020 01:20:00 10.8 C 76 % 6.75 C
2898 16-02-2020 01:25:00 10.8 C 75 % 6.55 C
2899 16-02-2020 01:30:00 10.8 C 76 % 6.75 C
2900 16-02-2020 01:35:00 10.7 C 77 % 6.84 C
Sensor: Nr:Datum:Temp:Feuchte:Taupunkt:
Aussen-T/F 2901 16-02-2020 01:40:00 10.6 C 77 % 6.74 C
2902 16-02-2020 01:45:00 10.5 C 78 % 6.83 C
2903 16-02-2020 01:50:00 10.5 C 78 % 6.83 C
2904 16-02-2020 01:55:00 10.4 C 78 % 6.74 C
2905 16-02-2020 02:00:00 10.6 C 78 % 6.93 C
2906 16-02-2020 02:05:00 10.8 C 77 % 6.94 C
2907 16-02-2020 02:10:00 10.9 C 77 % 7.03 C
2908 16-02-2020 02:15:00 11.1 C 76 % 7.04 C
2909 16-02-2020 02:20:00 11.1 C 77 % 7.23 C
2910 16-02-2020 02:25:00 11.1 C 77 % 7.23 C
2911 16-02-2020 02:30:00 11.3 C 76 % 7.23 C
2912 16-02-2020 02:35:00 11.4 C 76 % 7.33 C
2913 16-02-2020 02:40:00 11.4 C 76 % 7.33 C
2914 16-02-2020 02:45:00 11.4 C 76 % 7.33 C
2915 16-02-2020 02:50:00 11.6 C 75 % 7.33 C
2916 16-02-2020 02:55:00 11.8 C 74 % 7.32 C
2917 16-02-2020 03:00:00 11.9 C 73 % 7.22 C
2918 16-02-2020 03:05:00 11.9 C 74 % 7.42 C
2919 16-02-2020 03:10:00 12 C 74 % 7.52 C
2920 16-02-2020 03:15:00 12.1 C 74 % 7.61 C
2921 16-02-2020 03:20:00 12.1 C 74 % 7.61 C
2922 16-02-2020 03:25:00 12.2 C 73 % 7.51 C
2923 16-02-2020 03:30:00 12.6 C 72 % 7.69 C
2924 16-02-2020 03:35:00 12.6 C 72 % 7.69 C
2925 16-02-2020 03:40:00 12.7 C 71 % 7.58 C
Sensor: Nr:Datum:Temp:Feuchte:Taupunkt:
Aussen-T/F 2926 16-02-2020 03:45:00 12.7 C 71 % 7.58 C
2927 16-02-2020 03:50:00 12.7 C 71 % 7.58 C
2928 16-02-2020 03:55:00 12.8 C 70 % 7.47 C
2929 16-02-2020 04:00:00 12.8 C 70 % 7.47 C
2930 16-02-2020 04:05:00 12.7 C 71 % 7.58 C
2931 16-02-2020 04:10:00 12.8 C 70 % 7.47 C
2932 16-02-2020 04:15:00 12.8 C 70 % 7.47 C
2933 16-02-2020 04:20:00 12.8 C 70 % 7.47 C
2934 16-02-2020 04:25:00 12.8 C 70 % 7.47 C
2935 16-02-2020 04:30:00 12.7 C 70 % 7.38 C
2936 16-02-2020 04:35:00 12.5 C 71 % 7.39 C
2937 16-02-2020 04:40:00 12.4 C 71 % 7.3 C
2938 16-02-2020 04:45:00 12.3 C 71 % 7.2 C
2939 16-02-2020 04:50:00 12.2 C 70 % 6.9 C
2940 16-02-2020 04:55:00 12.2 C 70 % 6.9 C
2941 16-02-2020 05:00:00 12.2 C 70 % 6.9 C
2942 16-02-2020 05:05:00 12.2 C 72 % 7.31 C
2943 16-02-2020 05:10:00 12.1 C 71 % 7.01 C
2944 16-02-2020 05:15:00 12.1 C 71 % 7.01 C
2945 16-02-2020 05:20:00 12.1 C 72 % 7.21 C
2946 16-02-2020 05:25:00 12 C 72 % 7.12 C
2947 16-02-2020 05:30:00 12.1 C 72 % 7.21 C
2948 16-02-2020 05:35:00 12.1 C 72 % 7.21 C
2949 16-02-2020 05:40:00 12.1 C 71 % 7.01 C
2950 16-02-2020 05:45:00 12.2 C 72 % 7.31 C
Sensor: Nr:Datum:Temp:Feuchte:Taupunkt:
Aussen-T/F 2951 16-02-2020 05:50:00 12.3 C 71 % 7.2 C
2952 16-02-2020 05:55:00 12.4 C 70 % 7.09 C
2953 16-02-2020 06:00:00 12.5 C 69 % 6.97 C
2954 16-02-2020 06:05:00 12.8 C 68 % 7.05 C
2955 16-02-2020 06:10:00 12.9 C 69 % 7.36 C
2956 16-02-2020 06:15:00 12.9 C 68 % 7.14 C
2957 16-02-2020 06:20:00 13 C 67 % 7.02 C
2958 16-02-2020 06:25:00 13.1 C 67 % 7.12 C
2959 16-02-2020 06:30:00 13.3 C 67 % 7.31 C
2960 16-02-2020 06:35:00 13.4 C 67 % 7.4 C
2961 16-02-2020 06:40:00 13.4 C 67 % 7.4 C
2962 16-02-2020 06:45:00 13.6 C 67 % 7.6 C
2963 16-02-2020 06:50:00 13.7 C 66 % 7.47 C
2964 16-02-2020 06:55:00 13.7 C 67 % 7.69 C
2965 16-02-2020 07:00:00 13.7 C 67 % 7.69 C
2966 16-02-2020 07:05:00 13.7 C 68 % 7.91 C
2967 16-02-2020 07:10:00 13.7 C 68 % 7.91 C
2968 16-02-2020 07:15:00 13.7 C 68 % 7.91 C
2969 16-02-2020 07:20:00 13.7 C 69 % 8.12 C
2970 16-02-2020 07:25:00 13.8 C 70 % 8.43 C
2971 16-02-2020 07:30:00 14 C 70 % 8.62 C
2972 16-02-2020 07:35:00 14.1 C 70 % 8.72 C
2973 16-02-2020 07:40:00 14.1 C 71 % 8.93 C
2974 16-02-2020 07:45:00 14.1 C 71 % 8.93 C
2975 16-02-2020 07:50:00 14.1 C 71 % 8.93 C
Sensor: Nr:Datum:Temp:Feuchte:Taupunkt:
Aussen-T/F 2976 16-02-2020 07:55:00 14.1 C 71 % 8.93 C
2977 16-02-2020 08:00:00 14 C 72 % 9.04 C
2978 16-02-2020 08:05:00 13.9 C 72 % 8.94 C
2979 16-02-2020 08:10:00 13.9 C 73 % 9.15 C
2980 16-02-2020 08:15:00 13.8 C 73 % 9.05 C
2981 16-02-2020 08:20:00 13.8 C 74 % 9.25 C
2982 16-02-2020 08:25:00 13.7 C 74 % 9.15 C
2983 16-02-2020 08:30:00 13.7 C 75 % 9.35 C
2984 16-02-2020 08:35:00 13.6 C 75 % 9.26 C
2985 16-02-2020 08:40:00 13.6 C 75 % 9.26 C
2986 16-02-2020 08:45:00 13.7 C 75 % 9.35 C
2987 16-02-2020 08:50:00 13.7 C 75 % 9.35 C
2988 16-02-2020 08:55:00 13.7 C 75 % 9.35 C
2989 16-02-2020 09:00:00 13.8 C 75 % 9.45 C
2990 16-02-2020 09:05:00 13.8 C 75 % 9.45 C
2991 16-02-2020 09:10:00 13.8 C 74 % 9.25 C
2992 16-02-2020 09:15:00 13.8 C 74 % 9.25 C
2993 16-02-2020 09:20:00 13.8 C 74 % 9.25 C
2994 16-02-2020 09:25:00 13.9 C 73 % 9.15 C
2995 16-02-2020 09:30:00 14 C 73 % 9.24 C
2996 16-02-2020 09:35:00 14.1 C 72 % 9.13 C
2997 16-02-2020 09:40:00 14.1 C 71 % 8.93 C
2998 16-02-2020 09:45:00 14.1 C 71 % 8.93 C
2999 16-02-2020 09:50:00 14.1 C 71 % 8.93 C
3000 16-02-2020 09:55:00 14.2 C 70 % 8.81 C
Sensor: Nr:Datum:Temp:Feuchte:Taupunkt:
Aussen-T/F 3001 16-02-2020 10:00:00 14.2 C 70 % 8.81 C
3002 16-02-2020 10:05:00 14.2 C 70 % 8.81 C
3003 16-02-2020 10:10:00 14.2 C 70 % 8.81 C
3004 16-02-2020 10:15:00 14.2 C 71 % 9.02 C
3005 16-02-2020 10:20:00 14.2 C 70 % 8.81 C
3006 16-02-2020 10:25:00 14.3 C 71 % 9.12 C
3007 16-02-2020 10:30:00 14.3 C 70 % 8.91 C
3008 16-02-2020 10:35:00 14.4 C 70 % 9 C
3009 16-02-2020 10:40:00 14.6 C 69 % 8.98 C
3010 16-02-2020 10:45:00 14.7 C 69 % 9.08 C
3011 16-02-2020 10:50:00 14.7 C 69 % 9.08 C
3012 16-02-2020 10:55:00 14.8 C 68 % 8.96 C
3013 16-02-2020 11:00:00 14.8 C 68 % 8.96 C
3014 16-02-2020 11:05:00 14.9 C 68 % 9.05 C
3015 16-02-2020 11:10:00 15.1 C 66 % 8.8 C
3016 16-02-2020 11:15:00 15.2 C 66 % 8.9 C
3017 16-02-2020 11:20:00 15.3 C 65 % 8.77 C
3018 16-02-2020 11:25:00 15.4 C 64 % 8.63 C
3019 16-02-2020 11:30:00 15.6 C 64 % 8.82 C
3020 16-02-2020 11:35:00 15.7 C 64 % 8.92 C
3021 16-02-2020 11:40:00 15.7 C 63 % 8.68 C
3022 16-02-2020 11:45:00 15.8 C 62 % 8.54 C
3023 16-02-2020 11:50:00 15.9 C 62 % 8.64 C
3024 16-02-2020 11:55:00 15.9 C 61 % 8.4 C
3025 16-02-2020 12:00:00 16 C 61 % 8.49 C
Sensor: Nr:Datum:Temp:Feuchte:Taupunkt:
Aussen-T/F 3026 16-02-2020 12:05:00 16.1 C 60 % 8.34 C
3027 16-02-2020 12:10:00 16.1 C 60 % 8.34 C
3028 16-02-2020 12:15:00 16.2 C 59 % 8.19 C
3029 16-02-2020 12:20:00 16.3 C 59 % 8.28 C
3030 16-02-2020 12:25:00 16.4 C 58 % 8.12 C
3031 16-02-2020 12:30:00 16.6 C 58 % 8.31 C
3032 16-02-2020 12:35:00 16.6 C 58 % 8.31 C
3033 16-02-2020 12:40:00 16.6 C 57 % 8.06 C
3034 16-02-2020 12:45:00 16.7 C 57 % 8.15 C
3035 16-02-2020 12:50:00 16.8 C 57 % 8.24 C
3036 16-02-2020 12:55:00 16.8 C 57 % 8.24 C
3037 16-02-2020 13:00:00 17 C 56 % 8.17 C
3038 16-02-2020 13:05:00 17.1 C 55 % 8 C
3039 16-02-2020 13:10:00 17.1 C 55 % 8 C
3040 16-02-2020 13:15:00 17 C 56 % 8.17 C
3041 16-02-2020 13:20:00 17 C 55 % 7.9 C
3042 16-02-2020 13:25:00 17 C 55 % 7.9 C
3043 16-02-2020 13:30:00 17 C 54 % 7.63 C
3044 16-02-2020 13:35:00 17.2 C 55 % 8.09 C
3045 16-02-2020 13:40:00 17.4 C 55 % 8.28 C
3046 16-02-2020 13:45:00 17.7 C 53 % 8.01 C
3047 16-02-2020 13:50:00 17.8 C 53 % 8.1 C
3048 16-02-2020 13:55:00 17.9 C 53 % 8.19 C
3049 16-02-2020 14:00:00 17.9 C 52 % 7.91 C
3050 16-02-2020 14:05:00 17.8 C 52 % 7.82 C
Sensor: Nr:Datum:Temp:Feuchte:Taupunkt:
Aussen-T/F 3051 16-02-2020 14:10:00 17.8 C 53 % 8.1 C
3052 16-02-2020 14:15:00 17.8 C 52 % 7.82 C
3053 16-02-2020 14:20:00 17.8 C 52 % 7.82 C
3054 16-02-2020 14:25:00 17.9 C 52 % 7.91 C
3055 16-02-2020 14:30:00 17.9 C 52 % 7.91 C
3056 16-02-2020 14:35:00 17.9 C 52 % 7.91 C
3057 16-02-2020 14:40:00 17.8 C 52 % 7.82 C
3058 16-02-2020 14:45:00 17.8 C 53 % 8.1 C
3059 16-02-2020 14:50:00 17.8 C 53 % 8.1 C
3060 16-02-2020 14:55:00 17.8 C 53 % 8.1 C
3061 16-02-2020 15:00:00 17.8 C 53 % 8.1 C
3062 16-02-2020 15:05:00 17.7 C 53 % 8.01 C
3063 16-02-2020 15:10:00 17.7 C 53 % 8.01 C
3064 16-02-2020 15:15:00 17.7 C 53 % 8.01 C
3065 16-02-2020 15:20:00 17.6 C 55 % 8.46 C
3066 16-02-2020 15:25:00 17.6 C 54 % 8.19 C
3067 16-02-2020 15:30:00 17.6 C 53 % 7.92 C
3068 16-02-2020 15:35:00 17.6 C 54 % 8.19 C
3069 16-02-2020 15:40:00 17.6 C 53 % 7.92 C
3070 16-02-2020 15:45:00 17.7 C 54 % 8.28 C
3071 16-02-2020 15:50:00 17.8 C 53 % 8.1 C
3072 16-02-2020 15:55:00 17.9 C 52 % 7.91 C
3073 16-02-2020 16:00:00 18 C 51 % 7.72 C
3074 16-02-2020 16:05:00 18 C 51 % 7.72 C
3075 16-02-2020 16:10:00 18.1 C 52 % 8.1 C
Sensor: Nr:Datum:Temp:Feuchte:Taupunkt:
Aussen-T/F 3076 16-02-2020 16:15:00 17.9 C 52 % 7.91 C
3077 16-02-2020 16:20:00 17.8 C 52 % 7.82 C
3078 16-02-2020 16:25:00 17.8 C 52 % 7.82 C
3079 16-02-2020 16:30:00 17.8 C 52 % 7.82 C
3080 16-02-2020 16:35:00 17.8 C 53 % 8.1 C
3081 16-02-2020 16:40:00 17.7 C 52 % 7.73 C
3082 16-02-2020 16:45:00 17.6 C 53 % 7.92 C
3083 16-02-2020 16:50:00 17.4 C 53 % 7.73 C
3084 16-02-2020 16:55:00 17.2 C 54 % 7.82 C
3085 16-02-2020 17:00:00 17.1 C 54 % 7.73 C
3086 16-02-2020 17:05:00 16.9 C 55 % 7.81 C
3087 16-02-2020 17:10:00 16.8 C 55 % 7.72 C
3088 16-02-2020 17:15:00 16.7 C 56 % 7.89 C
3089 16-02-2020 17:20:00 16.5 C 58 % 8.22 C
3090 16-02-2020 17:25:00 16.2 C 57 % 7.68 C
3091 16-02-2020 17:30:00 16.1 C 58 % 7.84 C
3092 16-02-2020 17:35:00 15.9 C 58 % 7.66 C
3093 16-02-2020 17:40:00 15.9 C 58 % 7.66 C
3094 16-02-2020 17:45:00 15.8 C 58 % 7.56 C
3095 16-02-2020 17:50:00 15.7 C 59 % 7.72 C
3096 16-02-2020 17:55:00 15.4 C 59 % 7.44 C
3097 16-02-2020 18:00:00 15.3 C 59 % 7.34 C
3098 16-02-2020 18:05:00 15.3 C 59 % 7.34 C
3099 16-02-2020 18:10:00 15.3 C 59 % 7.34 C
3100 16-02-2020 18:15:00 15.3 C 59 % 7.34 C
Sensor: Nr:Datum:Temp:Feuchte:Taupunkt:
Aussen-T/F 3101 16-02-2020 18:20:00 15.4 C 59 % 7.44 C
3102 16-02-2020 18:25:00 15.4 C 58 % 7.19 C
3103 16-02-2020 18:30:00 15.5 C 58 % 7.28 C
3104 16-02-2020 18:35:00 15.5 C 58 % 7.28 C
3105 16-02-2020 18:40:00 15.5 C 58 % 7.28 C
3106 16-02-2020 18:45:00 15.6 C 57 % 7.12 C
3107 16-02-2020 18:50:00 15.7 C 57 % 7.21 C
3108 16-02-2020 18:55:00 15.7 C 57 % 7.21 C
3109 16-02-2020 19:00:00 15.7 C 57 % 7.21 C
3110 16-02-2020 19:05:00 15.6 C 57 % 7.12 C
3111 16-02-2020 19:10:00 15.8 C 57 % 7.31 C
3112 16-02-2020 19:15:00 15.8 C 56 % 7.05 C
3113 16-02-2020 19:20:00 15.8 C 57 % 7.31 C
3114 16-02-2020 19:25:00 15.9 C 56 % 7.14 C
3115 16-02-2020 19:30:00 15.9 C 57 % 7.4 C
3116 16-02-2020 19:35:00 15.9 C 57 % 7.4 C
3117 16-02-2020 19:40:00 15.9 C 57 % 7.4 C
3118 16-02-2020 19:45:00 15.9 C 57 % 7.4 C
3119 16-02-2020 19:50:00 15.8 C 58 % 7.56 C
3120 16-02-2020 19:55:00 15.8 C 58 % 7.56 C
3121 16-02-2020 20:00:00 15.9 C 57 % 7.4 C
3122 16-02-2020 20:05:00 16 C 57 % 7.49 C
3123 16-02-2020 20:10:00 16.1 C 57 % 7.59 C
3124 16-02-2020 20:15:00 16.1 C 57 % 7.59 C
3125 16-02-2020 20:20:00 16.1 C 57 % 7.59 C
Sensor: Nr:Datum:Temp:Feuchte:Taupunkt:
Aussen-T/F 3126 16-02-2020 20:25:00 16.2 C 57 % 7.68 C
3127 16-02-2020 20:30:00 16.2 C 57 % 7.68 C
3128 16-02-2020 20:35:00 16.2 C 57 % 7.68 C
3129 16-02-2020 20:40:00 16.2 C 57 % 7.68 C
3130 16-02-2020 20:45:00 16.2 C 58 % 7.94 C
3131 16-02-2020 20:50:00 16.1 C 58 % 7.84 C
3132 16-02-2020 20:55:00 16.2 C 58 % 7.94 C
3133 16-02-2020 21:00:00 16.3 C 57 % 7.77 C
3134 16-02-2020 21:05:00 16.4 C 57 % 7.87 C
3135 16-02-2020 21:10:00 16.3 C 57 % 7.77 C
3136 16-02-2020 21:15:00 16.3 C 58 % 8.03 C
3137 16-02-2020 21:20:00 16.3 C 58 % 8.03 C
3138 16-02-2020 21:25:00 16.3 C 58 % 8.03 C
3139 16-02-2020 21:30:00 16.4 C 58 % 8.12 C
3140 16-02-2020 21:35:00 16.5 C 58 % 8.22 C
3141 16-02-2020 21:40:00 16.6 C 58 % 8.31 C
3142 16-02-2020 21:45:00 16.5 C 58 % 8.22 C
3143 16-02-2020 21:50:00 16.6 C 58 % 8.31 C
3144 16-02-2020 21:55:00 16.6 C 58 % 8.31 C
3145 16-02-2020 22:00:00 16.6 C 59 % 8.56 C
3146 16-02-2020 22:05:00 16.6 C 59 % 8.56 C
3147 16-02-2020 22:10:00 16.4 C 59 % 8.38 C
3148 16-02-2020 22:15:00 16.4 C 60 % 8.62 C
3149 16-02-2020 22:20:00 16.3 C 60 % 8.53 C
3150 16-02-2020 22:25:00 16.3 C 61 % 8.77 C
Sensor: Nr:Datum:Temp:Feuchte:Taupunkt:
Aussen-T/F 3151 16-02-2020 22:30:00 16.3 C 61 % 8.77 C
3152 16-02-2020 22:35:00 16.3 C 62 % 9.01 C
3153 16-02-2020 22:40:00 16.2 C 62 % 8.92 C
3154 16-02-2020 22:45:00 16.2 C 62 % 8.92 C
3155 16-02-2020 22:50:00 16.2 C 63 % 9.16 C
3156 16-02-2020 22:55:00 16.2 C 63 % 9.16 C
3157 16-02-2020 23:00:00 16.1 C 65 % 9.53 C
3158 16-02-2020 23:05:00 15.8 C 67 % 9.69 C
3159 16-02-2020 23:10:00 15.5 C 69 % 9.84 C
3160 16-02-2020 23:15:00 14.8 C 76 % 10.61 C
3161 16-02-2020 23:20:00 13.6 C 78 % 9.84 C
3162 16-02-2020 23:25:00 12.8 C 80 % 9.44 C
3163 16-02-2020 23:30:00 12 C 81 % 8.84 C
3164 16-02-2020 23:35:00 11.5 C 84 % 8.89 C
3165 16-02-2020 23:40:00 11.2 C 85 % 8.77 C
3166 16-02-2020 23:45:00 10.9 C 85 % 8.48 C
3167 16-02-2020 23:50:00 10.7 C 86 % 8.46 C
3168 16-02-2020 23:55:00 10.6 C 86 % 8.36 C
3169 17-02-2020 00:00:00 10.3 C 86 % 8.06 C
3170 17-02-2020 00:05:00 10.2 C 87 % 8.14 C
3171 17-02-2020 00:10:00 10.2 C 87 % 8.14 C
3172 17-02-2020 00:15:00 10.1 C 88 % 8.21 C
3173 17-02-2020 00:20:00 10 C 89 % 8.27 C
3174 17-02-2020 00:25:00 9.9 C 89 % 8.17 C
3175 17-02-2020 00:30:00 9.8 C 89 % 8.08 C
Sensor: Nr:Datum:Temp:Feuchte:Taupunkt:
Aussen-T/F 3176 17-02-2020 00:35:00 9.8 C 89 % 8.08 C
3177 17-02-2020 00:40:00 9.8 C 89 % 8.08 C
3178 17-02-2020 00:45:00 9.8 C 89 % 8.08 C
3179 17-02-2020 00:50:00 9.8 C 88 % 7.91 C
3180 17-02-2020 00:55:00 9.8 C 88 % 7.91 C
3181 17-02-2020 01:00:00 9.7 C 88 % 7.81 C
3182 17-02-2020 01:05:00 9.7 C 88 % 7.81 C
3183 17-02-2020 01:10:00 9.7 C 88 % 7.81 C
3184 17-02-2020 01:15:00 9.6 C 88 % 7.71 C
3185 17-02-2020 01:20:00 9.6 C 87 % 7.55 C
3186 17-02-2020 01:25:00 9.5 C 87 % 7.45 C
3187 17-02-2020 01:30:00 9.5 C 87 % 7.45 C
3188 17-02-2020 01:35:00 9.4 C 86 % 7.18 C
3189 17-02-2020 01:40:00 9.3 C 86 % 7.08 C
3190 17-02-2020 01:45:00 9.3 C 87 % 7.25 C
3191 17-02-2020 01:50:00 9.2 C 88 % 7.32 C
3192 17-02-2020 01:55:00 9.1 C 89 % 7.39 C
3193 17-02-2020 02:00:00 9 C 90 % 7.45 C
3194 17-02-2020 02:05:00 8.9 C 91 % 7.51 C
3195 17-02-2020 02:10:00 8.8 C 90 % 7.25 C
3196 17-02-2020 02:15:00 8.7 C 89 % 6.99 C
3197 17-02-2020 02:20:00 8.6 C 86 % 6.39 C
3198 17-02-2020 02:25:00 8.6 C 86 % 6.39 C
3199 17-02-2020 02:30:00 8.4 C 86 % 6.2 C
3200 17-02-2020 02:35:00 8.3 C 83 % 5.59 C
Sensor: Nr:Datum:Temp:Feuchte:Taupunkt:
Aussen-T/F 3201 17-02-2020 02:40:00 8.3 C 84 % 5.76 C
3202 17-02-2020 02:45:00 8.2 C 83 % 5.49 C
3203 17-02-2020 02:50:00 8.2 C 82 % 5.32 C
3204 17-02-2020 02:55:00 8.2 C 82 % 5.32 C
3205 17-02-2020 03:00:00 8.2 C 82 % 5.32 C
3206 17-02-2020 03:05:00 8.3 C 82 % 5.41 C
3207 17-02-2020 03:10:00 8.3 C 82 % 5.41 C
3208 17-02-2020 03:15:00 8.3 C 82 % 5.41 C
3209 17-02-2020 03:20:00 8.3 C 82 % 5.41 C
3210 17-02-2020 03:25:00 8.3 C 83 % 5.59 C
3211 17-02-2020 03:30:00 8.3 C 83 % 5.59 C
3212 17-02-2020 03:35:00 8.3 C 83 % 5.59 C
3213 17-02-2020 03:40:00 8.3 C 82 % 5.41 C
3214 17-02-2020 03:45:00 8.4 C 82 % 5.51 C
3215 17-02-2020 03:50:00 8.4 C 82 % 5.51 C
3216 17-02-2020 03:55:00 8.4 C 82 % 5.51 C
3217 17-02-2020 04:00:00 8.4 C 82 % 5.51 C
3218 17-02-2020 04:05:00 8.4 C 82 % 5.51 C
3219 17-02-2020 04:10:00 8.3 C 82 % 5.41 C
3220 17-02-2020 04:15:00 8.3 C 82 % 5.41 C
3221 17-02-2020 04:20:00 8.3 C 82 % 5.41 C
3222 17-02-2020 04:25:00 8.3 C 82 % 5.41 C
3223 17-02-2020 04:30:00 8.3 C 83 % 5.59 C
3224 17-02-2020 04:35:00 8.3 C 83 % 5.59 C
3225 17-02-2020 04:40:00 8.2 C 83 % 5.49 C
Sensor: Nr:Datum:Temp:Feuchte:Taupunkt:
Aussen-T/F 3226 17-02-2020 04:45:00 8.2 C 83 % 5.49 C
3227 17-02-2020 04:50:00 8.2 C 83 % 5.49 C
3228 17-02-2020 04:55:00 8.2 C 84 % 5.66 C
3229 17-02-2020 05:00:00 8.1 C 84 % 5.56 C
3230 17-02-2020 05:05:00 8.1 C 84 % 5.56 C
3231 17-02-2020 05:10:00 8.1 C 84 % 5.56 C
3232 17-02-2020 05:15:00 8.1 C 84 % 5.56 C
3233 17-02-2020 05:20:00 8.1 C 84 % 5.56 C
3234 17-02-2020 05:25:00 8.1 C 84 % 5.56 C
3235 17-02-2020 05:30:00 8.1 C 85 % 5.73 C
3236 17-02-2020 05:35:00 8 C 85 % 5.64 C
3237 17-02-2020 05:40:00 7.9 C 85 % 5.54 C
3238 17-02-2020 05:45:00 7.9 C 85 % 5.54 C
3239 17-02-2020 05:50:00 8 C 85 % 5.64 C
3240 17-02-2020 05:55:00 7.9 C 85 % 5.54 C
3241 17-02-2020 06:00:00 7.9 C 86 % 5.71 C
3242 17-02-2020 06:05:00 7.9 C 86 % 5.71 C
3243 17-02-2020 06:10:00 7.9 C 86 % 5.71 C
3244 17-02-2020 06:15:00 7.9 C 86 % 5.71 C
3245 17-02-2020 06:20:00 7.9 C 86 % 5.71 C
3246 17-02-2020 06:25:00 8 C 86 % 5.81 C
3247 17-02-2020 06:30:00 8.1 C 86 % 5.9 C
3248 17-02-2020 06:35:00 8.2 C 85 % 5.83 C
3249 17-02-2020 06:40:00 8.2 C 85 % 5.83 C
3250 17-02-2020 06:45:00 8.2 C 85 % 5.83 C
Sensor: Nr:Datum:Temp:Feuchte:Taupunkt:
Aussen-T/F 3251 17-02-2020 06:50:00 8.2 C 85 % 5.83 C
3252 17-02-2020 06:55:00 8.2 C 85 % 5.83 C
3253 17-02-2020 07:00:00 8.3 C 85 % 5.93 C
3254 17-02-2020 07:05:00 8.3 C 85 % 5.93 C
3255 17-02-2020 07:10:00 8.3 C 85 % 5.93 C
3256 17-02-2020 07:15:00 8.3 C 85 % 5.93 C
3257 17-02-2020 07:20:00 8.2 C 85 % 5.83 C
3258 17-02-2020 07:25:00 8.2 C 85 % 5.83 C
3259 17-02-2020 07:30:00 8.1 C 85 % 5.73 C
3260 17-02-2020 07:35:00 8.1 C 86 % 5.9 C
3261 17-02-2020 07:40:00 8.1 C 86 % 5.9 C
3262 17-02-2020 07:45:00 8.1 C 86 % 5.9 C
3263 17-02-2020 07:50:00 8.1 C 86 % 5.9 C
3264 17-02-2020 07:55:00 8 C 86 % 5.81 C
3265 17-02-2020 08:00:00 7.9 C 86 % 5.71 C
3266 17-02-2020 08:05:00 7.9 C 86 % 5.71 C
3267 17-02-2020 08:10:00 7.9 C 86 % 5.71 C
3268 17-02-2020 08:15:00 8 C 86 % 5.81 C
3269 17-02-2020 08:20:00 8.1 C 86 % 5.9 C
3270 17-02-2020 08:25:00 8.1 C 86 % 5.9 C
3271 17-02-2020 08:30:00 8.1 C 86 % 5.9 C
3272 17-02-2020 08:35:00 8.2 C 86 % 6 C
3273 17-02-2020 08:40:00 8.1 C 86 % 5.9 C
3274 17-02-2020 08:45:00 8.2 C 85 % 5.83 C
3275 17-02-2020 08:50:00 8.3 C 85 % 5.93 C
Sensor: Nr:Datum:Temp:Feuchte:Taupunkt:
Aussen-T/F 3276 17-02-2020 08:55:00 8.4 C 85 % 6.03 C
3277 17-02-2020 09:00:00 8.5 C 85 % 6.13 C
3278 17-02-2020 09:05:00 8.6 C 84 % 6.05 C
3279 17-02-2020 09:10:00 8.6 C 84 % 6.05 C
3280 17-02-2020 09:15:00 8.7 C 83 % 5.98 C
3281 17-02-2020 09:20:00 8.7 C 83 % 5.98 C
3282 17-02-2020 09:25:00 8.7 C 83 % 5.98 C
3283 17-02-2020 09:30:00 8.8 C 83 % 6.08 C
3284 17-02-2020 09:35:00 8.8 C 83 % 6.08 C
3285 17-02-2020 09:40:00 8.8 C 84 % 6.25 C
3286 17-02-2020 09:45:00 8.8 C 84 % 6.25 C
3287 17-02-2020 09:50:00 8.7 C 83 % 5.98 C
3288 17-02-2020 09:55:00 8.7 C 83 % 5.98 C
3289 17-02-2020 10:00:00 8.7 C 83 % 5.98 C
3290 17-02-2020 10:05:00 8.7 C 83 % 5.98 C
3291 17-02-2020 10:10:00 8.8 C 83 % 6.08 C
3292 17-02-2020 10:15:00 8.8 C 82 % 5.9 C
3293 17-02-2020 10:20:00 8.8 C 82 % 5.9 C
3294 17-02-2020 10:25:00 8.9 C 83 % 6.17 C
3295 17-02-2020 10:30:00 9 C 82 % 6.1 C
3296 17-02-2020 10:35:00 9.1 C 83 % 6.37 C
3297 17-02-2020 10:40:00 9.1 C 83 % 6.37 C
3298 17-02-2020 10:45:00 9.2 C 82 % 6.29 C
3299 17-02-2020 10:50:00 9.2 C 82 % 6.29 C
3300 17-02-2020 10:55:00 9.3 C 82 % 6.39 C
Sensor: Nr:Datum:Temp:Feuchte:Taupunkt:
Aussen-T/F 3301 17-02-2020 11:00:00 9.3 C 81 % 6.21 C
3302 17-02-2020 11:05:00 9.3 C 80 % 6.03 C
3303 17-02-2020 11:10:00 9.3 C 79 % 5.85 C
3304 17-02-2020 11:15:00 9.4 C 79 % 5.95 C
3305 17-02-2020 11:20:00 9.4 C 80 % 6.13 C
3306 17-02-2020 11:25:00 9.4 C 79 % 5.95 C
3307 17-02-2020 11:30:00 9.5 C 79 % 6.05 C
3308 17-02-2020 11:35:00 9.5 C 78 % 5.86 C
3309 17-02-2020 11:40:00 9.6 C 78 % 5.96 C
3310 17-02-2020 11:45:00 9.5 C 78 % 5.86 C
3311 17-02-2020 11:50:00 9.5 C 78 % 5.86 C
3312 17-02-2020 11:55:00 9.5 C 77 % 5.68 C
3313 17-02-2020 12:00:00 9.5 C 78 % 5.86 C
3314 17-02-2020 12:05:00 9.6 C 77 % 5.77 C
3315 17-02-2020 12:10:00 9.6 C 77 % 5.77 C
3316 17-02-2020 12:15:00 9.6 C 77 % 5.77 C
3317 17-02-2020 12:20:00 9.6 C 76 % 5.58 C
3318 17-02-2020 12:25:00 9.5 C 75 % 5.3 C
3319 17-02-2020 12:30:00 9.5 C 75 % 5.3 C
3320 17-02-2020 12:35:00 9.5 C 76 % 5.49 C
3321 17-02-2020 12:40:00 9.5 C 76 % 5.49 C
3322 17-02-2020 12:45:00 9.6 C 75 % 5.39 C
3323 17-02-2020 12:50:00 9.6 C 74 % 5.2 C
3324 17-02-2020 12:55:00 9.6 C 75 % 5.39 C
3325 17-02-2020 13:00:00 9.6 C 74 % 5.2 C
Sensor: Nr:Datum:Temp:Feuchte:Taupunkt:
Aussen-T/F 3326 17-02-2020 13:05:00 9.7 C 74 % 5.3 C
3327 17-02-2020 13:10:00 9.8 C 74 % 5.39 C
3328 17-02-2020 13:15:00 9.8 C 73 % 5.2 C
3329 17-02-2020 13:20:00 9.8 C 74 % 5.39 C
3330 17-02-2020 13:25:00 10 C 74 % 5.59 C
3331 17-02-2020 13:30:00 10.2 C 73 % 5.58 C
3332 17-02-2020 13:35:00 10.2 C 74 % 5.78 C
3333 17-02-2020 13:40:00 10.3 C 74 % 5.88 C
3334 17-02-2020 13:45:00 10.3 C 74 % 5.88 C
3335 17-02-2020 13:50:00 10.4 C 73 % 5.78 C
3336 17-02-2020 13:55:00 10.3 C 73 % 5.68 C
3337 17-02-2020 14:00:00 10.3 C 73 % 5.68 C
3338 17-02-2020 14:05:00 10.2 C 75 % 5.97 C
3339 17-02-2020 14:10:00 10.3 C 74 % 5.88 C
3340 17-02-2020 14:15:00 10.3 C 75 % 6.07 C
3341 17-02-2020 14:20:00 10.4 C 74 % 5.97 C
3342 17-02-2020 14:25:00 10.5 C 74 % 6.07 C
3343 17-02-2020 14:30:00 10.6 C 74 % 6.17 C
3344 17-02-2020 14:35:00 10.6 C 73 % 5.97 C
3345 17-02-2020 14:40:00 10.6 C 74 % 6.17 C
3346 17-02-2020 14:45:00 10.6 C 73 % 5.97 C
3347 17-02-2020 14:50:00 10.6 C 74 % 6.17 C
3348 17-02-2020 14:55:00 10.5 C 74 % 6.07 C
3349 17-02-2020 15:00:00 10.5 C 74 % 6.07 C
3350 17-02-2020 15:05:00 10.6 C 74 % 6.17 C
Sensor: Nr:Datum:Temp:Feuchte:Taupunkt:
Aussen-T/F 3351 17-02-2020 15:10:00 10.6 C 74 % 6.17 C
3352 17-02-2020 15:15:00 10.7 C 73 % 6.07 C
3353 17-02-2020 15:20:00 10.6 C 74 % 6.17 C
3354 17-02-2020 15:25:00 10.7 C 74 % 6.26 C
3355 17-02-2020 15:30:00 10.7 C 73 % 6.07 C
3356 17-02-2020 15:35:00 10.7 C 74 % 6.26 C
3357 17-02-2020 15:40:00 10.8 C 73 % 6.16 C
3358 17-02-2020 15:45:00 10.9 C 73 % 6.26 C
3359 17-02-2020 15:50:00 10.9 C 72 % 6.06 C
3360 17-02-2020 15:55:00 11.1 C 72 % 6.25 C
3361 17-02-2020 16:00:00 11.1 C 72 % 6.25 C
3362 17-02-2020 16:05:00 11.1 C 71 % 6.05 C
3363 17-02-2020 16:10:00 10.9 C 72 % 6.06 C
3364 17-02-2020 16:15:00 10.8 C 72 % 5.96 C
3365 17-02-2020 16:20:00 10.8 C 73 % 6.16 C
3366 17-02-2020 16:25:00 10.8 C 72 % 5.96 C
3367 17-02-2020 16:30:00 10.8 C 73 % 6.16 C
3368 17-02-2020 16:35:00 10.8 C 73 % 6.16 C
3369 17-02-2020 16:40:00 11 C 73 % 6.35 C
3370 17-02-2020 16:45:00 11.2 C 71 % 6.14 C
3371 17-02-2020 16:50:00 11.2 C 71 % 6.14 C
3372 17-02-2020 16:55:00 11.1 C 70 % 5.84 C
3373 17-02-2020 17:00:00 10.9 C 71 % 5.86 C
3374 17-02-2020 17:05:00 10.8 C 71 % 5.76 C
3375 17-02-2020 17:10:00 10.6 C 71 % 5.57 C
Sensor: Nr:Datum:Temp:Feuchte:Taupunkt:
Aussen-T/F 3376 17-02-2020 17:15:00 10.6 C 72 % 5.77 C
3377 17-02-2020 17:20:00 10.4 C 73 % 5.78 C
3378 17-02-2020 17:25:00 10.4 C 73 % 5.78 C
3379 17-02-2020 17:30:00 10.1 C 76 % 6.07 C
3380 17-02-2020 17:35:00 9.2 C 82 % 6.29 C
3381 17-02-2020 17:40:00 8.4 C 82 % 5.51 C
3382 17-02-2020 17:45:00 7.9 C 84 % 5.37 C
3383 17-02-2020 17:50:00 7.7 C 86 % 5.51 C
3384 17-02-2020 17:55:00 7.5 C 86 % 5.31 C
3385 17-02-2020 18:00:00 7.4 C 85 % 5.05 C
3386 17-02-2020 18:05:00 7.4 C 85 % 5.05 C
3387 17-02-2020 18:10:00 7.4 C 85 % 5.05 C
3388 17-02-2020 18:15:00 7.4 C 84 % 4.88 C
3389 17-02-2020 18:20:00 7.4 C 84 % 4.88 C
3390 17-02-2020 18:25:00 7.4 C 84 % 4.88 C
3391 17-02-2020 18:30:00 7.3 C 84 % 4.78 C
3392 17-02-2020 18:35:00 7.3 C 84 % 4.78 C
3393 17-02-2020 18:40:00 7.1 C 84 % 4.58 C
3394 17-02-2020 18:45:00 7.1 C 84 % 4.58 C
3395 17-02-2020 18:50:00 7.1 C 84 % 4.58 C
3396 17-02-2020 18:55:00 7.2 C 83 % 4.51 C
3397 17-02-2020 19:00:00 7.2 C 84 % 4.68 C
3398 17-02-2020 19:05:00 7.1 C 83 % 4.41 C
3399 17-02-2020 19:10:00 7 C 84 % 4.49 C
3400 17-02-2020 19:15:00 6.9 C 84 % 4.39 C
Sensor: Nr:Datum:Temp:Feuchte:Taupunkt:
Aussen-T/F 3401 17-02-2020 19:20:00 6.8 C 85 % 4.46 C
3402 17-02-2020 19:25:00 6.7 C 85 % 4.36 C
3403 17-02-2020 19:30:00 6.6 C 86 % 4.43 C
3404 17-02-2020 19:35:00 6.5 C 86 % 4.33 C
3405 17-02-2020 19:40:00 6.4 C 87 % 4.4 C
3406 17-02-2020 19:45:00 6.4 C 87 % 4.4 C
3407 17-02-2020 19:50:00 6.5 C 87 % 4.5 C
3408 17-02-2020 19:55:00 6.5 C 87 % 4.5 C
3409 17-02-2020 20:00:00 6.3 C 87 % 4.3 C
3410 17-02-2020 20:05:00 6.2 C 87 % 4.2 C
3411 17-02-2020 20:10:00 6 C 87 % 4 C
3412 17-02-2020 20:15:00 5.8 C 88 % 3.97 C
3413 17-02-2020 20:20:00 5.7 C 88 % 3.87 C
3414 17-02-2020 20:25:00 5.5 C 89 % 3.84 C
3415 17-02-2020 20:30:00 5.3 C 89 % 3.64 C
3416 17-02-2020 20:35:00 5.2 C 90 % 3.7 C
3417 17-02-2020 20:40:00 5.1 C 90 % 3.6 C
3418 17-02-2020 20:45:00 5.1 C 91 % 3.76 C
3419 17-02-2020 20:50:00 4.9 C 91 % 3.56 C
3420 17-02-2020 20:55:00 4.9 C 91 % 3.56 C
3421 17-02-2020 21:00:00 4.9 C 92 % 3.71 C
3422 17-02-2020 21:05:00 4.9 C 92 % 3.71 C
3423 17-02-2020 21:10:00 5.1 C 93 % 4.06 C
3424 17-02-2020 21:15:00 5.2 C 93 % 4.16 C
3425 17-02-2020 21:20:00 5.3 C 93 % 4.26 C
Sensor: Nr:Datum:Temp:Feuchte:Taupunkt:
Aussen-T/F 3426 17-02-2020 21:25:00 5.4 C 93 % 4.36 C
3427 17-02-2020 21:30:00 5.5 C 94 % 4.61 C
3428 17-02-2020 21:35:00 5.6 C 94 % 4.71 C
3429 17-02-2020 21:40:00 5.6 C 93 % 4.56 C
3430 17-02-2020 21:45:00 5.6 C 93 % 4.56 C
3431 17-02-2020 21:50:00 5.6 C 93 % 4.56 C
3432 17-02-2020 21:55:00 5.6 C 93 % 4.56 C
3433 17-02-2020 22:00:00 5.6 C 93 % 4.56 C
3434 17-02-2020 22:05:00 5.7 C 94 % 4.81 C
3435 17-02-2020 22:10:00 6 C 94 % 5.11 C
3436 17-02-2020 22:15:00 6.2 C 94 % 5.31 C
3437 17-02-2020 22:20:00 6.5 C 93 % 5.45 C
3438 17-02-2020 22:25:00 6.8 C 92 % 5.59 C
3439 17-02-2020 22:30:00 7.1 C 90 % 5.57 C
3440 17-02-2020 22:35:00 7.3 C 89 % 5.61 C
3441 17-02-2020 22:40:00 7.6 C 88 % 5.74 C
3442 17-02-2020 22:45:00 7.7 C 86 % 5.51 C
3443 17-02-2020 22:50:00 7.9 C 85 % 5.54 C
3444 17-02-2020 22:55:00 8.1 C 84 % 5.56 C
3445 17-02-2020 23:00:00 8.2 C 83 % 5.49 C
3446 17-02-2020 23:05:00 8.3 C 83 % 5.59 C
3447 17-02-2020 23:10:00 8.3 C 83 % 5.59 C
3448 17-02-2020 23:15:00 8.2 C 83 % 5.49 C
3449 17-02-2020 23:20:00 8.2 C 84 % 5.66 C
3450 17-02-2020 23:25:00 8.1 C 84 % 5.56 C
Sensor: Nr:Datum:Temp:Feuchte:Taupunkt:
Aussen-T/F 3451 17-02-2020 23:30:00 7.9 C 85 % 5.54 C
3452 17-02-2020 23:35:00 7.8 C 85 % 5.44 C
3453 17-02-2020 23:40:00 7.8 C 84 % 5.27 C
3454 17-02-2020 23:45:00 7.8 C 84 % 5.27 C
3455 17-02-2020 23:50:00 7.8 C 83 % 5.1 C
3456 17-02-2020 23:55:00 7.8 C 82 % 4.92 C
3457 18-02-2020 00:00:00 7.8 C 83 % 5.1 C
3458 18-02-2020 00:05:00 7.8 C 82 % 4.92 C
3459 18-02-2020 00:10:00 7.9 C 82 % 5.02 C
3460 18-02-2020 00:15:00 8 C 81 % 4.94 C
3461 18-02-2020 00:20:00 8 C 81 % 4.94 C
3462 18-02-2020 00:25:00 8 C 80 % 4.77 C
3463 18-02-2020 00:30:00 8.1 C 80 % 4.86 C
3464 18-02-2020 00:35:00 8.1 C 79 % 4.68 C
3465 18-02-2020 00:40:00 8.1 C 79 % 4.68 C
3466 18-02-2020 00:45:00 8.2 C 79 % 4.78 C
3467 18-02-2020 00:50:00 8.2 C 79 % 4.78 C
3468 18-02-2020 00:55:00 8.1 C 79 % 4.68 C
3469 18-02-2020 01:00:00 8.1 C 79 % 4.68 C
3470 18-02-2020 01:05:00 8.2 C 78 % 4.6 C
3471 18-02-2020 01:10:00 8.2 C 78 % 4.6 C
3472 18-02-2020 01:15:00 8.2 C 79 % 4.78 C
3473 18-02-2020 01:20:00 8.2 C 79 % 4.78 C
3474 18-02-2020 01:25:00 8.1 C 79 % 4.68 C
3475 18-02-2020 01:30:00 8.1 C 79 % 4.68 C
Sensor: Nr:Datum:Temp:Feuchte:Taupunkt:
Aussen-T/F 3476 18-02-2020 01:35:00 8 C 80 % 4.77 C
3477 18-02-2020 01:40:00 8 C 80 % 4.77 C
3478 18-02-2020 01:45:00 7.9 C 81 % 4.85 C
3479 18-02-2020 01:50:00 7.9 C 81 % 4.85 C
3480 18-02-2020 01:55:00 7.9 C 81 % 4.85 C
3481 18-02-2020 02:00:00 7.8 C 81 % 4.75 C
3482 18-02-2020 02:05:00 7.8 C 81 % 4.75 C
3483 18-02-2020 02:10:00 7.8 C 81 % 4.75 C
3484 18-02-2020 02:15:00 7.8 C 81 % 4.75 C
3485 18-02-2020 02:20:00 7.7 C 81 % 4.65 C
3486 18-02-2020 02:25:00 7.6 C 81 % 4.55 C
3487 18-02-2020 02:30:00 7.6 C 81 % 4.55 C
3488 18-02-2020 02:35:00 7.5 C 81 % 4.46 C
3489 18-02-2020 02:40:00 7.4 C 81 % 4.36 C
3490 18-02-2020 02:45:00 7.4 C 81 % 4.36 C
3491 18-02-2020 02:50:00 7.3 C 81 % 4.26 C
3492 18-02-2020 02:55:00 7.3 C 82 % 4.44 C
3493 18-02-2020 03:00:00 7.3 C 82 % 4.44 C
3494 18-02-2020 03:05:00 7.3 C 82 % 4.44 C
3495 18-02-2020 03:10:00 7.3 C 82 % 4.44 C
3496 18-02-2020 03:15:00 7.4 C 82 % 4.53 C
3497 18-02-2020 03:20:00 7.5 C 81 % 4.46 C
3498 18-02-2020 03:25:00 7.6 C 80 % 4.38 C
3499 18-02-2020 03:30:00 7.6 C 81 % 4.55 C
3500 18-02-2020 03:35:00 7.6 C 81 % 4.55 C
Sensor: Nr:Datum:Temp:Feuchte:Taupunkt:
Aussen-T/F 3501 18-02-2020 03:40:00 7.5 C 80 % 4.28 C
3502 18-02-2020 03:45:00 7.4 C 81 % 4.36 C
3503 18-02-2020 03:50:00 7.3 C 81 % 4.26 C
3504 18-02-2020 03:55:00 7.2 C 82 % 4.34 C
3505 18-02-2020 04:00:00 7.2 C 82 % 4.34 C
3506 18-02-2020 04:05:00 7.1 C 82 % 4.24 C
3507 18-02-2020 04:10:00 6.9 C 82 % 4.05 C
3508 18-02-2020 04:15:00 6.8 C 82 % 3.95 C
3509 18-02-2020 04:20:00 6.8 C 82 % 3.95 C
3510 18-02-2020 04:25:00 6.8 C 82 % 3.95 C
3511 18-02-2020 04:30:00 6.8 C 82 % 3.95 C
3512 18-02-2020 04:35:00 6.7 C 82 % 3.85 C
3513 18-02-2020 04:40:00 6.7 C 83 % 4.02 C
3514 18-02-2020 04:45:00 6.7 C 83 % 4.02 C
3515 18-02-2020 04:50:00 6.7 C 83 % 4.02 C
3516 18-02-2020 04:55:00 6.6 C 82 % 3.75 C
3517 18-02-2020 05:00:00 6.6 C 83 % 3.92 C
3518 18-02-2020 05:05:00 6.6 C 82 % 3.75 C
3519 18-02-2020 05:10:00 6.5 C 82 % 3.66 C
3520 18-02-2020 05:15:00 6.4 C 83 % 3.73 C
3521 18-02-2020 05:20:00 6.4 C 83 % 3.73 C
3522 18-02-2020 05:25:00 6.3 C 83 % 3.63 C
3523 18-02-2020 05:30:00 6.4 C 83 % 3.73 C
3524 18-02-2020 05:35:00 6.3 C 83 % 3.63 C
3525 18-02-2020 05:40:00 6.3 C 83 % 3.63 C
Sensor: Nr:Datum:Temp:Feuchte:Taupunkt:
Aussen-T/F 3526 18-02-2020 05:45:00 6.3 C 83 % 3.63 C
3527 18-02-2020 05:50:00 6.3 C 83 % 3.63 C
3528 18-02-2020 05:55:00 6.2 C 84 % 3.7 C
3529 18-02-2020 06:00:00 6.2 C 84 % 3.7 C
3530 18-02-2020 06:05:00 6.2 C 84 % 3.7 C
3531 18-02-2020 06:10:00 6.1 C 84 % 3.61 C
3532 18-02-2020 06:15:00 6.1 C 84 % 3.61 C
3533 18-02-2020 06:20:00 6 C 85 % 3.67 C
3534 18-02-2020 06:25:00 6.1 C 85 % 3.77 C
3535 18-02-2020 06:30:00 6.2 C 85 % 3.87 C
3536 18-02-2020 06:35:00 6.2 C 84 % 3.7 C
3537 18-02-2020 06:40:00 6.2 C 84 % 3.7 C
3538 18-02-2020 06:45:00 6.1 C 84 % 3.61 C
3539 18-02-2020 06:50:00 6.1 C 84 % 3.61 C
3540 18-02-2020 06:55:00 6.1 C 84 % 3.61 C
3541 18-02-2020 07:00:00 5.9 C 84 % 3.41 C
3542 18-02-2020 07:05:00 5.9 C 84 % 3.41 C
3543 18-02-2020 07:10:00 5.8 C 84 % 3.31 C
3544 18-02-2020 07:15:00 5.8 C 85 % 3.48 C
3545 18-02-2020 07:20:00 5.9 C 85 % 3.58 C
3546 18-02-2020 07:25:00 5.9 C 85 % 3.58 C
3547 18-02-2020 07:30:00 5.9 C 85 % 3.58 C
3548 18-02-2020 07:35:00 5.8 C 85 % 3.48 C
3549 18-02-2020 07:40:00 5.8 C 85 % 3.48 C
3550 18-02-2020 07:45:00 5.8 C 85 % 3.48 C
Sensor: Nr:Datum:Temp:Feuchte:Taupunkt:
Aussen-T/F 3551 18-02-2020 07:50:00 5.8 C 85 % 3.48 C
3552 18-02-2020 07:55:00 5.8 C 85 % 3.48 C
3553 18-02-2020 08:00:00 5.8 C 85 % 3.48 C
3554 18-02-2020 08:05:00 5.8 C 85 % 3.48 C
3555 18-02-2020 08:10:00 5.7 C 85 % 3.38 C
3556 18-02-2020 08:15:00 5.7 C 84 % 3.21 C
3557 18-02-2020 08:20:00 5.7 C 84 % 3.21 C
3558 18-02-2020 08:25:00 5.7 C 85 % 3.38 C
3559 18-02-2020 08:30:00 5.7 C 86 % 3.55 C
3560 18-02-2020 08:35:00 5.7 C 86 % 3.55 C
3561 18-02-2020 08:40:00 5.8 C 86 % 3.64 C
3562 18-02-2020 08:45:00 5.8 C 86 % 3.64 C
3563 18-02-2020 08:50:00 5.8 C 85 % 3.48 C
3564 18-02-2020 08:55:00 5.8 C 85 % 3.48 C
3565 18-02-2020 09:00:00 5.8 C 85 % 3.48 C
3566 18-02-2020 09:05:00 5.9 C 85 % 3.58 C
3567 18-02-2020 09:10:00 5.9 C 86 % 3.74 C
3568 18-02-2020 09:15:00 5.9 C 86 % 3.74 C
3569 18-02-2020 09:20:00 6 C 85 % 3.67 C
3570 18-02-2020 09:25:00 6.1 C 85 % 3.77 C
3571 18-02-2020 09:30:00 6.1 C 84 % 3.61 C
3572 18-02-2020 09:35:00 6.2 C 84 % 3.7 C
3573 18-02-2020 09:40:00 6.2 C 84 % 3.7 C
3574 18-02-2020 09:45:00 6.3 C 84 % 3.8 C
3575 18-02-2020 09:50:00 6.4 C 83 % 3.73 C
Sensor: Nr:Datum:Temp:Feuchte:Taupunkt:
Aussen-T/F 3576 18-02-2020 09:55:00 6.6 C 83 % 3.92 C
3577 18-02-2020 10:00:00 6.6 C 82 % 3.75 C
3578 18-02-2020 10:05:00 6.7 C 81 % 3.68 C
3579 18-02-2020 10:10:00 6.7 C 81 % 3.68 C
3580 18-02-2020 10:15:00 6.7 C 81 % 3.68 C
3581 18-02-2020 10:20:00 6.7 C 81 % 3.68 C
3582 18-02-2020 10:25:00 6.6 C 81 % 3.58 C
3583 18-02-2020 10:30:00 6.7 C 81 % 3.68 C
3584 18-02-2020 10:35:00 6.8 C 80 % 3.6 C
3585 18-02-2020 10:40:00 6.8 C 80 % 3.6 C
3586 18-02-2020 10:45:00 6.9 C 79 % 3.52 C
3587 18-02-2020 10:50:00 7 C 79 % 3.61 C
3588 18-02-2020 10:55:00 7.1 C 79 % 3.71 C
3589 18-02-2020 11:00:00 7.2 C 79 % 3.81 C
3590 18-02-2020 11:05:00 7.3 C 79 % 3.91 C
3591 18-02-2020 11:10:00 7.3 C 79 % 3.91 C
3592 18-02-2020 11:15:00 7.3 C 78 % 3.73 C
3593 18-02-2020 11:20:00 7.3 C 78 % 3.73 C
3594 18-02-2020 11:25:00 7.3 C 78 % 3.73 C
3595 18-02-2020 11:30:00 7.4 C 78 % 3.82 C
3596 18-02-2020 11:35:00 7.5 C 78 % 3.92 C
3597 18-02-2020 11:40:00 7.6 C 77 % 3.83 C
3598 18-02-2020 11:45:00 7.7 C 77 % 3.93 C
3599 18-02-2020 11:50:00 7.7 C 77 % 3.93 C
3600 18-02-2020 11:55:00 7.8 C 77 % 4.03 C
Sensor: Nr:Datum:Temp:Feuchte:Taupunkt:
Aussen-T/F 3601 18-02-2020 12:00:00 7.8 C 77 % 4.03 C
3602 18-02-2020 12:05:00 7.8 C 77 % 4.03 C
3603 18-02-2020 12:10:00 7.9 C 77 % 4.12 C
3604 18-02-2020 12:15:00 8.1 C 77 % 4.32 C
3605 18-02-2020 12:20:00 8.1 C 77 % 4.32 C
3606 18-02-2020 12:25:00 8.1 C 75 % 3.94 C
3607 18-02-2020 12:30:00 8.1 C 75 % 3.94 C
3608 18-02-2020 12:35:00 8.1 C 75 % 3.94 C
3609 18-02-2020 12:40:00 8.1 C 74 % 3.75 C
3610 18-02-2020 12:45:00 8.1 C 75 % 3.94 C
3611 18-02-2020 12:50:00 8.2 C 76 % 4.23 C
3612 18-02-2020 12:55:00 8.4 C 74 % 4.04 C
3613 18-02-2020 13:00:00 8.6 C 75 % 4.43 C
3614 18-02-2020 13:05:00 8.8 C 74 % 4.43 C
3615 18-02-2020 13:10:00 8.8 C 74 % 4.43 C
3616 18-02-2020 13:15:00 8.8 C 72 % 4.04 C
3617 18-02-2020 13:20:00 8.6 C 73 % 4.04 C
3618 18-02-2020 13:25:00 8.5 C 74 % 4.14 C
3619 18-02-2020 13:30:00 8.4 C 74 % 4.04 C
3620 18-02-2020 13:35:00 8.3 C 75 % 4.14 C
3621 18-02-2020 13:40:00 8.3 C 76 % 4.33 C
3622 18-02-2020 13:45:00 8.4 C 76 % 4.42 C
3623 18-02-2020 13:50:00 8.6 C 75 % 4.43 C
3624 18-02-2020 13:55:00 8.6 C 73 % 4.04 C
3625 18-02-2020 14:00:00 8.5 C 74 % 4.14 C
Sensor: Nr:Datum:Temp:Feuchte:Taupunkt:
Aussen-T/F 3626 18-02-2020 14:05:00 8.4 C 74 % 4.04 C
3627 18-02-2020 14:10:00 8.4 C 75 % 4.23 C
3628 18-02-2020 14:15:00 8.4 C 76 % 4.42 C
3629 18-02-2020 14:20:00 8.3 C 76 % 4.33 C
3630 18-02-2020 14:25:00 8.3 C 76 % 4.33 C
3631 18-02-2020 14:30:00 8.2 C 76 % 4.23 C
3632 18-02-2020 14:35:00 8.2 C 76 % 4.23 C
3633 18-02-2020 14:40:00 8.2 C 75 % 4.04 C
3634 18-02-2020 14:45:00 8.1 C 76 % 4.13 C
3635 18-02-2020 14:50:00 8.2 C 75 % 4.04 C
3636 18-02-2020 14:55:00 8.3 C 74 % 3.95 C
3637 18-02-2020 15:00:00 8.4 C 75 % 4.23 C
3638 18-02-2020 15:05:00 8.6 C 73 % 4.04 C
3639 18-02-2020 15:10:00 8.7 C 73 % 4.14 C
3640 18-02-2020 15:15:00 8.7 C 74 % 4.33 C
3641 18-02-2020 15:20:00 8.7 C 73 % 4.14 C
3642 18-02-2020 15:25:00 8.7 C 72 % 3.94 C
3643 18-02-2020 15:30:00 8.6 C 72 % 3.85 C
3644 18-02-2020 15:35:00 8.6 C 72 % 3.85 C
3645 18-02-2020 15:40:00 8.6 C 73 % 4.04 C
3646 18-02-2020 15:45:00 8.6 C 73 % 4.04 C
3647 18-02-2020 15:50:00 8.5 C 73 % 3.95 C
3648 18-02-2020 15:55:00 8.5 C 73 % 3.95 C
3649 18-02-2020 16:00:00 8.6 C 73 % 4.04 C
3650 18-02-2020 16:05:00 8.6 C 72 % 3.85 C
Sensor: Nr:Datum:Temp:Feuchte:Taupunkt:
Aussen-T/F 3651 18-02-2020 16:10:00 8.6 C 73 % 4.04 C
3652 18-02-2020 16:15:00 8.6 C 73 % 4.04 C
3653 18-02-2020 16:20:00 8.4 C 73 % 3.85 C
3654 18-02-2020 16:25:00 8.4 C 73 % 3.85 C
3655 18-02-2020 16:30:00 8.4 C 74 % 4.04 C
3656 18-02-2020 16:35:00 8.3 C 74 % 3.95 C
3657 18-02-2020 16:40:00 8.3 C 74 % 3.95 C
3658 18-02-2020 16:45:00 8.3 C 74 % 3.95 C
3659 18-02-2020 16:50:00 8.2 C 74 % 3.85 C
3660 18-02-2020 16:55:00 8.2 C 75 % 4.04 C
3661 18-02-2020 17:00:00 8.2 C 75 % 4.04 C
3662 18-02-2020 17:05:00 8.2 C 76 % 4.23 C
3663 18-02-2020 17:10:00 8.1 C 76 % 4.13 C
3664 18-02-2020 17:15:00 8.1 C 76 % 4.13 C
3665 18-02-2020 17:20:00 8.1 C 76 % 4.13 C
3666 18-02-2020 17:25:00 8.2 C 76 % 4.23 C
3667 18-02-2020 17:30:00 8.2 C 75 % 4.04 C
3668 18-02-2020 17:35:00 8.2 C 75 % 4.04 C
3669 18-02-2020 17:40:00 8.2 C 76 % 4.23 C
3670 18-02-2020 17:45:00 8.1 C 76 % 4.13 C
3671 18-02-2020 17:50:00 8 C 76 % 4.04 C
3672 18-02-2020 17:55:00 7.9 C 76 % 3.94 C
3673 18-02-2020 18:00:00 7.8 C 77 % 4.03 C
3674 18-02-2020 18:05:00 7.8 C 78 % 4.21 C
3675 18-02-2020 18:10:00 7.7 C 78 % 4.11 C
Sensor: Nr:Datum:Temp:Feuchte:Taupunkt:
Aussen-T/F 3676 18-02-2020 18:15:00 7.7 C 78 % 4.11 C
3677 18-02-2020 18:20:00 7.6 C 79 % 4.2 C
3678 18-02-2020 18:25:00 7.4 C 79 % 4 C
3679 18-02-2020 18:30:00 7.4 C 79 % 4 C
3680 18-02-2020 18:35:00 7.3 C 79 % 3.91 C
3681 18-02-2020 18:40:00 7.2 C 80 % 3.99 C
3682 18-02-2020 18:45:00 7.1 C 80 % 3.89 C
3683 18-02-2020 18:50:00 7 C 81 % 3.97 C
3684 18-02-2020 18:55:00 6.9 C 81 % 3.87 C
3685 18-02-2020 19:00:00 6.8 C 81 % 3.77 C
3686 18-02-2020 19:05:00 6.7 C 82 % 3.85 C
3687 18-02-2020 19:10:00 6.6 C 82 % 3.75 C
3688 18-02-2020 19:15:00 6.4 C 82 % 3.56 C
3689 18-02-2020 19:20:00 6.3 C 82 % 3.46 C
3690 18-02-2020 19:25:00 6.2 C 83 % 3.53 C
3691 18-02-2020 19:30:00 6.1 C 84 % 3.61 C
3692 18-02-2020 19:35:00 6.1 C 84 % 3.61 C
3693 18-02-2020 19:40:00 6.1 C 84 % 3.61 C
3694 18-02-2020 19:45:00 6.2 C 84 % 3.7 C
3695 18-02-2020 19:50:00 6.2 C 84 % 3.7 C
3696 18-02-2020 19:55:00 6.2 C 84 % 3.7 C
3697 18-02-2020 20:00:00 6.3 C 84 % 3.8 C
3698 18-02-2020 20:05:00 6.3 C 84 % 3.8 C
3699 18-02-2020 20:10:00 6.3 C 83 % 3.63 C
3700 18-02-2020 20:15:00 6.2 C 83 % 3.53 C
Sensor: Nr:Datum:Temp:Feuchte:Taupunkt:
Aussen-T/F 3701 18-02-2020 20:20:00 6.2 C 84 % 3.7 C
3702 18-02-2020 20:25:00 6.3 C 84 % 3.8 C
3703 18-02-2020 20:30:00 6.6 C 83 % 3.92 C
3704 18-02-2020 20:35:00 6.8 C 82 % 3.95 C
3705 18-02-2020 20:40:00 6.9 C 82 % 4.05 C
3706 18-02-2020 20:45:00 6.9 C 82 % 4.05 C
3707 18-02-2020 20:50:00 6.9 C 82 % 4.05 C
3708 18-02-2020 20:55:00 6.8 C 82 % 3.95 C
3709 18-02-2020 21:00:00 6.8 C 82 % 3.95 C
3710 18-02-2020 21:05:00 6.8 C 82 % 3.95 C
3711 18-02-2020 21:10:00 6.8 C 82 % 3.95 C
3712 18-02-2020 21:15:00 6.8 C 82 % 3.95 C
3713 18-02-2020 21:20:00 6.8 C 82 % 3.95 C
3714 18-02-2020 21:25:00 6.8 C 83 % 4.12 C
3715 18-02-2020 21:30:00 6.9 C 82 % 4.05 C
3716 18-02-2020 21:35:00 6.9 C 82 % 4.05 C
3717 18-02-2020 21:40:00 6.8 C 82 % 3.95 C
3718 18-02-2020 21:45:00 6.8 C 82 % 3.95 C
3719 18-02-2020 21:50:00 6.9 C 83 % 4.22 C
3720 18-02-2020 21:55:00 7 C 83 % 4.32 C
3721 18-02-2020 22:00:00 7 C 82 % 4.14 C
3722 18-02-2020 22:05:00 7 C 82 % 4.14 C
3723 18-02-2020 22:10:00 7.2 C 82 % 4.34 C
3724 18-02-2020 22:15:00 7.3 C 82 % 4.44 C
3725 18-02-2020 22:20:00 7.4 C 82 % 4.53 C
Sensor: Nr:Datum:Temp:Feuchte:Taupunkt:
Aussen-T/F 3726 18-02-2020 22:25:00 7.4 C 82 % 4.53 C
3727 18-02-2020 22:30:00 7.4 C 82 % 4.53 C
3728 18-02-2020 22:35:00 7.4 C 83 % 4.71 C
3729 18-02-2020 22:40:00 7.4 C 83 % 4.71 C
3730 18-02-2020 22:45:00 7.4 C 83 % 4.71 C
3731 18-02-2020 22:50:00 7.3 C 83 % 4.61 C
3732 18-02-2020 22:55:00 7.3 C 83 % 4.61 C
3733 18-02-2020 23:00:00 7.3 C 83 % 4.61 C
3734 18-02-2020 23:05:00 7.3 C 83 % 4.61 C
3735 18-02-2020 23:10:00 7.3 C 83 % 4.61 C
3736 18-02-2020 23:15:00 7.3 C 83 % 4.61 C
3737 18-02-2020 23:20:00 7.2 C 83 % 4.51 C
3738 18-02-2020 23:25:00 7.2 C 83 % 4.51 C
3739 18-02-2020 23:30:00 7.1 C 84 % 4.58 C
3740 18-02-2020 23:35:00 7.1 C 84 % 4.58 C
3741 18-02-2020 23:40:00 7 C 84 % 4.49 C
3742 18-02-2020 23:45:00 7.1 C 84 % 4.58 C
3743 18-02-2020 23:50:00 7.1 C 84 % 4.58 C
3744 18-02-2020 23:55:00 7.1 C 84 % 4.58 C
3745 19-02-2020 00:00:00 7.1 C 83 % 4.41 C
3746 19-02-2020 00:05:00 7 C 84 % 4.49 C
3747 19-02-2020 00:10:00 7.1 C 83 % 4.41 C
3748 19-02-2020 00:15:00 7.2 C 82 % 4.34 C
3749 19-02-2020 00:20:00 7.3 C 82 % 4.44 C
3750 19-02-2020 00:25:00 7.4 C 81 % 4.36 C
Sensor: Nr:Datum:Temp:Feuchte:Taupunkt:
Aussen-T/F 3751 19-02-2020 00:30:00 7.4 C 81 % 4.36 C
3752 19-02-2020 00:35:00 7.4 C 81 % 4.36 C
3753 19-02-2020 00:40:00 7.4 C 81 % 4.36 C
3754 19-02-2020 00:45:00 7.4 C 81 % 4.36 C
3755 19-02-2020 00:50:00 7.5 C 81 % 4.46 C
3756 19-02-2020 00:55:00 7.6 C 80 % 4.38 C
3757 19-02-2020 01:00:00 7.5 C 80 % 4.28 C
3758 19-02-2020 01:05:00 7.5 C 81 % 4.46 C
3759 19-02-2020 01:10:00 7.4 C 80 % 4.18 C
3760 19-02-2020 01:15:00 7.5 C 80 % 4.28 C
3761 19-02-2020 01:20:00 7.5 C 80 % 4.28 C
3762 19-02-2020 01:25:00 7.4 C 80 % 4.18 C
3763 19-02-2020 01:30:00 7.4 C 80 % 4.18 C
3764 19-02-2020 01:35:00 7.4 C 80 % 4.18 C
3765 19-02-2020 01:40:00 7.4 C 80 % 4.18 C
3766 19-02-2020 01:45:00 7.4 C 80 % 4.18 C
3767 19-02-2020 01:50:00 7.4 C 80 % 4.18 C
3768 19-02-2020 01:55:00 7.4 C 80 % 4.18 C
3769 19-02-2020 02:00:00 7.4 C 80 % 4.18 C
3770 19-02-2020 02:05:00 7.5 C 80 % 4.28 C
3771 19-02-2020 02:10:00 7.5 C 80 % 4.28 C
3772 19-02-2020 02:15:00 7.6 C 80 % 4.38 C
3773 19-02-2020 02:20:00 7.7 C 79 % 4.3 C
3774 19-02-2020 02:25:00 7.7 C 79 % 4.3 C
3775 19-02-2020 02:30:00 7.7 C 80 % 4.47 C
Sensor: Nr:Datum:Temp:Feuchte:Taupunkt:
Aussen-T/F 3776 19-02-2020 02:35:00 7.7 C 80 % 4.47 C
3777 19-02-2020 02:40:00 7.7 C 80 % 4.47 C
3778 19-02-2020 02:45:00 7.6 C 81 % 4.55 C
3779 19-02-2020 02:50:00 7.6 C 81 % 4.55 C
3780 19-02-2020 02:55:00 7.6 C 81 % 4.55 C
3781 19-02-2020 03:00:00 7.5 C 81 % 4.46 C
3782 19-02-2020 03:05:00 7.5 C 81 % 4.46 C
3783 19-02-2020 03:10:00 7.5 C 81 % 4.46 C
3784 19-02-2020 03:15:00 7.5 C 82 % 4.63 C
3785 19-02-2020 03:20:00 7.4 C 82 % 4.53 C
3786 19-02-2020 03:25:00 7.4 C 82 % 4.53 C
3787 19-02-2020 03:30:00 7.4 C 83 % 4.71 C
3788 19-02-2020 03:35:00 7.4 C 83 % 4.71 C
3789 19-02-2020 03:40:00 7.3 C 83 % 4.61 C
3790 19-02-2020 03:45:00 7.3 C 84 % 4.78 C
3791 19-02-2020 03:50:00 7.2 C 85 % 4.85 C
3792 19-02-2020 03:55:00 7.2 C 86 % 5.02 C
3793 19-02-2020 04:00:00 7.1 C 86 % 4.92 C
3794 19-02-2020 04:05:00 7 C 87 % 4.99 C
3795 19-02-2020 04:10:00 6.9 C 87 % 4.89 C
3796 19-02-2020 04:15:00 6.9 C 87 % 4.89 C
3797 19-02-2020 04:20:00 6.8 C 87 % 4.79 C
3798 19-02-2020 04:25:00 6.8 C 88 % 4.96 C
3799 19-02-2020 04:30:00 6.8 C 88 % 4.96 C
3800 19-02-2020 04:35:00 6.8 C 88 % 4.96 C
Sensor: Nr:Datum:Temp:Feuchte:Taupunkt:
Aussen-T/F 3801 19-02-2020 04:40:00 6.8 C 88 % 4.96 C
3802 19-02-2020 04:45:00 6.8 C 88 % 4.96 C
3803 19-02-2020 04:50:00 6.8 C 88 % 4.96 C
3804 19-02-2020 04:55:00 6.8 C 88 % 4.96 C
3805 19-02-2020 05:00:00 6.8 C 88 % 4.96 C
3806 19-02-2020 05:05:00 6.9 C 88 % 5.05 C
3807 19-02-2020 05:10:00 6.9 C 87 % 4.89 C
3808 19-02-2020 05:15:00 6.9 C 87 % 4.89 C
3809 19-02-2020 05:20:00 6.9 C 87 % 4.89 C
3810 19-02-2020 05:25:00 6.9 C 87 % 4.89 C
3811 19-02-2020 05:30:00 6.8 C 86 % 4.63 C
3812 19-02-2020 05:35:00 6.8 C 86 % 4.63 C
3813 19-02-2020 05:40:00 6.8 C 86 % 4.63 C
3814 19-02-2020 05:45:00 6.8 C 85 % 4.46 C
3815 19-02-2020 05:50:00 6.7 C 85 % 4.36 C
3816 19-02-2020 05:55:00 6.7 C 85 % 4.36 C
3817 19-02-2020 06:00:00 6.6 C 84 % 4.1 C
3818 19-02-2020 06:05:00 6.6 C 84 % 4.1 C
3819 19-02-2020 06:10:00 6.6 C 84 % 4.1 C
3820 19-02-2020 06:15:00 6.6 C 85 % 4.26 C
3821 19-02-2020 06:20:00 6.5 C 85 % 4.17 C
3822 19-02-2020 06:25:00 6.4 C 84 % 3.9 C
3823 19-02-2020 06:30:00 6.4 C 84 % 3.9 C
3824 19-02-2020 06:35:00 6.4 C 85 % 4.07 C
3825 19-02-2020 06:40:00 6.3 C 85 % 3.97 C
Sensor: Nr:Datum:Temp:Feuchte:Taupunkt:
Aussen-T/F 3826 19-02-2020 06:45:00 6.3 C 85 % 3.97 C
3827 19-02-2020 06:50:00 6.2 C 84 % 3.7 C
3828 19-02-2020 06:55:00 6.1 C 84 % 3.61 C
3829 19-02-2020 07:00:00 6 C 84 % 3.51 C
3830 19-02-2020 07:05:00 5.9 C 84 % 3.41 C
3831 19-02-2020 07:10:00 6 C 84 % 3.51 C
3832 19-02-2020 07:15:00 6 C 84 % 3.51 C
3833 19-02-2020 07:20:00 6 C 84 % 3.51 C
3834 19-02-2020 07:25:00 6 C 84 % 3.51 C
3835 19-02-2020 07:30:00 6.1 C 84 % 3.61 C
3836 19-02-2020 07:35:00 6.1 C 84 % 3.61 C
3837 19-02-2020 07:40:00 6.1 C 84 % 3.61 C
3838 19-02-2020 07:45:00 6 C 84 % 3.51 C
3839 19-02-2020 07:50:00 5.9 C 84 % 3.41 C
3840 19-02-2020 07:55:00 5.9 C 83 % 3.24 C
3841 19-02-2020 08:00:00 5.8 C 83 % 3.14 C
3842 19-02-2020 08:05:00 5.8 C 83 % 3.14 C
3843 19-02-2020 08:10:00 5.8 C 83 % 3.14 C
3844 19-02-2020 08:15:00 5.7 C 84 % 3.21 C
3845 19-02-2020 08:20:00 5.7 C 84 % 3.21 C
3846 19-02-2020 08:25:00 5.6 C 83 % 2.95 C
3847 19-02-2020 08:30:00 5.5 C 83 % 2.85 C
3848 19-02-2020 08:35:00 5.4 C 83 % 2.75 C
3849 19-02-2020 08:40:00 5.4 C 83 % 2.75 C
3850 19-02-2020 08:45:00 5.4 C 83 % 2.75 C
Sensor: Nr:Datum:Temp:Feuchte:Taupunkt:
Aussen-T/F 3851 19-02-2020 08:50:00 5.4 C 83 % 2.75 C
3852 19-02-2020 08:55:00 5.4 C 83 % 2.75 C
3853 19-02-2020 09:00:00 5.4 C 83 % 2.75 C
3854 19-02-2020 09:05:00 5.4 C 83 % 2.75 C
3855 19-02-2020 09:10:00 5.5 C 83 % 2.85 C
3856 19-02-2020 09:15:00 5.5 C 83 % 2.85 C
3857 19-02-2020 09:20:00 5.5 C 82 % 2.68 C
3858 19-02-2020 09:25:00 5.5 C 83 % 2.85 C
3859 19-02-2020 09:30:00 5.5 C 83 % 2.85 C
3860 19-02-2020 09:35:00 5.6 C 83 % 2.95 C
3861 19-02-2020 09:40:00 5.6 C 82 % 2.78 C
3862 19-02-2020 09:45:00 5.7 C 83 % 3.04 C
3863 19-02-2020 09:50:00 5.7 C 82 % 2.87 C
3864 19-02-2020 09:55:00 5.7 C 82 % 2.87 C
3865 19-02-2020 10:00:00 5.7 C 82 % 2.87 C
3866 19-02-2020 10:05:00 5.6 C 83 % 2.95 C
3867 19-02-2020 10:10:00 5.4 C 83 % 2.75 C
3868 19-02-2020 10:15:00 5.3 C 83 % 2.65 C
3869 19-02-2020 10:20:00 5.3 C 84 % 2.82 C
3870 19-02-2020 10:25:00 5.4 C 84 % 2.92 C
3871 19-02-2020 10:30:00 5.6 C 84 % 3.12 C
3872 19-02-2020 10:35:00 5.7 C 83 % 3.04 C
3873 19-02-2020 10:40:00 5.8 C 82 % 2.97 C
3874 19-02-2020 10:45:00 5.9 C 80 % 2.72 C
3875 19-02-2020 10:50:00 6.1 C 80 % 2.92 C
Sensor: Nr:Datum:Temp:Feuchte:Taupunkt:
Aussen-T/F 3876 19-02-2020 10:55:00 6.2 C 79 % 2.84 C
3877 19-02-2020 11:00:00 6.2 C 79 % 2.84 C
3878 19-02-2020 11:05:00 6.2 C 80 % 3.01 C
3879 19-02-2020 11:10:00 6.2 C 79 % 2.84 C
3880 19-02-2020 11:15:00 6.3 C 78 % 2.75 C
3881 19-02-2020 11:20:00 6.4 C 78 % 2.85 C
3882 19-02-2020 11:25:00 6.5 C 78 % 2.95 C
3883 19-02-2020 11:30:00 6.6 C 76 % 2.68 C
3884 19-02-2020 11:35:00 6.7 C 75 % 2.59 C
3885 19-02-2020 11:40:00 6.7 C 73 % 2.21 C
3886 19-02-2020 11:45:00 6.7 C 73 % 2.21 C
3887 19-02-2020 11:50:00 6.7 C 73 % 2.21 C
3888 19-02-2020 11:55:00 6.8 C 73 % 2.31 C
3889 19-02-2020 12:00:00 6.9 C 73 % 2.4 C
3890 19-02-2020 12:05:00 6.9 C 72 % 2.21 C
3891 19-02-2020 12:10:00 6.9 C 72 % 2.21 C
3892 19-02-2020 12:15:00 6.9 C 71 % 2.02 C
3893 19-02-2020 12:20:00 6.9 C 71 % 2.02 C
3894 19-02-2020 12:25:00 7 C 71 % 2.11 C
3895 19-02-2020 12:30:00 7 C 69 % 1.71 C
3896 19-02-2020 12:35:00 7.1 C 70 % 2.01 C
3897 19-02-2020 12:40:00 7.1 C 69 % 1.81 C
3898 19-02-2020 12:45:00 7.1 C 69 % 1.81 C
3899 19-02-2020 12:50:00 7.2 C 69 % 1.9 C
3900 19-02-2020 12:55:00 7.2 C 69 % 1.9 C
Sensor: Nr: